Radiosonde details



Informationen :

Serial : X0335379
Type : Vaisala RS41-SGP
Date of production : 15.01.2025
Frequency : 401.600MHz
Launchsite : Poprad
Nearest town : Breña, PE (1.6km)

Altitude (Max) : 25283m at 2026-08-30 12:31:35
Speed (Max) : 995km/h at altitude 543m

Average speed : 80km/h
Average ascent rate : 5m/s
Average descent rate : -3m/s
Ascent rate (Max) : 12.5m/s
Descent rate (Max): -83.6m/s

First frame :
GYPAP8-17 at 2026-08-30 11:16:56 at altitude 3293m (OG: 3251m)
Last frame :
GYPAP8-17 at 2026-08-30 13:06:55 at altitude 969m (OG: 927m)

Flighttime : 1h49m59s
Ascent time : 1h14m39s
Descent time : 35m20s
Uptime : 1h32m10s
Killtimer : -

Distance (Straight line distance): 11554km

Distance (Route):


Frames : 1201


Measurement :

Temperature : -47.7°C
Humidity : 0.6%
Pressure : 18.3hPa


Vertical profile (SkewT) :


Elevation profile :



Receiving stations :


Receiver Frames First received Last received
SQ9EZE-13 334 2026-08-30 11:19:42 2026-08-30 13:04:08
SP9KGR-15 257 2026-08-30 11:21:07 2026-08-30 12:45:31
HA6NAB-11 126 2026-08-30 11:39:56 2026-08-30 13:03:22
GYPAP8-17 91 2026-08-30 11:16:56 2026-08-30 13:06:55
SQ9EZE-15 88 2026-08-30 11:20:58 2026-08-30 13:06:39
SQ9EZE-14 82 2026-08-30 11:21:12 2026-08-30 13:05:47
OE5DRO-10 81 2026-08-30 12:28:03 2026-08-30 13:03:51
OE3JTB-15 67 2026-08-30 11:27:49 2026-08-30 12:22:05
OM5KV 47 2026-08-30 11:48:16 2026-08-30 11:52:18
LZ4TU-5 17 2026-08-30 12:40:55 2026-08-30 13:05:04
S52SK 11 2026-08-30 12:22:00 2026-08-30 12:26:36

Share per receiver :



All frames :


Receiver Date Latitude Longitude Direction Speed Altitude Climb Temperature Humidity Pressure Voltage Killtimer Uptime BKT XDATA
GYPAP8-172026-08-30 13:06:55-12.04681-77.04224198°201km/h969m-2.1m/s-47.7°C0.6%18.3hPa2.6V00:00:0000:00:0000:00:00
SQ9EZE-152026-08-30 13:06:39-12.04779-77.042530km/h964m0.0m/s-46.6°C0.6%16.8hPa2.6V00:00:0000:00:0000:00:00
SQ9EZE-152026-08-30 13:06:18-12.04779-77.042530km/h964m0.0m/s-46.7°C0.6%14.8hPa2.6V00:00:0000:00:0000:00:00
GYPAP8-172026-08-30 13:06:03-12.04681-77.04224198°201km/h969m-2.1m/s-45.0°C0.5%13.5hPa2.6V00:00:0000:00:0000:00:00
SQ9EZE-142026-08-30 13:05:47-12.03036-77.0505085°199km/h990m0.1m/s-42.3°C0.4%12.1hPa2.6V00:00:0000:00:0000:00:00
SQ9EZE-142026-08-30 13:05:31-12.03036-77.0505085°199km/h990m0.1m/s-40.6°C0.4%10.9hPa2.6V00:00:0000:00:0000:00:00
SQ9EZE-142026-08-30 13:05:15-12.03036-77.0505085°199km/h990m0.1m/s-39.9°C0.4%9.8hPa2.6V00:00:0000:00:0000:00:00
SQ9EZE-152026-08-30 13:05:10-12.04779-77.042530km/h964m0.0m/s-39.1°C0.3%9.5hPa2.6V00:00:0000:00:0000:00:00
GYPAP8-172026-08-30 13:05:10-12.04681-77.04224198°201km/h969m-2.1m/s-39.1°C0.3%9.5hPa2.6V00:00:0000:00:0000:00:00
LZ4TU-52026-08-30 13:05:04-12.04823-77.04777260°199km/h981m-0.0m/s-37.8°C0%0hPa2.6V00:00:0000:00:0000:00:00
LZ4TU-52026-08-30 13:04:59-12.04823-77.04777260°199km/h981m-0.0m/s-37.7°C0%0hPa2.6V00:00:0000:00:0000:00:00
SQ9EZE-152026-08-30 13:04:09-12.04730-77.04239198°201km/h967m-2.1m/s-34.8°C0.3%5.6hPa2.6V00:00:0000:00:0000:00:00
SQ9EZE-132026-08-30 13:04:08-12.04681-77.04224198°201km/h969m-2.1m/s-34.5°C0.2%5.6hPa2.6V00:00:0000:00:0000:00:00
GYPAP8-172026-08-30 13:04:04-12.04486-77.04166198°201km/h977m-2.1m/s-33.2°C0.2%5.4hPa2.6V00:00:0000:00:0000:00:00
SQ9EZE-132026-08-30 13:03:52-12.03892-77.04040178°199km/h990m-0.1m/s-33.5°C0.2%5.1hPa2.6V00:00:0000:00:0000:00:00
OE5DRO-102026-08-30 13:03:51-12.03842-77.04044175°199km/h990m-0.0m/s-33.5°C1.4%5.1hPa2.6V00:00:0000:00:0000:00:00
SQ9EZE-152026-08-30 13:03:48-12.03693-77.04073165°199km/h990m-0.1m/s-33.6°C0.2%5.1hPa2.7V00:00:0000:00:0000:00:00
SQ9EZE-132026-08-30 13:03:36-12.03203-77.04419127°199km/h990m-0.1m/s-33.2°C0.2%5.2hPa2.7V00:00:0000:00:0000:00:00
OE5DRO-102026-08-30 13:03:32-12.03104-77.04598114°199km/h990m0.0m/s-33.2°C1.4%5.1hPa2.7V00:00:0000:00:0000:00:00
SQ9EZE-152026-08-30 13:03:28-12.03046-77.04794101°199km/h990m0.1m/s-33.4°C0.2%5.2hPa2.7V00:00:0000:00:0000:00:00
HA6NAB-112026-08-30 13:03:22-12.03043-77.0510182°199km/h990m0.1m/s-33.6°C0.2%5.2hPa2.7V00:00:0000:00:0000:00:00
SQ9EZE-132026-08-30 13:03:20-12.03065-77.0520276°199km/h989m-0.1m/s-33.7°C0.2%5.2hPa2.7V00:00:0000:00:0000:00:00
SQ9EZE-142026-08-30 13:03:19-12.03080-77.0525172°199km/h990m0.0m/s-33.8°C0.2%5.2hPa2.7V00:00:0000:00:0000:00:00
HA6NAB-112026-08-30 13:03:15-12.03164-77.0543760°199km/h990m-0.1m/s-34.0°C0.2%5.2hPa2.7V00:00:0000:00:0000:00:00
OE5DRO-102026-08-30 13:03:13-12.03221-77.0552252°199km/h990m-0.9m/s-34.1°C1.5%5.2hPa2.7V00:00:0000:00:0000:00:00
HA6NAB-112026-08-30 13:03:09-12.03364-77.0566940°199km/h990m0.1m/s-34.6°C0.2%5.2hPa2.7V00:00:0000:00:0000:00:00
OE5DRO-102026-08-30 13:03:07-12.03445-77.0572933°199km/h990m-0.0m/s-34.6°C1.6%5.2hPa2.7V00:00:0000:00:0008:30:00
SQ9EZE-132026-08-30 13:03:04-12.03579-77.0580124°199km/h990m0.1m/s-34.4°C0.2%5.3hPa2.7V00:00:0000:00:0000:00:00
SQ9EZE-142026-08-30 13:03:04-12.03579-77.0580124°199km/h990m0.1m/s-34.4°C0.2%5.3hPa2.7V00:00:0000:00:0000:00:00
HA6NAB-112026-08-30 13:03:03-12.03626-77.0582021°199km/h990m0.1m/s-34.4°C0.2%5.3hPa2.7V00:00:0000:00:0000:00:00
GYPAP8-172026-08-30 13:03:01-12.03723-77.0585015°199km/h990m-0.1m/s-34.5°C0.2%5.3hPa2.7V00:00:0000:00:0000:00:00
HA6NAB-112026-08-30 13:02:54-12.04075-77.05865352°199km/h990m0.0m/s-34.7°C0.2%5.3hPa2.7V00:00:0000:00:0000:00:00
SQ9EZE-132026-08-30 13:02:49-12.04316-77.05791336°199km/h990m-0.1m/s-34.6°C0.2%5.3hPa2.7V00:00:0000:00:0000:00:00
OE5DRO-102026-08-30 13:02:48-12.04361-77.05767332°199km/h990m-0.0m/s-34.5°C1.6%5.3hPa2.7V00:00:0000:00:0000:00:00
HA6NAB-112026-08-30 13:02:48-12.04361-77.05768333°199km/h990m-0.0m/s-34.6°C0.2%5.3hPa2.7V00:00:0000:00:0000:00:00
SQ9EZE-142026-08-30 13:02:48-12.04361-77.05768333°199km/h990m-0.0m/s-34.6°C0.2%5.3hPa2.7V00:00:0000:00:0000:00:00
HA6NAB-112026-08-30 13:02:43-12.04565-77.05617317°199km/h990m-0.0m/s-34.7°C0.2%5.3hPa2.7V00:00:0000:00:0000:00:00
HA6NAB-112026-08-30 13:02:37-12.04743-77.05369298°199km/h992m0.1m/s-34.7°C0.2%5.4hPa2.7V00:00:0000:00:0000:00:00
SQ9EZE-132026-08-30 13:02:34-12.04799-77.05226288°199km/h991m0.1m/s-34.9°C0.2%5.4hPa2.7V00:00:0000:00:0000:00:00
HA6NAB-112026-08-30 13:02:31-12.04832-77.05075278°199km/h990m-0.1m/s-35.0°C0.2%5.4hPa2.7V00:00:0000:00:0000:00:00
OE5DRO-102026-08-30 13:02:29-12.04839-77.04973271°199km/h990m-0.0m/s-34.9°C1.6%5.4hPa2.7V00:00:0000:00:0000:00:00
SQ9EZE-152026-08-30 13:02:24-12.04808-77.04719256°199km/h991m-0.0m/s-35.0°C0.2%5.5hPa2.7V00:00:0000:00:0000:00:00
SQ9EZE-132026-08-30 13:02:14-12.04549-77.04285224°199km/h992m-0.0m/s-35.6°C0.3%5.5hPa2.7V00:00:0000:00:0000:00:00
OE5DRO-102026-08-30 13:02:10-12.04387-77.04162210°199km/h992m0.0m/s-35.6°C1.6%5.4hPa2.7V00:00:0000:00:0000:00:00
SQ9EZE-152026-08-30 13:02:04-12.04103-77.04056192°199km/h991m0.1m/s-35.8°C0.2%5.5hPa2.7V00:00:0000:00:0000:00:00
HA6NAB-112026-08-30 13:01:57-12.03752-77.04058169°199km/h989m0.0m/s-36.3°C0.3%5.6hPa2.7V00:00:0000:00:0000:00:00
SQ9EZE-132026-08-30 13:01:52-12.03514-77.04144153°199km/h989m-0.5m/s-36.5°C0.2%5.5hPa2.7V00:00:0000:00:0000:00:00
OE5DRO-102026-08-30 13:01:51-12.03470-77.04170150°199km/h990m-0.1m/s-36.3°C1.7%5.5hPa2.7V00:00:0000:00:0000:00:00
HA6NAB-112026-08-30 13:01:51-12.03470-77.04170150°199km/h990m-0.1m/s-36.4°C0.2%5.6hPa2.7V00:00:0000:00:0000:00:00
GYPAP8-172026-08-30 13:01:50-12.03427-77.04198147°199km/h990m0.0m/s-36.4°C0.3%5.6hPa2.7V00:00:0000:00:0000:00:00
HA6NAB-112026-08-30 13:01:43-12.03180-77.04453124°199km/h991m0.0m/s-36.7°C0.3%5.6hPa2.7V00:00:0000:00:0000:00:00
SQ9EZE-132026-08-30 13:01:36-12.03047-77.04784102°199km/h991m0.0m/s-36.9°C0.3%5.6hPa2.7V00:00:0000:00:0000:00:00
OE5DRO-102026-08-30 13:01:32-12.03032-77.0498889°199km/h991m0.0m/s-37.1°C1.8%5.6hPa2.7V00:00:0000:00:0000:00:00
SQ9EZE-132026-08-30 13:01:15-12.03436-77.0572234°199km/h992m1.2m/s-37.3°C0.3%5.7hPa2.7V00:00:0000:00:0000:00:00
OE5DRO-102026-08-30 13:01:13-12.03523-77.0577428°199km/h992m-0.4m/s-37.2°C1.8%5.7hPa2.7V00:00:0000:00:0000:00:00
OE5DRO-102026-08-30 13:01:09-12.03712-77.0584715°199km/h991m-0.0m/s-37.3°C1.8%5.7hPa2.7V00:00:0000:00:0000:00:00
SQ9EZE-152026-08-30 13:01:00-12.04163-77.05845346°199km/h991m-0.0m/s-37.4°C0.3%5.8hPa2.7V00:00:0000:00:0000:00:00
SQ9EZE-132026-08-30 13:00:59-12.04212-77.05831343°199km/h991m0.1m/s-37.5°C0.3%5.8hPa2.7V00:00:0000:00:0000:00:00
OE5DRO-102026-08-30 13:00:50-12.04593-77.05587314°199km/h989m-0.4m/s-37.5°C1.8%5.8hPa2.7V00:00:0000:00:0000:00:00
GYPAP8-172026-08-30 13:00:46-12.04714-77.05423301°199km/h990m0.1m/s-37.7°C0.3%5.9hPa2.7V00:00:0000:00:0000:00:00
SQ9EZE-142026-08-30 13:00:45-12.04739-77.05378298°201km/h988m1.5m/s-37.8°C0.3%5.8hPa2.7V00:00:0000:00:0000:00:00
SQ9EZE-132026-08-30 13:00:40-12.04823-77.05135282°199km/h987m0.0m/s-37.8°C0.3%5.9hPa2.7V00:00:0000:00:0000:00:00
SQ9EZE-152026-08-30 13:00:40-12.04823-77.05135282°199km/h987m0.0m/s-37.8°C0.3%5.9hPa2.7V00:00:0000:00:0000:00:00
OE5DRO-102026-08-30 13:00:34-12.04831-77.04828262°199km/h979m-0.6m/s-37.8°C1.9%5.8hPa2.7V00:00:0000:00:0008:30:00
LZ4TU-52026-08-30 13:00:33-12.04823-77.04777260°199km/h981m-0.0m/s-37.8°C0%0hPa2.7V00:00:0000:00:0000:00:00
SQ9EZE-142026-08-30 13:00:29-12.04762-77.04580247°199km/h981m0.4m/s-37.8°C0.3%5.9hPa2.7V00:00:0000:00:0000:00:00
LZ4TU-52026-08-30 13:00:28-12.04740-77.04533244°199km/h983m-0.2m/s-37.8°C0%0hPa2.7V00:00:0000:00:0000:00:00
OE5DRO-102026-08-30 13:00:25-12.04660-77.04403232°197km/h988m-0.9m/s-37.7°C1.8%5.9hPa2.7V00:00:0000:00:0000:00:00
SQ9EZE-132026-08-30 13:00:25-12.04660-77.04404233°197km/h988m-0.9m/s-37.8°C0.3%6.0hPa2.7V00:00:0000:00:0000:00:00
OE5DRO-102026-08-30 13:00:23-12.04593-77.04326226°199km/h992m-1.7m/s-37.7°C1.8%5.9hPa2.7V00:00:0000:00:0000:00:00
SQ9EZE-142026-08-30 13:00:14-12.04211-77.04083199°199km/h989m-0.1m/s-37.3°C0.3%6.0hPa2.7V00:00:0000:00:0000:00:00
HA6NAB-112026-08-30 13:00:13-12.04162-77.04069196°199km/h990m-0.2m/s-37.4°C0.3%6.0hPa2.7V00:00:0000:00:0000:00:00
OE5DRO-102026-08-30 13:00:12-12.04113-77.04057191°199km/h990m-0.7m/s-37.4°C1.7%5.9hPa2.7V00:00:0000:00:0000:00:00
SQ9EZE-132026-08-30 13:00:09-12.03962-77.04040183°199km/h991m-0.1m/s-37.7°C0.3%6.0hPa2.7V00:00:0000:00:0000:00:00
HA6NAB-112026-08-30 13:00:04-12.03712-77.04069167°199km/h991m-0.2m/s-37.8°C0.3%6.1hPa2.7V00:00:0000:00:0000:00:00
OE5DRO-102026-08-30 12:59:53-12.03247-77.04364131°199km/h992m-0.0m/s-38.3°C1.8%6.0hPa2.7V00:00:0000:00:0000:00:00
SQ9EZE-132026-08-30 12:59:53-12.03247-77.04364131°199km/h992m-0.0m/s-38.4°C0.3%6.1hPa2.7V00:00:0000:00:0000:00:00
SQ9EZE-132026-08-30 12:59:38-12.03040-77.0508183°199km/h991m0.1m/s-38.2°C0.3%6.2hPa2.7V00:00:0000:00:0000:00:00
GYPAP8-172026-08-30 12:59:38-12.03040-77.0508183°199km/h991m0.1m/s-38.2°C0.3%6.2hPa2.7V00:00:0000:00:0000:00:00
OE5DRO-102026-08-30 12:59:35-12.03089-77.0528070°199km/h991m0.0m/s-37.8°C1.8%6.2hPa2.7V00:00:0000:00:0000:00:00
HA6NAB-112026-08-30 12:59:28-12.03241-77.0554651°199km/h990m-0.1m/s-38.3°C0.3%6.2hPa2.7V00:00:0000:00:0000:00:00
SQ9EZE-152026-08-30 12:59:26-12.03310-77.0562145°199km/h990m-0.1m/s-38.2°C0.3%6.3hPa2.7V00:00:0000:00:0000:00:00
SQ9EZE-132026-08-30 12:59:23-12.03428-77.0571735°199km/h990m0.0m/s-38.0°C0.3%6.3hPa2.7V00:00:0000:00:0000:00:00
OE5DRO-102026-08-30 12:59:15-12.03802-77.05865199km/h990m-0.0m/s-38.0°C1.9%6.3hPa2.7V00:00:0000:00:0000:00:00
SQ9EZE-132026-08-30 12:59:07-12.04203-77.05833344°199km/h989m0.0m/s-37.9°C0.3%6.3hPa2.7V00:00:0000:00:0000:00:00
SQ9EZE-152026-08-30 12:59:05-12.04297-77.05797337°199km/h988m-0.1m/s-38.0°C0.3%6.3hPa2.7V00:00:0000:00:0000:00:00
OE5DRO-102026-08-30 12:58:56-12.04652-77.05516308°199km/h989m-0.4m/s-37.5°C1.8%6.3hPa2.7V00:00:0000:00:0000:00:00
HA6NAB-112026-08-30 12:58:51-12.04777-77.05293293°199km/h986m-0.2m/s-37.4°C0.3%6.4hPa2.7V00:00:0000:00:0000:00:00
LZ4TU-52026-08-30 12:58:49-12.04808-77.05197286°197km/h988m1.4m/s-37.3°C0%0hPa2.7V00:00:0000:00:0000:00:00
SQ9EZE-132026-08-30 12:58:49-12.04808-77.05197286°197km/h988m1.4m/s-37.3°C0.3%6.4hPa2.7V00:00:0000:00:0000:00:00
OE5DRO-102026-08-30 12:58:47-12.04829-77.05095279°199km/h989m-0.5m/s-37.4°C1.8%6.4hPa2.7V00:00:0000:00:0008:30:00
LZ4TU-52026-08-30 12:58:44-12.04840-77.04941270°199km/h986m-0.0m/s-37.7°C0%0hPa2.7V00:00:0000:00:0000:00:00
HA6NAB-112026-08-30 12:58:43-12.04838-77.04890267°199km/h988m0.2m/s-37.7°C0.3%6.5hPa2.7V00:00:0000:00:0000:00:00
GYPAP8-172026-08-30 12:58:35-12.04719-77.04499241°199km/h991m-0.0m/s-37.4°C0.3%6.5hPa2.7V00:00:0000:00:0000:00:00
SQ9EZE-132026-08-30 12:58:33-12.04664-77.04413235°199km/h992m-0.3m/s-37.4°C0.3%6.5hPa2.7V00:00:0000:00:0000:00:00
OE5DRO-102026-08-30 12:58:26-12.04404-77.04172212°199km/h992m0.0m/s-36.9°C1.8%6.5hPa2.7V00:00:0000:00:0000:00:00
SQ9EZE-132026-08-30 12:58:17-12.03973-77.04039183°199km/h994m0.0m/s-37.1°C0.3%6.6hPa2.7V00:00:0000:00:0000:00:00
OE5DRO-102026-08-30 12:58:07-12.03488-77.04159151°199km/h992m-0.0m/s-37.1°C1.8%6.6hPa2.7V00:00:0000:00:0000:00:00
SQ9EZE-142026-08-30 12:58:04-12.03363-77.04247142°199km/h992m0.2m/s-36.8°C0.3%6.7hPa2.6V00:00:0000:00:0000:00:00
SQ9EZE-152026-08-30 12:58:03-12.03325-77.04280138°199km/h992m-0.0m/s-36.8°C0.3%6.7hPa2.6V00:00:0000:00:0000:00:00
SQ9EZE-132026-08-30 12:58:01-12.03254-77.04353132°199km/h991m0.1m/s-36.8°C0.3%6.7hPa2.6V00:00:0000:00:0000:00:00
OE5DRO-102026-08-30 12:57:48-12.03032-77.0496790°199km/h991m0.1m/s-36.4°C1.7%6.7hPa2.6V00:00:0000:00:0000:00:00
SQ9EZE-132026-08-30 12:57:46-12.03039-77.0507084°199km/h992m-0.1m/s-36.6°C0.3%6.8hPa2.6V00:00:0000:00:0000:00:00
SQ9EZE-152026-08-30 12:57:43-12.03070-77.0522074°199km/h992m-0.0m/s-36.6°C0.3%6.8hPa2.6V00:00:0000:00:0000:00:00
GYPAP8-172026-08-30 12:57:33-12.03379-77.0568139°199km/h991m0.0m/s-36.5°C0.2%6.9hPa2.6V00:00:0000:00:0000:00:00
SQ9EZE-132026-08-30 12:57:31-12.03420-77.0571036°199km/h991m0.0m/s-36.6°C0.3%6.9hPa2.6V00:00:0000:00:0000:00:00
OE5DRO-102026-08-30 12:57:29-12.03506-77.0576529°199km/h991m-0.2m/s-36.4°C1.8%6.8hPa2.6V00:00:0000:00:0000:00:00
SQ9EZE-152026-08-30 12:57:22-12.03842-77.05871199km/h990m-0.0m/s-36.2°C0.3%6.9hPa2.6V00:00:0000:00:0000:00:00
SQ9EZE-132026-08-30 12:57:16-12.04144-77.05851348°199km/h990m0.0m/s-35.9°C0.3%6.9hPa2.6V00:00:0000:00:0000:00:00
LZ4TU-52026-08-30 12:57:13-12.04288-77.05803338°199km/h990m0.1m/s-35.9°C0%0hPa2.6V00:00:0000:00:0000:00:00
OE5DRO-102026-08-30 12:57:10-12.04422-77.05731328°199km/h991m-0.4m/s-35.8°C1.7%6.9hPa2.6V00:00:0000:00:0000:00:00
LZ4TU-52026-08-30 12:57:08-12.04505-77.05672322°199km/h991m0.1m/s-36.0°C0%0hPa2.7V00:00:0000:00:0000:00:00
SQ9EZE-152026-08-30 12:57:02-12.04705-77.05440303°199km/h990m-0.2m/s-35.9°C0.3%7.0hPa2.7V00:00:0000:00:0000:00:00
SQ9EZE-132026-08-30 12:56:56-12.04819-77.05156283°199km/h990m-0.1m/s-35.6°C0.3%7.1hPa2.7V00:00:0000:00:0000:00:00
OE5DRO-102026-08-30 12:56:55-12.04828-77.05105280°199km/h990m-0.0m/s-35.5°C1.7%7.0hPa2.7V00:00:0000:00:0000:00:00
HA6NAB-112026-08-30 12:56:50-12.04835-77.04848264°199km/h990m0.1m/s-35.4°C0.2%7.1hPa2.7V00:00:0000:00:0000:00:00
HA6NAB-112026-08-30 12:56:38-12.04573-77.04304226°199km/h990m0.2m/s-35.5°C0.3%7.2hPa2.7V00:00:0000:00:0000:00:00
OE5DRO-102026-08-30 12:56:36-12.04497-77.04234218°197km/h991m-3.5m/s-35.5°C1.7%7.2hPa2.7V00:00:0000:00:0000:00:00
OE5DRO-102026-08-30 12:56:34-12.04416-77.04169211°197km/h991m-2.2m/s-35.6°C1.7%7.2hPa2.7V00:00:0000:00:0008:30:00
HA6NAB-112026-08-30 12:56:32-12.04326-77.04126204°197km/h989m-0.4m/s-35.8°C0.3%7.2hPa2.7V00:00:0000:00:0000:00:00
GYPAP8-172026-08-30 12:56:30-12.04232-77.04089200°201km/h990m-0.1m/s-35.9°C0.3%7.3hPa2.7V00:00:0000:00:0000:00:00
OE5DRO-102026-08-30 12:56:28-12.04134-77.04061193°199km/h990m0.4m/s-36.0°C1.7%7.2hPa2.7V00:00:0000:00:0000:00:00
HA6NAB-112026-08-30 12:56:27-12.04085-77.04051190°199km/h990m0.3m/s-36.0°C0.3%7.3hPa2.7V00:00:0000:00:0000:00:00
SQ9EZE-132026-08-30 12:56:26-12.04034-77.04044187°199km/h991m0.2m/s-35.9°C0.3%7.3hPa2.7V00:00:0000:00:0000:00:00
HA6NAB-112026-08-30 12:56:21-12.04023-77.04042186°199km/h989m-0.2m/s-35.8°C0.3%7.3hPa2.7V00:00:0000:00:0000:00:00
SQ9EZE-152026-08-30 12:56:00-12.04108-77.05880338°203km/h994m0.8m/s-36.0°C0.3%7.4hPa2.7V00:00:0000:00:0000:00:00
SQ9EZE-132026-08-30 12:55:55-12.04343-77.05777334°199km/h991m-0.1m/s-35.9°C0.3%7.4hPa2.7V00:00:0000:00:0000:00:00
OE5DRO-102026-08-30 12:55:46-12.04682-77.05475305°199km/h991m0.0m/s-35.9°C1.7%7.4hPa2.7V00:00:0000:00:0000:00:00
SQ9EZE-142026-08-30 12:55:46-12.04682-77.05475305°199km/h991m0.0m/s-35.9°C0.3%7.5hPa2.7V00:00:0000:00:0000:00:00
SQ9EZE-132026-08-30 12:55:39-12.04820-77.05146283°199km/h990m0.0m/s-35.6°C0.3%7.6hPa2.7V00:00:0000:00:0000:00:00
SQ9EZE-152026-08-30 12:55:39-12.04820-77.05146283°199km/h990m0.0m/s-35.6°C0.3%7.6hPa2.7V00:00:0000:00:0000:00:00
OE5DRO-102026-08-30 12:55:27-12.04743-77.04545244°199km/h989m0.0m/s-35.8°C1.7%7.6hPa2.7V00:00:0000:00:0000:00:00
GYPAP8-172026-08-30 12:55:27-12.04743-77.04545244°199km/h989m0.0m/s-35.8°C0.3%7.7hPa2.7V00:00:0000:00:0000:00:00
SQ9EZE-132026-08-30 12:55:24-12.04664-77.04414235°199km/h989m-0.2m/s-35.9°C0.3%7.7hPa2.7V00:00:0000:00:0000:00:00
SQ9EZE-152026-08-30 12:55:19-12.04488-77.04230219°199km/h988m0.0m/s-36.0°C0.3%7.7hPa2.7V00:00:0000:00:0000:00:00
HA6NAB-112026-08-30 12:55:09-12.04023-77.04042186°199km/h989m-0.2m/s-35.4°C0.3%7.8hPa2.7V00:00:0000:00:0000:00:00
OE5DRO-102026-08-30 12:55:08-12.03973-77.04040181°199km/h988m0.3m/s-35.4°C1.6%7.8hPa2.7V00:00:0000:00:0000:00:00
SQ9EZE-132026-08-30 12:55:08-12.03973-77.04040182°195km/h988m0.3m/s-35.4°C0.3%7.8hPa2.7V00:00:0000:00:0000:00:00
HA6NAB-112026-08-30 12:55:03-12.03722-77.04065167°199km/h987m-0.0m/s-35.4°C0.3%7.8hPa2.7V00:00:0000:00:0000:00:00
HA6NAB-112026-08-30 12:54:58-12.03488-77.04159151°199km/h984m0.0m/s-35.4°C0.3%7.8hPa2.7V00:00:0000:00:0000:00:00
SQ9EZE-132026-08-30 12:54:53-12.03288-77.04314135°199km/h985m0.1m/s-35.3°C0.3%7.9hPa2.7V00:00:0000:00:0000:00:00
HA6NAB-112026-08-30 12:54:52-12.03253-77.04352132°199km/h987m0.0m/s-35.2°C0.3%7.9hPa2.7V00:00:0000:00:0000:00:00
OE5DRO-102026-08-30 12:54:49-12.03162-77.04477122°199km/h991m-1.0m/s-35.1°C1.6%7.8hPa2.7V00:00:0000:00:0000:00:00
HA6NAB-112026-08-30 12:54:46-12.03097-77.04615113°199km/h989m-0.1m/s-35.4°C0.3%7.9hPa2.7V00:00:0000:00:0000:00:00
HA6NAB-112026-08-30 12:54:40-12.03033-77.0491794°199km/h989m-0.0m/s-35.4°C0.3%7.9hPa2.7V00:00:0000:00:0000:00:00
SQ9EZE-132026-08-30 12:54:36-12.03047-77.0512181°197km/h990m0.6m/s-35.6°C0.3%8.0hPa2.7V00:00:0000:00:0000:00:00
OE5DRO-102026-08-30 12:54:25-12.03303-77.0561345°199km/h990m-0.5m/s-36.6°C1.7%8.0hPa2.7V00:00:0000:00:0000:00:00
GYPAP8-172026-08-30 12:54:24-12.03340-77.0564843°199km/h991m-0.2m/s-36.6°C0.3%8.1hPa2.7V00:00:0000:00:0000:00:00
SQ9EZE-132026-08-30 12:54:21-12.03462-77.0574032°199km/h991m-0.2m/s-36.6°C0.3%8.1hPa2.7V00:00:0000:00:0000:00:00
OE5DRO-102026-08-30 12:54:13-12.03842-77.05871199km/h991m0.2m/s-36.9°C1.7%8.1hPa2.7V00:00:0000:00:0000:00:00
SQ9EZE-132026-08-30 12:54:05-12.04241-77.05822341°199km/h991m0.1m/s-36.8°C0.3%8.2hPa2.7V00:00:0000:00:0000:00:00
SQ9EZE-152026-08-30 12:53:55-12.04646-77.05525309°199km/h991m0.0m/s-36.9°C0.3%8.2hPa2.7V00:00:0000:00:0000:00:00
OE5DRO-102026-08-30 12:53:54-12.04676-77.05484305°199km/h991m0.0m/s-36.9°C1.7%8.2hPa2.7V00:00:0000:00:0000:00:00
SQ9EZE-132026-08-30 12:53:50-12.04773-77.05304293°199km/h991m-0.0m/s-37.0°C0.3%8.3hPa2.7V00:00:0000:00:0000:00:00
SQ9EZE-142026-08-30 12:53:43-12.04838-77.04954271°199km/h992m-0.1m/s-37.3°C0.3%8.3hPa2.7V00:00:0000:00:0000:00:00
OE5DRO-102026-08-30 12:53:35-12.04747-77.04556244°199km/h992m-0.6m/s-37.3°C1.8%8.3hPa2.7V00:00:0000:00:0008:30:00
SQ9EZE-132026-08-30 12:53:34-12.04724-77.04510242°199km/h993m-0.1m/s-37.4°C0.3%8.4hPa2.7V00:00:0000:00:0000:00:00
SQ9EZE-142026-08-30 12:53:28-12.04534-77.04272223°199km/h993m-0.0m/s-37.6°C0.3%8.4hPa2.7V00:00:0000:00:0000:00:00
OE5DRO-102026-08-30 12:53:27-12.04495-77.04238219°199km/h993m-0.0m/s-37.7°C1.8%8.4hPa2.7V00:00:0000:00:0000:00:00
GYPAP8-172026-08-30 12:53:22-12.04278-77.04109203°199km/h993m-0.0m/s-37.8°C0.3%8.4hPa2.7V00:00:0000:00:0000:00:00
SQ9EZE-132026-08-30 12:53:19-12.04133-77.04062194°199km/h994m-0.1m/s-38.0°C0.3%8.5hPa2.7V00:00:0000:00:0000:00:00
OE5DRO-102026-08-30 12:53:08-12.03588-77.04112158°199km/h994m0.0m/s-38.4°C1.9%8.5hPa2.7V00:00:0000:00:0000:00:00
SQ9EZE-132026-08-30 12:53:00-12.03261-77.04349133°199km/h994m0.0m/s-38.3°C0.3%8.6hPa2.7V00:00:0000:00:0000:00:00
OE5DRO-102026-08-30 12:52:49-12.03037-77.0485697°199km/h993m-0.1m/s-38.5°C1.9%8.6hPa2.7V00:00:0000:00:0000:00:00
SQ9EZE-132026-08-30 12:52:44-12.03044-77.0511281°199km/h993m0.0m/s-38.4°C0.4%8.7hPa2.7V00:00:0000:00:0000:00:00
OE5DRO-102026-08-30 12:52:30-12.03412-77.0570636°199km/h993m0.0m/s-38.4°C1.9%8.7hPa2.7V00:00:0000:00:0000:00:00
SQ9EZE-132026-08-30 12:52:28-12.03542-77.0578527°199km/h993m0.0m/s-38.5°C0.3%8.8hPa2.7V00:00:0000:00:0000:00:00
GYPAP8-172026-08-30 12:52:19-12.03933-77.05877199km/h993m-0.0m/s-38.5°C0.3%8.9hPa2.7V00:00:0000:00:0000:00:00
SQ9EZE-152026-08-30 12:52:16-12.04084-77.05865351°199km/h993m-0.0m/s-38.5°C0.3%8.9hPa2.7V00:00:0000:00:0000:00:00
SQ9EZE-132026-08-30 12:52:12-12.04278-77.05808339°199km/h994m0.0m/s-38.5°C0.3%8.9hPa2.7V00:00:0000:00:0000:00:00
OE5DRO-102026-08-30 12:52:11-12.04325-77.05787335°199km/h994m-0.0m/s-38.4°C1.9%8.9hPa2.7V00:00:0000:00:0000:00:00
SQ9EZE-152026-08-30 12:51:56-12.04803-77.05216287°199km/h994m0.2m/s-38.8°C0.4%9.0hPa2.7V00:00:0000:00:0000:00:00
SQ9EZE-132026-08-30 12:51:55-12.04816-77.05167284°199km/h994m-0.0m/s-38.9°C0.4%9.1hPa2.7V00:00:0000:00:0000:00:00
SQ9EZE-132026-08-30 12:51:39-12.04646-77.04389233°199km/h993m-0.0m/s-39.7°C0.3%9.2hPa2.7V00:00:0000:00:0000:00:00
OE5DRO-102026-08-30 12:51:37-12.04580-77.04312226°199km/h993m0.0m/s-39.7°C2.0%9.1hPa2.7V00:00:0000:00:0000:00:00
HA6NAB-112026-08-30 12:51:37-12.04580-77.04312226°199km/h993m0.0m/s-39.7°C0.4%9.2hPa2.7V00:00:0000:00:0000:00:00
GYPAP8-172026-08-30 12:51:25-12.04045-77.04046188°199km/h993m0.2m/s-39.8°C0.4%9.3hPa2.7V00:00:0000:00:0000:00:00
SQ9EZE-142026-08-30 12:51:25-12.04045-77.04046188°199km/h993m0.2m/s-39.8°C0.4%9.3hPa2.7V00:00:0000:00:0000:00:00
SQ9EZE-132026-08-30 12:51:24-12.03994-77.04041185°199km/h993m0.0m/s-39.9°C0.4%9.3hPa2.7V00:00:0000:00:0000:00:00
OE5DRO-102026-08-30 12:51:11-12.03379-77.04233142°199km/h998m0.6m/s-39.7°C1.9%9.3hPa2.7V00:00:0000:00:0000:00:00
SQ9EZE-142026-08-30 12:51:10-12.03340-77.04266140°199km/h997m0.2m/s-39.9°C0.4%9.4hPa2.7V00:00:0000:00:0000:00:00
SQ9EZE-132026-08-30 12:51:08-12.03267-77.04337133°199km/h997m0.1m/s-40.1°C0.4%9.4hPa2.7V00:00:0000:00:0000:00:00
SQ9EZE-132026-08-30 12:50:52-12.03043-77.0510182°199km/h993m0.0m/s-40.9°C0.4%9.6hPa2.7V00:00:0000:00:0000:00:00
OE5DRO-102026-08-30 12:50:51-12.03053-77.0515178°199km/h992m-0.0m/s-40.7°C2.0%9.5hPa2.7V00:00:0000:00:0000:00:00
SQ9EZE-132026-08-30 12:50:33-12.03626-77.0582021°199km/h993m-0.0m/s-41.6°C0.4%9.7hPa2.7V00:00:0000:00:0000:00:00
GYPAP8-172026-08-30 12:50:23-12.04125-77.05856349°199km/h994m0.3m/s-41.3°C0.4%9.8hPa2.7V00:00:0000:00:0000:00:00
LZ4TU-52026-08-30 12:50:04-21.72502-79.735330km/h2909m0.0m/s-40.7°C0%0hPa2.7V00:00:0000:00:0000:00:00
SQ9EZE-132026-08-30 12:49:57-21.59701-79.791050km/h2876m0.0m/s-40.5°C0.4%10.1hPa2.7V00:00:0000:00:0000:00:00
SQ9EZE-132026-08-30 12:49:40-21.68209-79.740140km/h2898m0.0m/s-40.4°C0.4%10.2hPa2.7V00:00:0000:00:0000:00:00
GYPAP8-172026-08-30 12:49:29-18.68486-82.819140km/h2178m0.0m/s-40.5°C0.4%10.3hPa2.7V00:00:0000:00:0000:00:00
SQ9EZE-132026-08-30 12:49:25-18.31392-82.887760km/h2096m0.0m/s-40.6°C0.4%10.3hPa2.7V00:00:0000:00:0000:00:00
HA6NAB-112026-08-30 12:49:24-18.88632-82.743630km/h2224m0.0m/s-40.7°C0.4%10.4hPa2.7V00:00:0000:00:0000:00:00
HA6NAB-112026-08-30 12:49:18-18.39947-82.840230km/h2114m0.0m/s-40.9°C0.4%10.4hPa2.7V00:00:0000:00:0000:00:00
HA6NAB-112026-08-30 12:49:12-18.82344-83.455100km/h2209m0.0m/s-41.1°C0.4%10.5hPa2.7V00:00:0000:00:0000:00:00
SQ9EZE-132026-08-30 12:49:09-18.59463-82.961110km/h2158m0.0m/s-41.3°C0.4%10.5hPa2.7V00:00:0000:00:0000:00:00
HA6NAB-112026-08-30 12:49:06-18.98997-84.164990km/h2247m0.0m/s-41.3°C0.4%10.5hPa2.7V00:00:0000:00:0000:00:00
SQ9EZE-142026-08-30 12:49:03-18.64851-84.645250km/h2170m0.0m/s-41.2°C0.4%10.6hPa2.7V00:00:0000:00:0000:00:00
HA6NAB-112026-08-30 12:49:01-21.65969-85.868230km/h2892m0.0m/s-41.2°C0.4%10.6hPa2.7V00:00:0000:00:0000:00:00
HA6NAB-112026-08-30 12:48:54-20.06235-83.997170km/h2498m0.0m/s-41.3°C0.4%10.6hPa2.7V00:00:0000:00:0000:00:00
HA6NAB-112026-08-30 12:48:49-22.66413-78.751940km/h3153m0.0m/s-41.4°C0.4%10.7hPa2.7V00:00:0000:00:0000:00:00
SQ9EZE-132026-08-30 12:48:44-21.23401-79.507420km/h2785m0.0m/s-41.3°C0.4%10.7hPa2.7V00:00:0000:00:0000:00:00
HA6NAB-112026-08-30 12:48:43-21.21646-79.465210km/h2780m0.0m/s-41.4°C0.4%10.7hPa2.7V00:00:0000:00:0000:00:00
HA6NAB-112026-08-30 12:48:35-21.29537-79.677640km/h2800m0.0m/s-41.2°C0.4%10.8hPa2.7V00:00:0000:00:0000:00:00
SQ9EZE-142026-08-30 12:48:31-19.10964-78.627100km/h2275m0.0m/s-41.0°C0.4%10.8hPa2.7V00:00:0000:00:0000:00:00
HA6NAB-112026-08-30 12:48:30-13.04187-83.316500km/h1080m0.0m/s-41.0°C0.4%10.9hPa2.7V00:00:0000:00:0000:00:00
SQ9EZE-132026-08-30 12:48:28-21.13361-78.956250km/h2760m0.0m/s-41.0°C0.4%10.8hPa2.7V00:00:0000:00:0000:00:00
HA6NAB-112026-08-30 12:48:24-20.74660-79.058970km/h2664m0.0m/s-41.1°C0.4%10.9hPa2.7V00:00:0000:00:0000:00:00
HA6NAB-112026-08-30 12:48:19-22.48280-79.561290km/h3105m0.0m/s-41.3°C0.4%10.9hPa2.7V00:00:0000:00:0000:00:00
GYPAP8-172026-08-30 12:48:16-20.88625-79.705240km/h2698m0.0m/s-41.3°C0.4%11.0hPa2.7V00:00:0000:00:0000:00:00
SQ9EZE-132026-08-30 12:48:13-21.25663-81.263850km/h2790m0.0m/s-41.3°C0.4%11.0hPa2.7V00:00:0000:00:0000:00:00
SQ9EZE-152026-08-30 12:48:05-18.50221-79.404650km/h2137m0.0m/s-41.1°C0.4%11.1hPa2.7V00:00:0000:00:0000:00:00
LZ4TU-52026-08-30 12:48:00-18.56119-78.662970km/h2151m0.0m/s-41.4°C0%0hPa2.7V00:00:0000:00:0000:00:00
SQ9EZE-132026-08-30 12:47:58-18.64254-78.635350km/h2169m0.0m/s-41.3°C0.4%11.1hPa2.7V00:00:0000:00:0000:00:00
LZ4TU-52026-08-30 12:47:56-18.19905-79.415870km/h2070m0.0m/s-41.4°C0%0hPa2.7V00:00:0000:00:0000:00:00
SQ9EZE-132026-08-30 12:47:43-20.35074-80.675100km/h2567m0.0m/s-41.8°C0.4%11.3hPa2.7V00:00:0000:00:0000:00:00
SQ9EZE-132026-08-30 12:47:27-15.02220-76.879510km/h1426m0.0m/s-41.9°C0.4%11.4hPa2.7V00:00:0000:00:0000:00:00
GYPAP8-172026-08-30 12:47:13-13.62282-83.166980km/h1177m0.0m/s-42.4°C0.4%11.6hPa2.7V00:00:0000:00:0000:00:00
SQ9EZE-152026-08-30 12:46:59-12.04794-77.05244289°199km/h990m0.1m/s-42.6°C0.5%11.7hPa2.7V00:00:0000:00:0000:00:00
SQ9EZE-152026-08-30 12:46:38-12.04794-77.05244289°199km/h990m0.1m/s-42.9°C0.5%12.0hPa2.7V00:00:0000:00:0000:00:00
HA6NAB-112026-08-30 12:46:07-9.54716-88.484260km/h583m0.0m/s-43.3°C0.5%12.3hPa2.7V00:00:0000:00:0000:00:00
SQ9EZE-132026-08-30 12:46:06-18.26040-84.336070km/h2084m0.0m/s-43.2°C0.5%12.3hPa2.7V00:00:0000:00:0000:00:00
SQ9EZE-142026-08-30 12:46:03-14.44373-83.114770km/h1320m0.0m/s-43.2°C0.5%12.3hPa2.7V00:00:0000:00:0000:00:00
HA6NAB-112026-08-30 12:46:02-14.60706-82.565220km/h1349m0.0m/s-43.2°C0.5%12.3hPa2.7V00:00:0000:00:0000:00:00
HA6NAB-112026-08-30 12:45:55-15.21670-86.901810km/h1462m0.0m/s-43.4°C0.5%12.4hPa2.7V00:00:0000:00:0000:00:00
SQ9EZE-132026-08-30 12:45:51-13.62282-83.166980km/h1177m0.0m/s-43.4°C0.5%12.5hPa2.7V00:00:0000:00:0000:00:00
GYPAP8-172026-08-30 12:45:50-15.13160-83.508890km/h1446m0.0m/s-43.4°C0.5%12.5hPa2.7V00:00:0000:00:0000:00:00
HA6NAB-112026-08-30 12:45:49-13.55164-83.300690km/h1165m0.0m/s-43.4°C0.5%12.5hPa2.7V00:00:0000:00:0000:00:00
SQ9EZE-142026-08-30 12:45:47-12.60691-81.781360km/h1011m0.0m/s-43.5°C0.5%12.5hPa2.7V00:00:0000:00:0000:00:00
HA6NAB-112026-08-30 12:45:42-13.40404-83.445300km/h1140m0.0m/s-43.5°C0.5%12.6hPa2.7V00:00:0000:00:0000:00:00
HA6NAB-112026-08-30 12:45:36-11.39461-81.638820km/h828m0.0m/s-43.5°C0.5%12.6hPa2.7V00:00:0000:00:0000:00:00
SP9KGR-152026-08-30 12:45:31-12.75663-88.407620km/h1034m0.0m/s-43.6°C0.5%12.7hPa2.7V00:00:0000:00:0000:00:00
LZ4TU-52026-08-30 12:45:30-12.04158-77.05856348°168km/h998m12.5m/s-43.6°C0%0hPa2.7V00:00:0000:00:0000:00:00
SQ9EZE-132026-08-30 12:45:26-13.17177-87.558360km/h1102m0.0m/s-43.6°C0.5%12.8hPa2.7V00:00:0000:00:0000:00:00
SP9KGR-152026-08-30 12:45:14-12.75663-88.407620km/h1034m0.0m/s-43.5°C0.5%12.9hPa2.7V00:00:0000:00:0000:00:00
SQ9EZE-132026-08-30 12:45:04-13.17177-87.558360km/h1102m0.0m/s-44.0°C0.5%13.0hPa2.7V00:00:0000:00:0000:00:00
SP9KGR-152026-08-30 12:44:58-12.75663-88.407620km/h1034m0.0m/s-44.2°C0.5%13.1hPa2.7V00:00:0000:00:0000:00:00
SQ9EZE-132026-08-30 12:44:44-11.81383-89.372990km/h889m0.0m/s-44.5°C0.5%13.2hPa2.7V00:00:0000:00:0000:00:00
GYPAP8-172026-08-30 12:44:44-11.81383-89.372990km/h889m0.0m/s-44.5°C0.5%13.2hPa2.7V00:00:0000:00:0000:00:00
SP9KGR-152026-08-30 12:44:33-10.80517-88.477020km/h746m0.0m/s-44.5°C0.5%13.4hPa2.7V00:00:0000:00:0000:00:00
SQ9EZE-132026-08-30 12:44:24-12.04158-77.058560km/h998m0.0m/s-44.8°C0.5%13.5hPa2.7V00:00:0000:00:0000:00:00
SP9KGR-152026-08-30 12:44:16-12.04158-77.058560km/h998m0.0m/s-44.8°C0.5%13.5hPa2.7V00:00:0000:00:0000:00:00
SQ9EZE-132026-08-30 12:43:59-12.00100-77.05198360°980km/h293m-83.5m/s-45.3°C0.5%13.7hPa2.7V00:00:0000:00:0000:00:00
HA6NAB-112026-08-30 12:43:47-11.99601-77.05204360°980km/h126m-83.5m/s-45.2°C0.5%13.9hPa2.7V00:00:0000:00:0000:00:00
HA6NAB-112026-08-30 12:43:42-12.00849-77.05190360°980km/h543m-83.6m/s-45.3°C0.5%14.0hPa2.7V00:00:0000:00:0000:00:00
HA6NAB-112026-08-30 12:43:34-12.03951-77.05905348°168km/h1060m12.5m/s-45.9°C0.6%14.0hPa2.7V00:00:0000:00:0000:00:00
SQ9EZE-132026-08-30 12:43:32-12.04034-77.05885348°168km/h1035m12.5m/s-45.9°C0.6%14.1hPa2.7V00:00:0000:00:0000:00:00
SQ9EZE-142026-08-30 12:43:29-12.04158-77.05856348°168km/h998m12.5m/s-45.9°C0.6%14.1hPa2.7V00:00:0000:00:0000:00:00
HA6NAB-112026-08-30 12:43:29-12.04158-77.05856348°168km/h998m12.5m/s-45.9°C0.6%14.1hPa2.7V00:00:0000:00:0000:00:00
LZ4TU-52026-08-30 12:43:25-12.04343-77.05776334°199km/h989m-0.0m/s0°C0%0hPa2.7V00:00:0000:00:0000:00:00
HA6NAB-112026-08-30 12:43:23-12.04431-77.05724328°199km/h990m-0.0m/s-46.0°C0.6%14.2hPa2.7V00:00:0000:00:0000:00:00
HA6NAB-112026-08-30 12:43:18-12.04620-77.05556312°199km/h990m0.0m/s-45.8°C0.6%14.3hPa2.7V00:00:0000:00:0000:00:00
SQ9EZE-132026-08-30 12:43:16-12.04682-77.05474305°199km/h990m0.2m/s-45.7°C0.6%14.3hPa2.7V00:00:0000:00:0000:00:00
HA6NAB-112026-08-30 12:43:13-12.04757-77.05340296°199km/h990m0.1m/s-45.8°C0.5%14.3hPa2.7V00:00:0000:00:0000:00:00
HA6NAB-112026-08-30 12:43:08-12.04830-77.05093279°197km/h991m1.2m/s-45.5°C0.5%14.4hPa2.7V00:00:0000:00:0000:00:00
HA6NAB-112026-08-30 12:43:04-12.04832-77.04839264°199km/h990m-0.0m/s-45.9°C0.5%14.4hPa2.7V00:00:0000:00:0000:00:00
SQ9EZE-152026-08-30 12:42:57-12.04743-77.04545244°199km/h990m0.0m/s-45.8°C0.5%14.5hPa2.7V00:00:0000:00:0000:00:00
HA6NAB-112026-08-30 12:42:57-12.04743-77.04545244°199km/h990m0.0m/s-45.8°C0.5%14.5hPa2.7V00:00:0000:00:0000:00:00
SQ9EZE-132026-08-30 12:42:52-12.04600-77.04335228°199km/h990m-0.0m/s-46.0°C0.6%14.6hPa2.7V00:00:0000:00:0000:00:00
HA6NAB-112026-08-30 12:42:52-12.04600-77.04335228°199km/h990m-0.0m/s-46.0°C0.6%14.6hPa2.7V00:00:0000:00:0000:00:00
HA6NAB-112026-08-30 12:42:46-12.04361-77.04147209°199km/h990m-0.0m/s-46.4°C0.6%14.6hPa2.7V00:00:0000:00:0000:00:00
GYPAP8-172026-08-30 12:42:39-12.04023-77.04043187°199km/h990m0.0m/s-46.2°C0.6%14.7hPa2.7V00:00:0000:00:0000:00:00
SQ9EZE-132026-08-30 12:42:31-12.03625-77.04095161°199km/h990m0.1m/s-46.5°C0.6%14.8hPa2.7V00:00:0000:00:0000:00:00
OE5DRO-102026-08-30 12:42:26-12.03363-77.04247141°199km/h989m0.0m/s-46.6°C2.7%14.8hPa2.7V00:00:0000:00:0008:30:00
SQ9EZE-132026-08-30 12:42:12-12.03043-77.04814100°199km/h989m-0.0m/s-46.7°C0.6%15.1hPa2.6V00:00:0000:00:0000:00:00
OE5DRO-102026-08-30 12:42:06-12.03047-77.0512180°199km/h989m-0.0m/s-46.8°C2.7%15.1hPa2.6V00:00:0000:00:0000:00:00
SQ9EZE-132026-08-30 12:41:57-12.03236-77.0553652°199km/h989m0.0m/s-46.8°C0.6%15.3hPa2.6V00:00:0000:00:0000:00:00
OE5DRO-102026-08-30 12:41:44-12.03843-77.05870199km/h988m-0.6m/s-46.4°C2.7%15.4hPa2.6V00:00:0000:00:0000:00:00
SQ9EZE-132026-08-30 12:41:41-12.03944-77.05875360°199km/h989m0.0m/s-46.6°C0.6%15.5hPa2.6V00:00:0000:00:0000:00:00
OE5DRO-102026-08-30 12:41:39-12.04045-77.05869354°199km/h989m0.0m/s-46.4°C2.6%15.5hPa2.6V00:00:0000:00:0000:00:00
GYPAP8-172026-08-30 12:41:37-12.04145-77.05851348°199km/h989m-0.1m/s-46.6°C0.6%15.6hPa2.6V00:00:0000:00:0000:00:00
SQ9EZE-142026-08-30 12:41:27-12.04580-77.05601316°199km/h990m0.0m/s-47.0°C0.6%15.7hPa2.6V00:00:0000:00:0000:00:00
SQ9EZE-132026-08-30 12:41:23-12.04704-77.05440303°199km/h989m-0.2m/s-46.8°C0.6%15.8hPa2.6V00:00:0000:00:0000:00:00
OE5DRO-102026-08-30 12:41:20-12.04773-77.05303293°199km/h990m0.0m/s-46.7°C2.8%15.7hPa2.6V00:00:0000:00:0000:00:00
SQ9EZE-142026-08-30 12:41:11-12.04834-77.04848264°199km/h989m-0.1m/s-46.4°C0.6%15.9hPa2.6V00:00:0000:00:0000:00:00
LZ4TU-52026-08-30 12:41:10-12.04826-77.04798261°199km/h989m0.0m/s0°C0%0hPa2.6V00:00:0000:00:0000:00:00
LZ4TU-52026-08-30 12:41:06-12.04769-77.04601248°199km/h989m0.0m/s0°C0%0hPa2.6V00:00:0000:00:0000:00:00
SQ9EZE-132026-08-30 12:41:03-12.04699-77.04464239°199km/h989m-0.0m/s-46.2°C0.6%16.1hPa2.6V00:00:0000:00:0000:00:00
OE5DRO-102026-08-30 12:41:01-12.04640-77.04381232°199km/h988m-0.9m/s-46.0°C2.7%16.0hPa2.6V00:00:0000:00:0000:00:00
LZ4TU-52026-08-30 12:41:01-12.04640-77.04381232°199km/h988m-1.0m/s0°C0%0hPa2.6V00:00:0000:00:0000:00:00
LZ4TU-52026-08-30 12:40:55-12.04414-77.04177213°199km/h988m-0.1m/s0°C0%0hPa2.6V00:00:0000:00:0000:00:00
OE5DRO-102026-08-30 12:40:51-12.04232-77.04089199°199km/h988m-0.1m/s-45.8°C2.6%16.2hPa2.6V00:00:0000:00:0000:00:00
SQ9EZE-132026-08-30 12:40:43-12.03832-77.04045174°199km/h988m0.0m/s-46.0°C0.6%16.3hPa2.7V00:00:0000:00:0000:00:00
SQ9EZE-152026-08-30 12:40:40-12.03684-77.04075165°199km/h988m0.1m/s-46.3°C0.6%16.4hPa2.7V00:00:0000:00:0000:00:00
OE5DRO-102026-08-30 12:40:32-12.03333-77.04273139°199km/h988m0.0m/s-46.4°C2.7%16.4hPa2.7V00:00:0000:00:0000:00:00
SQ9EZE-132026-08-30 12:40:26-12.03145-77.04514120°199km/h988m0.1m/s-46.4°C0.6%16.6hPa2.7V00:00:0000:00:0000:00:00
GYPAP8-172026-08-30 12:40:18-12.03034-77.0490694°199km/h987m0.1m/s-46.5°C0.6%16.7hPa2.7V00:00:0000:00:0000:00:00
HA6NAB-112026-08-30 12:40:16-12.03034-77.0500988°199km/h987m0.0m/s-46.5°C0.6%16.7hPa2.7V00:00:0000:00:0000:00:00
OE5DRO-102026-08-30 12:40:13-12.03055-77.0516278°199km/h986m-0.6m/s-46.6°C2.8%16.7hPa2.7V00:00:0000:00:0000:00:00
SQ9EZE-132026-08-30 12:40:11-12.03083-77.0526172°199km/h986m-0.1m/s-46.7°C0.6%16.8hPa2.7V00:00:0000:00:0000:00:00
HA6NAB-112026-08-30 12:40:11-12.03083-77.0526172°199km/h986m-0.1m/s-46.7°C0.6%16.8hPa2.7V00:00:0000:00:0000:00:00
OE5DRO-102026-08-30 12:40:10-12.03101-77.0530968°199km/h986m-0.4m/s-46.6°C2.8%16.8hPa2.7V00:00:0000:00:0008:30:00
OE5DRO-102026-08-30 12:40:07-12.03171-77.0544558°199km/h987m-4.4m/s-46.5°C2.8%16.8hPa2.6V00:00:0000:00:0000:00:00
HA6NAB-112026-08-30 12:40:05-12.03229-77.0552952°199km/h989m-0.1m/s-46.5°C0.6%16.9hPa2.6V00:00:0000:00:0000:00:00
HA6NAB-112026-08-30 12:40:00-12.03412-77.0570536°199km/h988m-0.2m/s-46.3°C0.6%17.0hPa2.6V00:00:0000:00:0000:00:00
SQ9EZE-132026-08-30 12:39:56-12.03589-77.0580423°199km/h988m-0.9m/s-46.2°C0.6%17.0hPa2.6V00:00:0000:00:0000:00:00
HA6NAB-112026-08-30 12:39:55-12.03636-77.0582320°199km/h989m-0.1m/s-46.3°C0.6%17.0hPa2.6V00:00:0000:00:0000:00:00
HA6NAB-112026-08-30 12:39:49-12.03934-77.05875199km/h989m-0.1m/s-46.1°C0.6%17.1hPa2.6V00:00:0000:00:0000:00:00
HA6NAB-112026-08-30 12:39:43-12.04232-77.05824342°199km/h990m0.3m/s-46.3°C0.6%17.2hPa2.6V00:00:0000:00:0000:00:00
SQ9EZE-132026-08-30 12:39:41-12.04325-77.05785336°199km/h990m0.1m/s-46.4°C0.6%17.2hPa2.6V00:00:0000:00:0000:00:00
HA6NAB-112026-08-30 12:39:38-12.04456-77.05707326°199km/h990m-0.2m/s-46.3°C0.6%17.3hPa2.6V00:00:0000:00:0000:00:00
OE5DRO-102026-08-30 12:39:37-12.04497-77.05676323°199km/h991m-1.0m/s-46.2°C2.7%17.3hPa2.6V00:00:0000:00:0000:00:00
SP9KGR-152026-08-30 12:39:36-12.04536-77.05643319°199km/h992m0.0m/s-46.2°C0.6%17.3hPa2.6V00:00:0000:00:0000:00:00
OE5DRO-102026-08-30 12:39:32-12.04670-77.05491307°199km/h993m-0.9m/s-46.0°C2.6%17.3hPa2.6V00:00:0000:00:0000:00:00
HA6NAB-112026-08-30 12:39:32-12.04670-77.05491307°201km/h993m-0.9m/s-46.1°C0.6%17.4hPa2.6V00:00:0000:00:0000:00:00
HA6NAB-112026-08-30 12:39:25-12.04816-77.05164284°199km/h993m-0.0m/s-46.0°C0.6%17.5hPa2.6V00:00:0000:00:0000:00:00
SQ9EZE-132026-08-30 12:39:24-12.04826-77.05114281°199km/h993m0.1m/s-46.0°C0.6%17.4hPa2.6V00:00:0000:00:0000:00:00
OE5DRO-102026-08-30 12:39:22-12.04838-77.05012274°199km/h992m-0.4m/s-45.9°C2.6%17.5hPa2.6V00:00:0000:00:0000:00:00
SP9KGR-152026-08-30 12:39:20-12.04838-77.04910268°199km/h992m-0.1m/s-46.0°C0.6%17.5hPa2.6V00:00:0000:00:0000:00:00
SQ9EZE-142026-08-30 12:39:09-12.04646-77.04388233°199km/h995m-0.0m/s-46.6°C0.6%17.7hPa2.6V00:00:0000:00:0000:00:00
SQ9EZE-132026-08-30 12:39:08-12.04614-77.04349230°199km/h995m-0.0m/s-46.6°C0.6%17.7hPa2.6V00:00:0000:00:0000:00:00
SP9KGR-152026-08-30 12:39:04-12.04464-77.04210217°199km/h995m-0.1m/s-46.7°C0.6%17.8hPa2.6V00:00:0000:00:0000:00:00
OE5DRO-102026-08-30 12:39:04-12.04422-77.04182212°199km/h994m1.0m/s-46.7°C2.6%17.8hPa2.6V00:00:0000:00:0000:00:00
SQ9EZE-142026-08-30 12:38:53-12.03943-77.04038181°199km/h992m0.0m/s-47.3°C0.6%17.9hPa2.7V00:00:0000:00:0000:00:00
SQ9EZE-132026-08-30 12:38:52-12.03892-77.04039178°199km/h992m-0.0m/s-47.3°C0.6%18.0hPa2.7V00:00:0000:00:0000:00:00
SP9KGR-152026-08-30 12:38:48-12.03692-77.04072165°199km/h992m-0.1m/s-47.3°C0.6%18.0hPa2.7V00:00:0000:00:0000:00:00
OE5DRO-102026-08-30 12:38:44-12.03505-77.04149152°199km/h992m0.1m/s-47.4°C2.8%18.0hPa2.7V00:00:0000:00:0000:00:00
SQ9EZE-152026-08-30 12:38:39-12.03302-77.04301137°199km/h992m0.0m/s-47.5°C0.6%18.2hPa2.7V00:00:0000:00:0000:00:00
SP9KGR-152026-08-30 12:38:32-12.03104-77.04597114°199km/h992m0.0m/s-47.4°C0.6%18.2hPa2.7V00:00:0000:00:0000:00:00
SQ9EZE-132026-08-30 12:38:28-12.03046-77.04793101°199km/h991m0.1m/s-47.5°C0.6%18.4hPa2.7V00:00:0000:00:0000:00:00
OE5DRO-102026-08-30 12:38:23-12.03042-77.0510081°199km/h992m-0.0m/s-47.5°C2.9%18.4hPa2.7V00:00:0000:00:0000:00:00
SP9KGR-152026-08-30 12:38:12-12.03253-77.0556150°199km/h991m0.0m/s-47.7°C0.6%18.6hPa2.7V00:00:0000:00:0000:00:00
SQ9EZE-132026-08-30 12:38:10-12.03323-77.0563644°199km/h993m-0.0m/s-47.7°C0.6%18.6hPa2.7V00:00:0000:00:0000:00:00
OE5DRO-102026-08-30 12:38:03-12.03624-77.0582919°197km/h994m-0.6m/s-47.5°C2.9%18.7hPa2.7V00:00:0000:00:0008:30:00
OE5DRO-102026-08-30 12:38:01-12.03722-77.0585511°199km/h992m-0.8m/s-47.4°C2.8%18.7hPa2.6V00:00:0000:00:0000:00:00
HA6NAB-112026-08-30 12:37:58-12.03873-77.05875199km/h993m1.9m/s-47.4°C0.6%18.8hPa2.6V00:00:0000:00:0000:00:00
SQ9EZE-132026-08-30 12:37:55-12.04024-77.05870355°201km/h992m0.1m/s-47.4°C0.6%18.8hPa2.6V00:00:0000:00:0000:00:00
OE5DRO-102026-08-30 12:37:52-12.04173-77.05842345°199km/h992m-0.9m/s-47.3°C2.8%18.8hPa2.6V00:00:0000:00:0000:00:00
SP9KGR-152026-08-30 12:37:52-12.04173-77.05842346°199km/h992m-0.9m/s-47.3°C0.6%18.9hPa2.6V00:00:0000:00:0000:00:00
HA6NAB-112026-08-30 12:37:52-12.04173-77.05842346°199km/h992m-0.9m/s-47.3°C0.6%18.9hPa2.6V00:00:0000:00:0000:00:00
GYPAP8-172026-08-30 12:37:48-12.04361-77.05766333°199km/h992m0.0m/s-47.3°C0.6%18.9hPa2.6V00:00:0000:00:0000:00:00
HA6NAB-112026-08-30 12:37:46-12.04447-77.05713327°199km/h993m-0.1m/s-47.3°C0.6%19.0hPa2.6V00:00:0000:00:0000:00:00
HA6NAB-112026-08-30 12:37:41-12.04633-77.05540310°199km/h993m0.1m/s-47.5°C0%19.1hPa2.6V00:00:0000:00:0000:00:00
OE5DRO-102026-08-30 12:37:40-12.04664-77.05499307°199km/h993m0.0m/s-47.5°C2.8%19.0hPa2.6V00:00:0000:00:0000:00:00
SQ9EZE-132026-08-30 12:37:39-12.04693-77.05456304°199km/h993m0.1m/s-47.6°C0.6%19.1hPa2.6V00:00:0000:00:0000:00:00
SP9KGR-152026-08-30 12:37:35-12.04783-77.05273291°199km/h993m-0.0m/s-47.7°C0.6%19.2hPa2.6V00:00:0000:00:0000:00:00
HA6NAB-112026-08-30 12:37:35-12.04783-77.05273291°199km/h993m-0.0m/s-47.7°C0%19.2hPa2.6V00:00:0000:00:0000:00:00
HA6NAB-112026-08-30 12:37:30-12.04836-77.05022275°199km/h993m0.0m/s-47.7°C0%19.2hPa2.6V00:00:0000:00:0000:00:00
HA6NAB-112026-08-30 12:37:24-12.04808-77.04716256°199km/h992m0.0m/s-47.7°C0%19.3hPa2.6V00:00:0000:00:0000:00:00
SQ9EZE-132026-08-30 12:37:22-12.04776-77.04619249°199km/h993m0.0m/s-47.7°C0.6%19.4hPa2.6V00:00:0000:00:0000:00:00
SQ9EZE-132026-08-30 12:37:04-12.04103-77.04054192°199km/h993m-0.0m/s-47.7°C0.6%19.7hPa2.6V00:00:0000:00:0000:00:00
OE5DRO-102026-08-30 12:37:03-12.04053-77.04046188°199km/h993m0.0m/s-47.6°C2.9%19.6hPa2.6V00:00:0000:00:0000:00:00
SQ9EZE-142026-08-30 12:36:50-12.03427-77.04197147°199km/h993m-0.0m/s-47.1°C0.6%19.9hPa2.6V00:00:0000:00:0000:00:00
SQ9EZE-132026-08-30 12:36:48-12.03347-77.04259140°199km/h993m-0.0m/s-47.1°C0.6%19.9hPa2.6V00:00:0000:00:0000:00:00
OE5DRO-102026-08-30 12:36:44-12.03209-77.04409127°199km/h992m-0.0m/s-47.3°C2.7%19.9hPa2.6V00:00:0000:00:0000:00:00
SQ9EZE-142026-08-30 12:36:35-12.03040-77.0483399°199km/h992m-0.0m/s-47.9°C0.6%20.2hPa2.6V00:00:0000:00:0000:00:00
SQ9EZE-132026-08-30 12:36:31-12.03035-77.0503886°199km/h993m0.0m/s-47.9°C0.6%20.2hPa2.6V00:00:0000:00:0000:00:00
SQ9EZE-132026-08-30 12:36:14-12.03479-77.0574931°199km/h993m-0.0m/s-48.7°C0.7%20.5hPa2.6V00:00:0000:00:0000:00:00
SQ9EZE-132026-08-30 12:35:58-12.04260-77.05812340°199km/h993m0.0m/s-50.1°C0.7%20.7hPa2.6V00:00:0000:00:0000:00:00
OE5DRO-102026-08-30 12:35:50-12.04594-77.05585314°199km/h995m-0.0m/s-50.3°C3.1%20.9hPa2.6V00:00:0000:00:0000:00:00
SQ9EZE-132026-08-30 12:35:42-12.04797-77.05235288°199km/h995m0.4m/s-50.3°C0.7%21.1hPa2.6V00:00:0000:00:0000:00:00
GYPAP8-172026-08-30 12:35:39-12.04830-77.05084279°199km/h994m0.0m/s-50.5°C0.7%21.1hPa2.6V00:00:0000:00:0000:00:00
HA6NAB-112026-08-30 12:35:37-12.04839-77.04982273°199km/h994m-0.0m/s-50.5°C0%21.2hPa2.6V00:00:0000:00:0000:00:00
SQ9EZE-152026-08-30 12:35:36-12.04839-77.04930269°199km/h993m-0.2m/s-50.6°C0.7%21.2hPa2.6V00:00:0000:00:0000:00:00
HA6NAB-112026-08-30 12:35:29-12.04761-77.04581247°199km/h991m0.5m/s-50.7°C0%21.3hPa2.6V00:00:0000:00:0000:00:00
SQ9EZE-132026-08-30 12:35:27-12.04711-77.04494241°199km/h994m0.2m/s-50.8°C0.8%21.3hPa2.6V00:00:0000:00:0000:00:00
OE5DRO-102026-08-30 12:35:25-12.04654-77.04409234°201km/h996m-1.9m/s-50.8°C3.2%21.3hPa2.6V00:00:0000:00:0000:00:00
OE5DRO-102026-08-30 12:35:24-12.04589-77.04330228°199km/h997m-1.4m/s-51.0°C3.2%21.4hPa2.6V00:00:0000:00:0000:00:00
OE5DRO-102026-08-30 12:35:21-12.04516-77.04259221°199km/h996m-0.4m/s-51.0°C3.3%21.4hPa2.6V00:00:0000:00:0008:30:00
OE5DRO-102026-08-30 12:35:19-12.04435-77.04197215°199km/h996m-0.8m/s-50.9°C3.3%21.4hPa2.7V00:00:0000:00:0000:00:00
OE5DRO-102026-08-30 12:35:17-12.04348-77.04143208°199km/h995m-0.8m/s-50.9°C3.2%21.5hPa2.7V00:00:0000:00:0000:00:00
SQ9EZE-152026-08-30 12:35:15-12.04256-77.04101201°199km/h995m1.6m/s-51.1°C0.7%21.6hPa2.7V00:00:0000:00:0000:00:00
SQ9EZE-132026-08-30 12:35:10-12.04012-77.04042186°199km/h998m0.0m/s-51.3°C0.8%21.7hPa2.7V00:00:0000:00:0000:00:00
OE5DRO-102026-08-30 12:35:03-12.03660-77.04084163°199km/h992m-0.5m/s-51.0°C3.3%21.7hPa2.7V00:00:0000:00:0000:00:00
OE5DRO-102026-08-30 12:34:59-12.03475-77.04169149°104km/h988m2.6m/s-51.1°C3.3%21.8hPa2.7V00:00:0000:00:0000:00:00
SQ9EZE-132026-08-30 12:34:2049.0329420.936060km/h25080m0.0m/s-50.6°C0.7%22.6hPa2.7V00:00:0000:00:0000:00:00
SQ9EZE-142026-08-30 12:34:1849.0258720.93834166°224km/h25216m10.7m/s-50.7°C0.7%22.6hPa2.7V00:00:0000:00:0000:00:00
SQ9EZE-132026-08-30 12:33:5949.0329420.936060km/h25080m0.0m/s-51.8°C0.7%23.0hPa2.7V00:00:0000:00:0000:00:00
SQ9EZE-132026-08-30 12:33:4349.0329420.936060km/h25080m0.0m/s-53.0°C0.8%23.3hPa2.7V00:00:0000:00:0000:00:00
SP9KGR-152026-08-30 12:33:4149.0329420.936060km/h25080m0.0m/s-52.9°C0.8%23.3hPa2.7V00:00:0000:00:0000:00:00
GYPAP8-172026-08-30 12:33:3749.0329420.936060km/h25080m0.0m/s-52.7°C0.8%23.4hPa2.7V00:00:0000:00:0000:00:00
SQ9EZE-132026-08-30 12:33:2749.0329420.936060km/h25080m0.0m/s-52.4°C0.8%23.6hPa2.7V00:00:0000:00:0000:00:00
SQ9EZE-132026-08-30 12:33:1249.0329420.936060km/h25080m0.0m/s-52.2°C0.8%23.9hPa2.7V00:00:0000:00:0000:00:00
SQ9EZE-132026-08-30 12:32:5649.0329420.936060km/h25080m0.0m/s-52.0°C0.8%24.2hPa2.7V00:00:0000:00:0000:00:00
SQ9EZE-152026-08-30 12:32:5349.0329420.936060km/h25080m0.0m/s-52.0°C0.8%24.2hPa2.7V00:00:0000:00:0000:00:00
SQ9EZE-132026-08-30 12:32:4149.0329420.936060km/h25080m0.0m/s-51.6°C0.8%24.5hPa2.7V00:00:0000:00:0000:00:00
SQ9EZE-152026-08-30 12:32:3249.0329420.936060km/h25080m0.0m/s-51.4°C0.8%24.6hPa2.7V00:00:0000:00:0000:00:00
GYPAP8-172026-08-30 12:32:3049.0329420.936060km/h25080m0.0m/s-51.4°C0.8%24.7hPa2.7V00:00:0000:00:0000:00:00
SQ9EZE-132026-08-30 12:32:2549.0329420.936060km/h25080m0.0m/s-51.4°C0.8%24.8hPa2.7V00:00:0000:00:0000:00:00
SQ9EZE-132026-08-30 12:32:0949.0329420.936060km/h25080m0.0m/s-51.7°C0.8%25.1hPa2.7V00:00:0000:00:0000:00:00
SQ9EZE-132026-08-30 12:31:5249.0280620.93747166°224km/h25173m10.7m/s-52.0°C0.8%25.5hPa2.7V00:00:0000:00:0000:00:00
SQ9EZE-142026-08-30 12:31:4649.0313620.93616166°224km/h25109m10.7m/s-52.1°C0.8%25.7hPa2.7V00:00:0000:00:0000:00:00
SQ9EZE-132026-08-30 12:31:3549.0346520.93558317°69km/h25283m4.8m/s-52.4°C0.8%25.9hPa2.7V00:00:0000:00:0000:00:00
SQ9EZE-142026-08-30 12:31:3149.0341220.93619301°47km/h25274m8.6m/s-52.7°C0.8%26.0hPa2.7V00:00:0000:00:0000:00:00
GYPAP8-172026-08-30 12:31:3049.0340620.93635301°47km/h25265m8.6m/s-52.8°C0.8%26.0hPa2.7V00:00:0000:00:0000:00:00
SQ9EZE-132026-08-30 12:31:2049.0335620.9370968°13km/h25192m4.0m/s-52.9°C0.8%26.2hPa2.7V00:00:0000:00:0000:00:00
SP9KGR-152026-08-30 12:31:1849.0335220.9370577°18km/h25187m5.5m/s-52.9°C0.9%26.2hPa2.7V00:00:0000:00:0000:00:00
SQ9EZE-152026-08-30 12:31:1549.0335120.93686265°16km/h25167m6.9m/s-52.6°C0.8%26.3hPa2.7V00:00:0000:00:0000:00:00
SQ9EZE-132026-08-30 12:31:0349.0333120.9370834°11km/h25099m7.2m/s-52.3°C0.8%26.6hPa2.7V00:00:0000:00:0000:00:00
SP9KGR-152026-08-30 12:30:5249.0331420.93750343°4km/h25031m5.6m/s-52.3°C0.8%26.9hPa2.7V00:00:0000:00:0000:00:00
OE5DRO-102026-08-30 12:30:5049.0331320.93752310°7km/h25021m4.6m/s0°C0%0hPa2.7V00:00:0000:00:0000:00:00
HA6NAB-112026-08-30 12:30:4149.0330420.93771255°5km/h24978m4.8m/s-53.0°C0%27.1hPa2.7V00:00:0000:00:0000:00:00
SQ9EZE-132026-08-30 12:30:4049.0330420.93773277°4km/h24973m6.3m/s-53.1°C0.8%27.1hPa2.7V00:00:0000:00:0000:00:00
HA6NAB-112026-08-30 12:30:3649.0330020.93779278°4km/h24952m5.9m/s-53.2°C0%27.2hPa2.7V00:00:0000:00:0000:00:00
SP9KGR-152026-08-30 12:30:3549.0330020.93780212°5km/h24945m5.9m/s-53.1°C0.8%27.2hPa2.7V00:00:0000:00:0000:00:00
HA6NAB-112026-08-30 12:30:3149.0330820.93788242°11km/h24919m4.9m/s-53.1°C0%27.3hPa2.7V00:00:0000:00:0000:00:00
GYPAP8-172026-08-30 12:30:2649.0331720.93810240°20km/h24896m4.8m/s-53.2°C0.8%27.4hPa2.7V00:00:0000:00:0000:00:00
HA6NAB-112026-08-30 12:30:2549.0332120.93823251°16km/h24885m5.7m/s-53.3°C0%27.5hPa2.7V00:00:0000:00:0000:00:00
SP9KGR-152026-08-30 12:30:2049.0332920.93838199°16km/h24866m6.6m/s-53.4°C0.9%27.6hPa2.7V00:00:0000:00:0000:00:00
SQ9EZE-132026-08-30 12:30:1649.0335020.93844194°24km/h24842m4.7m/s-53.2°C0.9%27.7hPa2.7V00:00:0000:00:0000:00:00
OE5DRO-102026-08-30 12:30:1249.0337920.93862220°16km/h24816m6.4m/s0°C0%0hPa2.7V00:00:0000:00:0000:00:00
SP9KGR-152026-08-30 12:30:0449.0340620.93882189°27km/h24780m4.9m/s-53.0°C0.9%27.9hPa2.7V00:00:0000:00:0000:00:00
SQ9EZE-132026-08-30 12:29:5949.0343420.93894206°22km/h24754m6.2m/s-53.0°C0.9%28.1hPa2.7V00:00:0000:00:0000:00:00
HA6NAB-112026-08-30 12:29:5149.0346320.93902165°22km/h24710m5.7m/s-52.8°C0%28.2hPa2.7V00:00:0000:00:0000:00:00
SP9KGR-152026-08-30 12:29:4849.0348020.93895168°22km/h24694m5.9m/s-52.9°C0.8%28.3hPa2.7V00:00:0000:00:0000:00:00
SQ9EZE-132026-08-30 12:29:4349.0350820.93892186°22km/h24667m4.2m/s-52.9°C0.8%28.4hPa2.7V00:00:0000:00:0000:00:00
SP9KGR-152026-08-30 12:29:3349.0355220.93884159°22km/h24614m4.7m/s-53.0°C0.8%28.7hPa2.7V00:00:0000:00:0000:00:00
SQ9EZE-132026-08-30 12:29:2949.0358220.93872171°20km/h24587m6.3m/s-53.3°C0.9%28.8hPa2.7V00:00:0000:00:0000:00:00
GYPAP8-172026-08-30 12:29:2349.0360220.93872182°16km/h24559m4.4m/s-53.1°C0.8%28.9hPa2.7V00:00:0000:00:0000:00:00
SP9KGR-152026-08-30 12:29:1349.0363320.93852346°2km/h24500m4.8m/s-53.1°C0.8%29.2hPa2.7V00:00:0000:00:0000:00:00
SQ9EZE-132026-08-30 12:29:1049.0363320.93854245°5km/h24489m5.4m/s-53.4°C0.9%29.2hPa2.7V00:00:0000:00:0000:00:00
SP9KGR-152026-08-30 12:28:5849.0365320.9380873°9km/h24421m5.5m/s-53.8°C0.9%29.5hPa2.7V00:00:0000:00:0000:00:00
SQ9EZE-132026-08-30 12:28:4949.0365920.93766112°22km/h24378m5.3m/s-53.9°C0.9%29.7hPa2.7V00:00:0000:00:0000:00:00
SP9KGR-152026-08-30 12:28:4249.0366320.93703102°13km/h24337m5.0m/s-53.8°C0.9%29.9hPa2.7V00:00:0000:00:0000:00:00
SQ9EZE-132026-08-30 12:28:3349.0366020.9366655°15km/h24296m4.8m/s-53.8°C0.9%30.1hPa2.7V00:00:0000:00:0000:00:00
OE5DRO-102026-08-30 12:28:2249.0363120.9362713km/h24231m6.3m/s0°C0%0hPa2.7V00:00:0000:00:0000:00:00
GYPAP8-172026-08-30 12:28:1949.0362620.93627359°11km/h24220m4.1m/s-53.7°C0.9%30.5hPa2.7V00:00:0000:00:0000:00:00
SQ9EZE-132026-08-30 12:28:1749.0362020.9362520°16km/h24210m6.0m/s-53.7°C0.9%30.5hPa2.7V00:00:0000:00:0000:00:00
SP9KGR-152026-08-30 12:28:0949.0359320.9361711km/h24168m5.2m/s-53.7°C0.9%30.8hPa2.7V00:00:0000:00:0000:00:00
OE5DRO-102026-08-30 12:28:0349.0357420.9362115°16km/h24130m4.7m/s0°C0%0hPa2.7V00:00:0000:00:0000:00:00
SP9KGR-152026-08-30 12:27:5349.0353720.93623344°16km/h24082m5.0m/s-53.4°C0.9%31.2hPa2.7V00:00:0000:00:0000:00:00
SQ9EZE-132026-08-30 12:27:4949.0352020.9362315°18km/h24061m4.6m/s-53.3°C0.9%31.2hPa2.7V00:00:0000:00:0000:00:00
SP9KGR-152026-08-30 12:27:3349.0346620.93645359°11km/h23969m6.5m/s-53.2°C0.9%31.7hPa2.7V00:00:0000:00:0000:00:00
GYPAP8-172026-08-30 12:27:1849.0343920.936664km/h23893m6.1m/s-52.9°C0.9%32.1hPa2.7V00:00:0000:00:0000:00:00
SQ9EZE-142026-08-30 12:27:1749.0343820.9366516°7km/h23887m6.2m/s-52.8°C0.9%32.1hPa2.7V00:00:0000:00:0000:00:00
SP9KGR-152026-08-30 12:27:1449.0343320.93665331°5km/h23870m5.6m/s-52.8°C0.8%32.2hPa2.7V00:00:0000:00:0000:00:00
SQ9EZE-132026-08-30 12:27:0449.0342020.93706304°11km/h23815m6.0m/s-52.7°C0.8%32.5hPa2.7V00:00:0000:00:0000:00:00
SQ9EZE-152026-08-30 12:27:0049.0341620.93716267°5km/h23793m5.2m/s-52.8°C0.8%32.6hPa2.7V00:00:0000:00:0000:00:00
SP9KGR-152026-08-30 12:26:5549.0341120.93730295°11km/h23766m6.3m/s-52.9°C0.9%32.7hPa2.7V00:00:0000:00:0000:00:00
SP9KGR-152026-08-30 12:26:4149.0338820.9374518°7km/h23685m4.6m/s-52.8°C0.9%33.1hPa2.7V00:00:0000:00:0000:00:00
SQ9EZE-152026-08-30 12:26:4049.0338820.9374518°7km/h23685m4.6m/s-52.8°C0.9%33.1hPa2.7V00:00:0000:00:0000:00:00
S52SK2026-08-30 12:26:3649.0337920.9373257°15km/h23663m5.9m/s-52.7°C0%0hPa2.7V00:00:0000:00:0000:00:00
S52SK2026-08-30 12:26:3149.0336620.93720357°16km/h23637m5.1m/s-52.6°C0%0hPa2.7V00:00:0000:00:0000:00:00
SP9KGR-152026-08-30 12:26:2549.0334120.9373310°16km/h23604m5.1m/s-52.7°C0.9%33.5hPa2.7V00:00:0000:00:0000:00:00
GYPAP8-172026-08-30 12:26:1649.0329520.93704336°22km/h23548m4.4m/s-53.1°C0.9%33.9hPa2.7V00:00:0000:00:0000:00:00
SP9KGR-152026-08-30 12:26:0749.0325620.9371420°18km/h23512m4.7m/s-53.3°C0.9%34.0hPa2.7V00:00:0000:00:0000:00:00
SP9KGR-152026-08-30 12:25:5249.0320620.9370418°18km/h23437m3.9m/s-53.1°C0.9%34.4hPa2.7V00:00:0000:00:0000:00:00
SQ9EZE-132026-08-30 12:25:5149.0320220.9370214°18km/h23432m5.2m/s-53.2°C0.9%34.5hPa2.7V00:00:0000:00:0000:00:00
S52SK2026-08-30 12:25:4249.0317920.93721312°13km/h23386m5.2m/s-53.6°C0%0hPa2.7V00:00:0000:00:0000:00:00
SP9KGR-152026-08-30 12:25:3649.0315820.93729337°11km/h23357m4.6m/s-53.6°C0.9%34.9hPa2.7V00:00:0000:00:0000:00:00
S52SK2026-08-30 12:25:3149.0315120.93752267°13km/h23331m5.9m/s-53.6°C0%0hPa2.7V00:00:0000:00:0000:00:00
S52SK2026-08-30 12:25:2649.0315020.93774302°16km/h23306m4.8m/s-53.5°C0%0hPa2.7V00:00:0000:00:0000:00:00
SP9KGR-152026-08-30 12:25:2049.0313820.93796278°11km/h23275m4.7m/s-53.6°C0.9%35.3hPa2.7V00:00:0000:00:0000:00:00
SQ9EZE-132026-08-30 12:25:1149.0315620.93841281°5km/h23225m5.6m/s-53.5°C0.9%35.6hPa2.7V00:00:0000:00:0000:00:00
SQ9EZE-142026-08-30 12:25:0749.0315320.93846278°7km/h23204m4.6m/s-53.4°C0.9%35.7hPa2.7V00:00:0000:00:0000:00:00
SP9KGR-152026-08-30 12:25:0249.0315920.93856212°15km/h23184m4.1m/s-53.3°C0.9%35.8hPa2.7V00:00:0000:00:0000:00:00
SQ9EZE-142026-08-30 12:24:5049.0316720.93879158°5km/h23122m5.7m/s-52.9°C0.9%36.2hPa2.7V00:00:0000:00:0000:00:00
SP9KGR-152026-08-30 12:24:4649.0317520.93881215°11km/h23101m4.3m/s-52.9°C0.9%36.3hPa2.7V00:00:0000:00:0000:00:00
S52SK2026-08-30 12:24:3849.0317720.9388182°7km/h23061m5.9m/s-53.3°C0%0hPa2.7V00:00:0000:00:0000:00:00
SQ9EZE-142026-08-30 12:24:3549.0318120.93872151°9km/h23045m5.9m/s-53.2°C0.9%36.6hPa2.7V00:00:0000:00:0000:00:00
S52SK2026-08-30 12:24:3249.0319020.93870176°16km/h23030m5.7m/s-53.3°C0%0hPa2.7V00:00:0000:00:0000:00:00
SP9KGR-152026-08-30 12:24:3149.0319420.93869169°16km/h23025m5.3m/s-53.2°C0.9%36.7hPa2.7V00:00:0000:00:0000:00:00
SQ9EZE-132026-08-30 12:24:3049.0319820.93868165°16km/h23020m4.5m/s-53.2°C0.9%36.8hPa2.7V00:00:0000:00:0000:00:00
SP9KGR-152026-08-30 12:24:1649.0320920.93832194°4km/h22950m4.8m/s-53.0°C0.9%37.1hPa2.7V00:00:0000:00:0000:00:00
SQ9EZE-132026-08-30 12:24:0949.0319720.9382628°13km/h22914m5.9m/s-52.9°C0.9%37.4hPa2.7V00:00:0000:00:0000:00:00
GYPAP8-172026-08-30 12:24:0649.0319020.9381945°9km/h22899m6.0m/s-52.8°C0.9%37.5hPa2.7V00:00:0000:00:0000:00:00
SQ9EZE-152026-08-30 12:24:0449.0318820.9381459°7km/h22889m4.1m/s-52.7°C0.9%37.5hPa2.7V00:00:0000:00:0000:00:00
SP9KGR-152026-08-30 12:24:0049.0318220.938129km/h22870m4.7m/s-52.7°C0.9%37.6hPa2.7V00:00:0000:00:0000:00:00
SQ9EZE-132026-08-30 12:23:5449.0316120.9380018°16km/h22836m4.7m/s-52.7°C0.9%37.8hPa2.7V00:00:0000:00:0000:00:00
S52SK2026-08-30 12:23:4449.0313520.9377838°13km/h22789m4.3m/s-52.8°C0%0hPa2.7V00:00:0000:00:0000:00:00
SP9KGR-152026-08-30 12:23:4149.0312620.9377311°16km/h22774m4.5m/s-52.6°C0.9%38.2hPa2.7V00:00:0000:00:0000:00:00
SQ9EZE-132026-08-30 12:23:3849.0311020.9376718°27km/h22758m4.5m/s-52.7°C0.9%38.3hPa2.7V00:00:0000:00:0000:00:00
SP9KGR-152026-08-30 12:23:2649.0306220.9376511km/h22696m5.3m/s-52.7°C0.9%38.6hPa2.7V00:00:0000:00:0000:00:00
SQ9EZE-132026-08-30 12:23:2249.0304420.93767351°26km/h22676m4.4m/s-52.8°C0.9%38.8hPa2.7V00:00:0000:00:0000:00:00
SP9KGR-152026-08-30 12:23:0949.0297620.93819320°24km/h22610m4.2m/s-52.7°C0.9%39.2hPa2.7V00:00:0000:00:0000:00:00
SQ9EZE-132026-08-30 12:23:0749.0296720.93829329°20km/h22600m5.9m/s-52.8°C0.9%39.2hPa2.7V00:00:0000:00:0000:00:00
GYPAP8-172026-08-30 12:23:0249.0294820.93853315°20km/h22575m4.4m/s-52.7°C0.9%39.4hPa2.7V00:00:0000:00:0000:00:00
SP9KGR-152026-08-30 12:22:5349.0292020.93905314°16km/h22529m4.5m/s-52.4°C0.9%39.6hPa2.7V00:00:0000:00:0000:00:00
SQ9EZE-152026-08-30 12:22:5249.0291720.93910315°16km/h22524m5.2m/s-52.4°C0.9%39.7hPa2.7V00:00:0000:00:0000:00:00
SQ9EZE-132026-08-30 12:22:5049.0291020.93919315°18km/h22514m4.4m/s-52.5°C0.9%39.7hPa2.7V00:00:0000:00:0000:00:00
SQ9EZE-132026-08-30 12:22:3549.0288820.93985322°9km/h22438m5.7m/s-52.5°C0.9%40.3hPa2.7V00:00:0000:00:0000:00:00
SP9KGR-152026-08-30 12:22:3149.0287920.93994310°16km/h22419m5.3m/s-52.7°C0.9%40.4hPa2.7V00:00:0000:00:0000:00:00
SQ9EZE-132026-08-30 12:22:1949.0288420.94044275°2km/h22357m4.6m/s-53.2°C0.9%40.7hPa2.7V00:00:0000:00:0000:00:00
SQ9EZE-142026-08-30 12:22:1849.0288420.94047260°5km/h22347m4.3m/s-53.2°C0.9%40.8hPa2.7V00:00:0000:00:0000:00:00
SP9KGR-152026-08-30 12:22:1649.0288420.94049238°5km/h22343m4.4m/s-53.3°C0.9%40.8hPa2.7V00:00:0000:00:0000:00:00
S52SK2026-08-30 12:22:1349.0289220.94056216°15km/h22323m5.8m/s-53.5°C0%0hPa2.7V00:00:0000:00:0000:00:00
S52SK2026-08-30 12:22:0649.0291120.94083225°11km/h22291m5.4m/s0°C0%0hPa2.7V00:00:0000:00:0000:00:00
OE3JTB-152026-08-30 12:22:0549.0291520.94089218°13km/h22281m4.1m/s-53.4°C3.7%41.2hPa2.7V00:00:0000:00:0000:00:00
SQ9EZE-132026-08-30 12:22:0349.0291720.94090199°9km/h22276m5.1m/s-53.3°C0.9%41.2hPa2.7V00:00:0000:00:0000:00:00
HA6NAB-112026-08-30 12:22:0149.0292220.94090175°13km/h22265m4.8m/s-53.4°C0%41.3hPa2.7V00:00:0000:00:0000:00:00
S52SK2026-08-30 12:22:0049.0292520.94090183°15km/h22260m5.0m/s0°C0%0hPa2.7V00:00:0000:00:0000:00:00
GYPAP8-172026-08-30 12:21:5949.0292920.94091196°16km/h22255m5.6m/s-53.3°C0.9%41.4hPa2.7V00:00:0000:00:0000:00:00
SP9KGR-152026-08-30 12:21:5149.0295220.94114228°9km/h22215m4.1m/s-53.3°C1.0%41.7hPa2.7V00:00:0000:00:0000:00:00
SQ9EZE-132026-08-30 12:21:4749.0296020.94113160°13km/h22194m4.8m/s-53.2°C0.9%41.8hPa2.7V00:00:0000:00:0000:00:00
OE3JTB-152026-08-30 12:21:3649.0299520.94114156°9km/h22133m4.8m/s-53.0°C3.5%42.1hPa2.7V00:00:0001:32:1000:00:00
SQ9EZE-132026-08-30 12:21:3249.0300120.94110168°9km/h22117m5.0m/s-53.0°C0.9%42.3hPa2.7V00:00:0000:00:0000:00:00
SQ9EZE-152026-08-30 12:21:2749.0301120.94110208°11km/h22086m4.7m/s-53.3°C0.9%42.5hPa2.7V00:00:0000:00:0000:00:00
SP9KGR-152026-08-30 12:21:1649.0303320.94091131°11km/h22036m5.1m/s-53.3°C0.9%42.8hPa2.7V00:00:0000:00:0000:00:00
SQ9EZE-132026-08-30 12:21:1449.0303720.94087155°7km/h22025m6.1m/s-53.4°C0.9%42.9hPa2.7V00:00:0000:00:0000:00:00
OE3JTB-152026-08-30 12:21:0549.0304820.94058101°7km/h21974m5.7m/s-54.0°C3.7%43.2hPa2.7V00:00:0000:00:0000:00:00
SP9KGR-152026-08-30 12:21:0149.0305120.94041108°13km/h21961m5.4m/s-54.2°C1.0%43.3hPa2.7V00:00:0000:00:0000:00:00
GYPAP8-172026-08-30 12:20:5749.0305320.94028102°7km/h21940m5.6m/s-54.3°C1.0%43.5hPa2.7V00:00:0000:00:0000:00:00
SP9KGR-152026-08-30 12:20:4549.0304620.94022304°9km/h21880m4.5m/s-54.5°C1.0%43.9hPa2.7V00:00:0000:00:0000:00:00
SQ9EZE-132026-08-30 12:20:4249.0304320.94030283°5km/h21865m4.5m/s-54.5°C1.0%44.0hPa2.7V00:00:0000:00:0000:00:00
OE3JTB-152026-08-30 12:20:3649.0304220.94040196°9km/h21829m4.4m/s-54.8°C4.0%44.2hPa2.7V00:00:0000:00:0000:00:00
SP9KGR-152026-08-30 12:20:2949.0304620.94058262°11km/h21798m5.2m/s-54.7°C1.0%44.5hPa2.7V00:00:0000:00:0000:00:00
SQ9EZE-132026-08-30 12:20:2749.0304520.94070306°11km/h21784m5.9m/s-54.8°C1.0%44.6hPa2.7V00:00:0000:00:0000:00:00
SP9KGR-152026-08-30 12:19:5549.0305720.94171268°9km/h21632m4.8m/s-54.1°C0.9%45.6hPa2.7V00:00:0000:00:0000:00:00
SQ9EZE-132026-08-30 12:19:5349.0305620.94176321°9km/h21621m4.9m/s-54.0°C1.0%45.7hPa2.7V00:00:0000:00:0000:00:00
GYPAP8-172026-08-30 12:19:5049.0305320.941790km/h21602m3.9m/s-53.9°C0.9%45.8hPa2.7V00:00:0000:00:0000:00:00
SQ9EZE-142026-08-30 12:19:4649.0305520.94185238°13km/h21589m4.2m/s-53.9°C0.9%45.9hPa2.7V00:00:0000:00:0000:00:00
SP9KGR-152026-08-30 12:19:4149.0307120.94223264°13km/h21560m4.0m/s-54.0°C1.0%46.1hPa2.7V00:00:0000:00:0000:00:00
SQ9EZE-132026-08-30 12:19:3649.0306820.94233337°7km/h21541m4.6m/s-54.3°C1.0%46.2hPa2.7V00:00:0000:00:0000:00:00
OE3JTB-152026-08-30 12:19:2549.0306420.94294276°11km/h21484m4.3m/s-54.4°C3.8%46.7hPa2.7V00:00:0001:29:5900:00:00
SQ9EZE-132026-08-30 12:19:2049.0305820.94310296°13km/h21464m5.5m/s-54.5°C1.0%46.8hPa2.7V00:00:0000:00:0000:00:00
SP9KGR-152026-08-30 12:19:0949.0306920.94368265°9km/h21412m4.1m/s-54.4°C1.0%47.2hPa2.7V00:00:0000:00:0000:00:00
SQ9EZE-132026-08-30 12:19:0449.0307220.94380247°9km/h21388m5.7m/s-54.5°C1.0%47.4hPa2.7V00:00:0000:00:0000:00:00
OE3JTB-152026-08-30 12:18:5649.0308420.94418259°9km/h21348m4.2m/s-54.5°C3.9%47.6hPa2.7V00:00:0000:00:0008:30:00
SP9KGR-152026-08-30 12:18:5449.0308520.94421237°7km/h21343m5.1m/s-54.5°C1.0%47.8hPa2.7V00:00:0000:00:0000:00:00
SQ9EZE-132026-08-30 12:18:4849.0309420.94427199°5km/h21313m5.6m/s-54.6°C1.0%47.9hPa2.7V00:00:0000:00:0000:00:00
GYPAP8-172026-08-30 12:18:4049.0310220.94445231°11km/h21274m4.0m/s-54.7°C1.0%48.2hPa2.7V00:00:0000:00:0000:00:00
SP9KGR-152026-08-30 12:18:3849.0310620.94452237°9km/h21264m4.9m/s-54.6°C1.0%48.3hPa2.7V00:00:0000:00:0000:00:00
SQ9EZE-132026-08-30 12:18:3149.0311420.94472276°9km/h21231m4.3m/s-54.6°C1.0%48.6hPa2.7V00:00:0000:00:0000:00:00
OE3JTB-152026-08-30 12:18:2749.0311620.94489246°9km/h21206m4.9m/s-54.6°C3.8%48.7hPa2.7V00:00:0000:00:0000:00:00
SP9KGR-152026-08-30 12:18:2249.0312320.94495201°11km/h21187m4.6m/s-54.7°C1.0%48.9hPa2.7V00:00:0000:00:0000:00:00
SQ9EZE-132026-08-30 12:18:1749.0312920.94503267°5km/h21158m4.8m/s-54.9°C1.0%49.1hPa2.7V00:00:0000:00:0000:00:00
SP9KGR-152026-08-30 12:18:0649.0313920.94519168°7km/h21109m4.5m/s-54.9°C1.0%49.5hPa2.7V00:00:0000:00:0000:00:00
SQ9EZE-132026-08-30 12:18:0049.0314720.94518251°2km/h21079m4.2m/s-54.9°C1.0%49.7hPa2.7V00:00:0000:00:0000:00:00
SP9KGR-152026-08-30 12:17:5149.0315820.94521121°11km/h21035m5.9m/s-55.0°C1.1%50.0hPa2.7V00:00:0000:00:0000:00:00
SQ9EZE-132026-08-30 12:17:4549.0316720.94511216°9km/h21007m5.8m/s-54.9°C1.0%50.3hPa2.7V00:00:0000:00:0000:00:00
SQ9EZE-142026-08-30 12:17:4249.0317420.94519219°11km/h20992m4.7m/s-54.8°C1.0%50.4hPa2.7V00:00:0000:00:0000:00:00
GYPAP8-172026-08-30 12:17:3849.0317720.94522152°4km/h20974m5.0m/s-54.8°C1.0%50.6hPa2.7V00:00:0000:00:0000:00:00
SP9KGR-152026-08-30 12:17:3649.0318020.94521163°7km/h20964m4.2m/s-54.8°C1.0%50.7hPa2.7V00:00:0000:00:0000:00:00
HA6NAB-112026-08-30 12:17:3349.0318420.94520204°5km/h20949m5.4m/s-54.9°C0%50.8hPa2.7V00:00:0000:00:0000:00:00
SQ9EZE-132026-08-30 12:17:3049.0319120.94522166°7km/h20929m4.1m/s-54.8°C1.0%51.0hPa2.7V00:00:0000:00:0000:00:00
SQ9EZE-142026-08-30 12:17:2749.0319320.9451998°5km/h20919m5.3m/s-54.8°C1.1%51.0hPa2.7V00:00:0000:00:0000:00:00
SP9KGR-152026-08-30 12:17:2049.0319720.94496105°7km/h20883m4.4m/s-54.6°C1.0%51.3hPa2.7V00:00:0000:00:0000:00:00
SQ9EZE-132026-08-30 12:17:1449.0320520.94476122°13km/h20846m6.0m/s-54.8°C1.0%51.6hPa2.7V00:00:0000:00:0000:00:00
SP9KGR-152026-08-30 12:17:0649.0321420.94437122°11km/h20806m4.3m/s-54.8°C1.0%51.9hPa2.7V00:00:0000:00:0000:00:00
OE3JTB-152026-08-30 12:17:0149.0321720.94417100°16km/h20781m5.2m/s-55.1°C3.9%52.1hPa2.7V00:00:0000:00:0000:00:00
SQ9EZE-132026-08-30 12:16:5849.0321820.9440196°22km/h20772m5.4m/s-55.1°C1.0%52.2hPa2.6V00:00:0000:00:0000:00:00
SP9KGR-152026-08-30 12:16:5049.0322820.94341111°20km/h20733m5.5m/s-55.3°C1.1%52.5hPa2.6V00:00:0000:00:0000:00:00
SQ9EZE-132026-08-30 12:16:4249.0323120.9429380°15km/h20692m5.0m/s-55.6°C1.1%52.9hPa2.6V00:00:0000:00:0000:00:00
SP9KGR-152026-08-30 12:16:3449.0322220.9425267°9km/h20651m5.6m/s-55.3°C1.0%53.2hPa2.6V00:00:0000:00:0000:00:00
OE3JTB-152026-08-30 12:16:3249.0321920.9424455°11km/h20636m5.3m/s-55.3°C4.0%53.3hPa2.6V00:00:0000:00:0000:00:00
SQ9EZE-132026-08-30 12:16:2749.0321420.9423364°7km/h20616m4.8m/s-55.4°C1.1%53.5hPa2.6V00:00:0000:00:0000:00:00
SP9KGR-152026-08-30 12:16:1949.0319520.9422222°11km/h20575m4.3m/s-55.4°C1.0%53.8hPa2.6V00:00:0000:00:0000:00:00
SQ9EZE-132026-08-30 12:16:1149.0318020.94213346°13km/h20535m5.4m/s-55.4°C1.1%54.2hPa2.6V00:00:0000:00:0000:00:00
OE3JTB-152026-08-30 12:16:0349.0315320.94232325°7km/h20491m4.5m/s-55.0°C4.0%54.5hPa2.6V00:00:0001:26:3700:00:00
SP9KGR-152026-08-30 12:16:0049.0315020.942349km/h20481m5.5m/s-55.0°C1.0%54.6hPa2.6V00:00:0000:00:0000:00:00
SQ9EZE-152026-08-30 12:15:5849.0314520.9423210°9km/h20471m4.8m/s-55.0°C1.0%54.7hPa2.6V00:00:0000:00:0000:00:00
SQ9EZE-132026-08-30 12:15:5549.0313920.94234347°9km/h20456m4.2m/s-54.9°C1.0%54.8hPa2.6V00:00:0000:00:0000:00:00
SP9KGR-152026-08-30 12:15:4649.0312620.9423412°7km/h20406m5.7m/s-54.9°C1.0%55.3hPa2.6V00:00:0000:00:0000:00:00
SQ9EZE-132026-08-30 12:15:3949.0311320.9422739°11km/h20376m4.9m/s-54.8°C1.1%55.5hPa2.6V00:00:0000:00:0000:00:00
SQ9EZE-152026-08-30 12:15:3749.0310920.9422250°7km/h20366m4.5m/s-54.8°C1.0%55.6hPa2.6V00:00:0000:00:0000:00:00
SP9KGR-152026-08-30 12:15:3049.0310020.9420542°9km/h20329m5.7m/s-54.7°C1.0%56.0hPa2.6V00:00:0000:00:0000:00:00
SQ9EZE-132026-08-30 12:15:2349.0308320.9418832°13km/h20296m5.1m/s-54.6°C1.0%56.2hPa2.6V00:00:0000:00:0000:00:00
SQ9EZE-142026-08-30 12:15:2249.0308120.9418535°13km/h20291m3.8m/s-54.6°C1.0%56.3hPa2.6V00:00:0000:00:0000:00:00
GYPAP8-172026-08-30 12:15:1749.0307220.9417758°7km/h20262m5.0m/s-54.6°C1.0%56.5hPa2.6V00:00:0000:00:0000:00:00
SP9KGR-152026-08-30 12:15:1549.0307020.9417161°9km/h20252m5.8m/s-54.7°C1.0%56.6hPa2.6V00:00:0000:00:0000:00:00
SQ9EZE-142026-08-30 12:15:0749.0305620.9414919°9km/h20217m4.4m/s-54.5°C1.0%56.9hPa2.6V00:00:0000:00:0000:00:00
SP9KGR-152026-08-30 12:14:5849.0304220.9413348°9km/h20169m5.2m/s-54.6°C1.0%57.4hPa2.6V00:00:0000:00:0000:00:00
SQ9EZE-132026-08-30 12:14:5149.0303420.9411760°7km/h20139m5.5m/s-54.6°C1.0%57.7hPa2.6V00:00:0000:00:0000:00:00
OE3JTB-152026-08-30 12:14:4549.0302620.9410182°7km/h20106m3.9m/s-54.6°C3.8%57.9hPa2.6V00:00:0000:00:0000:00:00
SP9KGR-152026-08-30 12:14:4149.0302620.9409096°11km/h20091m4.1m/s-54.7°C1.0%58.1hPa2.7V00:00:0000:00:0000:00:00
SQ9EZE-132026-08-30 12:14:3549.0302120.9408111km/h20062m4.5m/s-55.1°C1.0%58.4hPa2.7V00:00:0000:00:0000:00:00
SP9KGR-152026-08-30 12:14:2549.0300420.9406275°11km/h20012m4.8m/s-55.3°C1.1%58.8hPa2.7V00:00:0000:00:0000:00:00
SQ9EZE-132026-08-30 12:14:1949.0299620.9405010°11km/h19982m4.5m/s-55.3°C1.0%59.1hPa2.7V00:00:0000:00:0000:00:00
SP9KGR-152026-08-30 12:14:1149.0298820.94048189°4km/h19940m4.8m/s-55.2°C1.1%59.5hPa2.7V00:00:0000:00:0000:00:00
SQ9EZE-152026-08-30 12:14:0749.0299020.9404769°2km/h19925m4.4m/s-55.1°C1.1%59.6hPa2.7V00:00:0000:00:0000:00:00
OE3JTB-152026-08-30 12:14:0649.0298920.94046343°7km/h19916m5.4m/s-55.0°C4.0%59.7hPa2.7V00:00:0000:00:0000:00:00
SQ9EZE-132026-08-30 12:14:0449.0298920.94046313°2km/h19911m4.3m/s-55.0°C1.0%59.8hPa2.7V00:00:0000:00:0000:00:00
SP9KGR-152026-08-30 12:13:5549.0299820.94045163°7km/h19870m4.7m/s-54.8°C1.0%60.1hPa2.7V00:00:0000:00:0000:00:00
SQ9EZE-132026-08-30 12:13:4949.0300920.94042147°4km/h19842m4.6m/s-54.6°C1.0%60.4hPa2.7V00:00:0000:00:0000:00:00
SQ9EZE-152026-08-30 12:13:4749.0301120.94040157°5km/h19833m4.9m/s-54.6°C1.0%60.5hPa2.7V00:00:0000:00:0000:00:00
SP9KGR-152026-08-30 12:13:4049.0302620.94027150°13km/h19802m5.1m/s-54.6°C1.0%60.8hPa2.7V00:00:0000:00:0000:00:00
OE3JTB-152026-08-30 12:13:3749.0303620.94017127°11km/h19784m5.1m/s-54.5°C3.9%60.9hPa2.7V00:00:0001:24:1100:00:00
SQ9EZE-132026-08-30 12:13:3349.0304120.94006129°11km/h19770m5.3m/s-54.6°C1.1%61.1hPa2.7V00:00:0000:00:0000:00:00
SQ9EZE-152026-08-30 12:13:2649.0305720.93980143°15km/h19736m4.1m/s-54.6°C1.0%61.4hPa2.7V00:00:0000:00:0000:00:00
SP9KGR-152026-08-30 12:13:2349.0306520.93968119°15km/h19723m4.6m/s-54.5°C1.0%61.5hPa2.7V00:00:0000:00:0000:00:00
SQ9EZE-132026-08-30 12:13:1849.0307120.93947111°13km/h19700m4.9m/s-54.4°C1.0%61.8hPa2.7V00:00:0000:00:0000:00:00
SP9KGR-152026-08-30 12:13:0949.0307520.9392042°5km/h19654m4.7m/s-54.4°C1.0%62.2hPa2.7V00:00:0000:00:0000:00:00
OE3JTB-152026-08-30 12:13:0849.0307420.9391855°11km/h19649m4.6m/s-54.3°C3.7%62.2hPa2.7V00:00:0000:00:0008:30:00
SQ9EZE-142026-08-30 12:13:0249.0307520.93908128°5km/h19625m4.1m/s-54.5°C1.0%62.4hPa2.7V00:00:0000:00:0000:00:00
HA6NAB-112026-08-30 12:12:5549.0307020.9389035°13km/h19593m5.4m/s-54.6°C0%62.7hPa2.7V00:00:0000:00:0000:00:00
SP9KGR-152026-08-30 12:12:5249.0306220.9388228°11km/h19579m5.4m/s-54.7°C1.0%62.9hPa2.7V00:00:0000:00:0000:00:00
HA6NAB-112026-08-30 12:12:4949.0305620.9387747°7km/h19565m5.3m/s-54.7°C0%63.0hPa2.7V00:00:0000:00:0000:00:00
SQ9EZE-142026-08-30 12:12:4749.0305320.9387252°11km/h19556m3.7m/s-54.7°C1.1%63.1hPa2.7V00:00:0000:00:0000:00:00
SQ9EZE-132026-08-30 12:12:4649.0305120.9386849°11km/h19551m5.3m/s-54.8°C1.0%63.2hPa2.7V00:00:0000:00:0000:00:00
HA6NAB-112026-08-30 12:12:4349.0304320.9385743°18km/h19537m5.4m/s-54.7°C0%63.3hPa2.7V00:00:0000:00:0000:00:00
OE3JTB-152026-08-30 12:12:3949.0301820.9384122km/h19515m3.9m/s-54.6°C3.9%63.5hPa2.7V00:00:0000:00:0000:00:00
HA6NAB-112026-08-30 12:12:3849.0301820.9384124km/h19515m4.0m/s-54.6°C0%63.6hPa2.7V00:00:0000:00:0000:00:00
SP9KGR-152026-08-30 12:12:3749.0301220.9384122km/h19511m4.2m/s-54.5°C1.1%63.6hPa2.7V00:00:0000:00:0000:00:00
HA6NAB-112026-08-30 12:12:3249.0298820.9383718km/h19488m4.6m/s-54.6°C0%63.8hPa2.7V00:00:0000:00:0000:00:00
SQ9EZE-132026-08-30 12:12:3049.0297920.9383618km/h19479m5.2m/s-54.6°C1.1%63.9hPa2.7V00:00:0000:00:0000:00:00
HA6NAB-112026-08-30 12:12:2749.0296220.93833358°16km/h19460m3.6m/s-54.6°C0%64.1hPa2.7V00:00:0000:00:0000:00:00
SP9KGR-152026-08-30 12:12:2249.0294020.93834357°26km/h19443m4.9m/s-54.7°C1.0%64.3hPa2.7V00:00:0000:00:0000:00:00
HA6NAB-112026-08-30 12:12:2049.0292720.93836351°29km/h19433m3.7m/s-54.5°C0%64.4hPa2.7V00:00:0000:00:0000:00:00
SQ9EZE-132026-08-30 12:12:1549.0289220.93841357°22km/h19409m4.2m/s-54.6°C1.0%64.6hPa2.7V00:00:0000:00:0000:00:00
HA6NAB-112026-08-30 12:12:1449.0288720.93841359°20km/h19405m4.0m/s-54.7°C0%64.6hPa2.7V00:00:0000:00:0000:00:00
OE3JTB-152026-08-30 12:12:1049.0286020.93849332°20km/h19382m4.2m/s-54.6°C3.9%64.8hPa2.7V00:00:0001:22:4400:00:00
SP9KGR-152026-08-30 12:12:0649.0284020.93863344°27km/h19369m4.3m/s-54.6°C1.0%65.0hPa2.7V00:00:0000:00:0000:00:00
HA6NAB-112026-08-30 12:12:0549.0283420.93865348°24km/h19364m4.6m/s-54.6°C0%65.0hPa2.7V00:00:0000:00:0000:00:00
SQ9EZE-132026-08-30 12:12:0049.0281120.93875345°20km/h19341m4.2m/s-54.5°C1.0%65.3hPa2.7V00:00:0000:00:0000:00:00
HA6NAB-112026-08-30 12:11:5949.0280620.93877338°20km/h19337m4.2m/s-54.5°C0%65.3hPa2.7V00:00:0000:00:0000:00:00
SP9KGR-152026-08-30 12:11:5049.0276420.93904348°15km/h19296m3.9m/s-54.6°C1.0%65.8hPa2.7V00:00:0000:00:0000:00:00
SQ9EZE-132026-08-30 12:11:4449.0274120.93914324°15km/h19269m4.4m/s-54.6°C1.1%66.0hPa2.7V00:00:0000:00:0000:00:00
OE3JTB-152026-08-30 12:11:4149.0272820.93925352°7km/h19252m4.0m/s-54.4°C3.8%66.2hPa2.7V00:00:0000:00:0000:00:00
SP9KGR-152026-08-30 12:11:3449.0271820.93926333°7km/h19224m4.2m/s-54.3°C1.0%66.5hPa2.6V00:00:0000:00:0000:00:00
SQ9EZE-132026-08-30 12:11:2849.0270720.9392139°13km/h19195m3.8m/s-54.0°C1.0%66.8hPa2.6V00:00:0000:00:0000:00:00
SP9KGR-152026-08-30 12:11:1949.0269720.93902124°4km/h19153m5.0m/s-54.0°C1.0%67.3hPa2.6V00:00:0000:00:0000:00:00
SQ9EZE-132026-08-30 12:11:1349.0269520.9388680°11km/h19123m5.1m/s-53.9°C1.0%67.6hPa2.6V00:00:0000:00:0000:00:00
OE3JTB-152026-08-30 12:11:1249.0269320.9387871°16km/h19114m5.4m/s-53.8°C3.5%67.6hPa2.6V00:00:0000:00:0000:00:00
SQ9EZE-152026-08-30 12:11:0749.0269420.93865127°13km/h19095m5.3m/s-53.9°C1.0%67.9hPa2.6V00:00:0000:00:0000:00:00
SP9KGR-152026-08-30 12:11:0449.0270220.93848110°15km/h19076m4.2m/s-54.1°C1.0%68.1hPa2.6V00:00:0000:00:0000:00:00
GYPAP8-172026-08-30 12:11:0149.0270420.93837105°15km/h19066m4.5m/s-54.3°C1.0%68.2hPa2.6V00:00:0000:00:0000:00:00
HA6NAB-112026-08-30 12:10:5849.0270320.9382266°11km/h19052m4.7m/s-54.5°C0%68.3hPa2.6V00:00:0000:00:0000:00:00
SQ9EZE-132026-08-30 12:10:5749.0270220.9381866°13km/h19048m3.2m/s-54.7°C1.0%68.3hPa2.6V00:00:0000:00:0000:00:00
HA6NAB-112026-08-30 12:10:4949.0271520.93757110°26km/h19012m4.9m/s-55.0°C0%68.7hPa2.6V00:00:0000:00:0000:00:00
SP9KGR-152026-08-30 12:10:4849.0271820.93748105°27km/h19007m4.7m/s-55.0°C1.1%68.8hPa2.6V00:00:0000:00:0000:00:00
OE3JTB-152026-08-30 12:10:4349.0272220.9370380°15km/h18980m5.4m/s-54.8°C4.0%69.0hPa2.6V00:00:0001:21:1700:00:00
SQ9EZE-132026-08-30 12:10:4149.0272120.9369872°16km/h18975m4.7m/s-54.9°C1.1%69.2hPa2.6V00:00:0000:00:0000:00:00
SP9KGR-152026-08-30 12:10:2949.0270520.9362385°13km/h18918m4.9m/s-54.6°C1.0%69.8hPa2.6V00:00:0000:00:0000:00:00
SQ9EZE-132026-08-30 12:10:2549.0269920.9361031°9km/h18899m5.5m/s-54.6°C1.1%70.0hPa2.6V00:00:0000:00:0000:00:00
SQ9EZE-142026-08-30 12:10:1949.0268320.9359250°16km/h18870m5.8m/s-54.6°C1.0%70.3hPa2.6V00:00:0000:00:0000:00:00
OE3JTB-152026-08-30 12:10:1449.0267320.9357041°13km/h18842m5.2m/s-54.7°C3.9%70.6hPa2.6V00:00:0000:00:0000:00:00
SQ9EZE-132026-08-30 12:10:1049.0266920.93571343°9km/h18827m5.9m/s-54.7°C1.1%70.8hPa2.6V00:00:0000:00:0000:00:00
SQ9EZE-142026-08-30 12:10:0449.0264520.9357113°20km/h18798m5.5m/s-54.6°C1.0%71.1hPa2.6V00:00:0000:00:0000:00:00
SP9KGR-152026-08-30 12:09:5949.0262720.93569342°11km/h18775m4.1m/s-54.4°C1.0%71.3hPa2.6V00:00:0000:00:0000:00:00
SQ9EZE-132026-08-30 12:09:5549.0261620.93575345°11km/h18758m4.8m/s-54.5°C1.0%71.5hPa2.6V00:00:0000:00:0000:00:00
GYPAP8-172026-08-30 12:09:4849.0259320.93596315°11km/h18722m4.3m/s-54.6°C1.0%72.0hPa2.6V00:00:0000:00:0000:00:00
OE3JTB-152026-08-30 12:09:4549.0258620.93602350°9km/h18708m3.6m/s-54.6°C3.9%72.0hPa2.6V00:00:0000:00:0000:00:00
SP9KGR-152026-08-30 12:09:4349.0258420.93602353°7km/h18703m5.7m/s-54.7°C1.0%72.1hPa2.6V00:00:0000:00:0000:00:00
SQ9EZE-132026-08-30 12:09:4049.0258020.9360123°7km/h18689m5.2m/s-54.7°C1.1%72.3hPa2.6V00:00:0000:00:0000:00:00
SP9KGR-152026-08-30 12:09:2949.0256820.936100km/h18635m5.3m/s-54.6°C1.1%72.9hPa2.6V00:00:0000:00:0000:00:00
SQ9EZE-132026-08-30 12:09:2449.0256720.9360386°5km/h18617m4.3m/s-54.3°C1.1%73.2hPa2.6V00:00:0000:00:0000:00:00
SP9KGR-152026-08-30 12:09:1249.0256320.93596119°7km/h18562m4.5m/s-54.2°C1.0%73.8hPa2.6V00:00:0000:00:0000:00:00
SQ9EZE-132026-08-30 12:09:0849.0256120.9358254°11km/h18544m4.6m/s-54.3°C1.1%74.0hPa2.6V00:00:0000:00:0000:00:00
SP9KGR-152026-08-30 12:08:5649.0256620.9355190°16km/h18490m4.4m/s-54.1°C1.1%74.6hPa2.6V00:00:0000:00:0000:00:00
SQ9EZE-132026-08-30 12:08:5249.0256120.9353164°9km/h18473m4.0m/s-54.1°C1.0%74.8hPa2.6V00:00:0000:00:0000:00:00
SP9KGR-152026-08-30 12:08:4049.0256520.9346999°16km/h18421m5.4m/s-54.0°C1.1%75.4hPa2.6V00:00:0000:00:0000:00:00
GYPAP8-172026-08-30 12:08:3949.0256520.9346293°16km/h18416m4.2m/s-53.9°C1.1%75.5hPa2.6V00:00:0000:00:0000:00:00
SQ9EZE-132026-08-30 12:08:3749.0256520.9344889°20km/h18407m5.6m/s-54.0°C1.1%75.6hPa2.6V00:00:0000:00:0000:00:00
SP9KGR-152026-08-30 12:08:2449.0257520.9334991°24km/h18347m3.4m/s-54.0°C1.1%76.3hPa2.6V00:00:0000:00:0000:00:00
SQ9EZE-132026-08-30 12:08:2149.0257520.9332384°22km/h18334m4.1m/s-54.0°C1.1%76.4hPa2.6V00:00:0000:00:0000:00:00
SP9KGR-152026-08-30 12:08:0649.0256320.9317889°27km/h18267m5.6m/s-54.0°C1.1%77.2hPa2.6V00:00:0000:00:0000:00:00
SQ9EZE-142026-08-30 12:07:5949.0255520.9310469°35km/h18237m4.8m/s-54.0°C1.1%77.6hPa2.6V00:00:0000:00:0000:00:00
SQ9EZE-132026-08-30 12:07:5149.0253320.9301281°26km/h18201m5.6m/s-54.8°C1.1%78.0hPa2.6V00:00:0000:00:0000:00:00
SQ9EZE-142026-08-30 12:07:4449.0252520.9294669°27km/h18169m4.1m/s-54.9°C1.1%78.4hPa2.6V00:00:0000:00:0000:00:00
SQ9EZE-132026-08-30 12:07:3649.0250120.9286269°29km/h18132m5.5m/s-56.0°C1.2%78.9hPa2.6V00:00:0000:00:0000:00:00
SP9KGR-152026-08-30 12:07:3549.0249720.9285170°31km/h18127m4.2m/s-56.1°C1.2%78.9hPa2.6V00:00:0000:00:0000:00:00
GYPAP8-172026-08-30 12:07:2749.0246320.9275854°44km/h18092m4.9m/s-56.2°C1.2%79.4hPa2.6V00:00:0000:00:0000:00:00
SQ9EZE-132026-08-30 12:07:2049.0241320.9268132°33km/h18062m4.1m/s-56.1°C1.2%79.8hPa2.6V00:00:0000:00:0000:00:00
SP9KGR-152026-08-30 12:07:1949.0240620.9267530°31km/h18058m4.6m/s-56.1°C1.3%79.8hPa2.6V00:00:0000:00:0000:00:00
SQ9EZE-132026-08-30 12:07:0549.0233020.9256735°20km/h17995m4.4m/s-55.8°C1.2%80.6hPa2.6V00:00:0000:00:0000:00:00
SP9KGR-152026-08-30 12:07:0349.0232120.9256021°18km/h17985m3.8m/s-55.7°C1.2%80.7hPa2.6V00:00:0000:00:0000:00:00
SQ9EZE-132026-08-30 12:06:5049.0226720.9245748°22km/h17928m3.5m/s-56.1°C1.3%81.5hPa2.6V00:00:0000:00:0000:00:00
SP9KGR-152026-08-30 12:06:4849.0226120.9244557°20km/h17919m4.7m/s-56.0°C1.3%81.6hPa2.6V00:00:0000:00:0000:00:00
SQ9EZE-132026-08-30 12:06:3349.0221920.9234749°16km/h17862m3.6m/s-56.2°C1.2%82.3hPa2.6V00:00:0000:00:0000:00:00
SP9KGR-152026-08-30 12:06:2649.0219820.9231133°13km/h17833m3.5m/s-56.3°C1.3%82.7hPa2.6V00:00:0000:00:0000:00:00
GYPAP8-172026-08-30 12:06:2449.0219220.9230714°16km/h17824m4.1m/s-56.4°C1.3%82.8hPa2.6V00:00:0000:00:0000:00:00
SQ9EZE-132026-08-30 12:06:1849.0217020.9229935°15km/h17798m4.6m/s-56.2°C1.3%83.1hPa2.6V00:00:0000:00:0000:00:00
SP9KGR-152026-08-30 12:06:1049.0214920.9227326°9km/h17761m4.4m/s-56.0°C1.3%83.6hPa2.6V00:00:0000:00:0000:00:00
SQ9EZE-132026-08-30 12:06:0249.0213720.9226479°9km/h17731m4.3m/s-55.9°C1.3%84.0hPa2.6V00:00:0000:00:0000:00:00
SP9KGR-152026-08-30 12:05:5349.0212320.9223133°13km/h17692m3.3m/s-55.8°C1.3%84.6hPa2.6V00:00:0000:00:0000:00:00
SQ9EZE-132026-08-30 12:05:4749.0211120.9220366°20km/h17665m4.0m/s-55.8°C1.3%84.9hPa2.6V00:00:0000:00:0000:00:00
SQ9EZE-142026-08-30 12:05:4049.0209320.9216827°15km/h17635m5.0m/s-55.7°C1.2%85.3hPa2.6V00:00:0000:00:0000:00:00
SP9KGR-152026-08-30 12:05:3949.0208720.9216329°13km/h17627m3.7m/s-55.8°C1.2%85.4hPa2.6V00:00:0000:00:0000:00:00
SQ9EZE-132026-08-30 12:05:3149.0207320.9213076°15km/h17596m4.9m/s-55.8°C1.3%85.8hPa2.6V00:00:0000:00:0000:00:00
SQ9EZE-142026-08-30 12:05:2449.0206320.9209863°15km/h17565m4.6m/s-56.1°C1.3%86.3hPa2.6V00:00:0000:00:0000:00:00
GYPAP8-172026-08-30 12:05:2349.0206020.9208775°16km/h17556m5.2m/s-56.0°C1.3%86.4hPa2.6V00:00:0000:00:0000:00:00
SP9KGR-152026-08-30 12:05:2049.0205820.9207379°20km/h17547m4.4m/s-56.0°C1.3%86.5hPa2.6V00:00:0000:00:0000:00:00
SQ9EZE-132026-08-30 12:05:1649.0205320.9204382°18km/h17529m5.0m/s-55.8°C1.3%86.8hPa2.6V00:00:0000:00:0000:00:00
SP9KGR-152026-08-30 12:05:0449.0203620.9199581°9km/h17474m5.0m/s-55.5°C1.3%87.5hPa2.6V00:00:0000:00:0000:00:00
SQ9EZE-132026-08-30 12:05:0049.0203220.9197662°15km/h17456m3.5m/s-55.4°C1.3%87.7hPa2.6V00:00:0000:00:0000:00:00
SP9KGR-152026-08-30 12:04:4949.0201720.9194063°13km/h17406m4.1m/s-55.0°C1.3%88.5hPa2.6V00:00:0000:00:0000:00:00
SQ9EZE-132026-08-30 12:04:4449.0200820.9191948°16km/h17384m4.8m/s-55.0°C1.3%88.8hPa2.6V00:00:0000:00:0000:00:00
SQ9EZE-152026-08-30 12:04:3949.0199720.9190147°9km/h17362m5.1m/s-55.2°C1.2%89.1hPa2.6V00:00:0000:00:0000:00:00
SP9KGR-152026-08-30 12:04:3349.0198720.9188260°11km/h17335m4.7m/s-55.3°C1.2%89.4hPa2.6V00:00:0000:00:0000:00:00
SQ9EZE-132026-08-30 12:04:2949.0197620.9187032°13km/h17317m4.8m/s-55.6°C1.3%89.7hPa2.6V00:00:0000:00:0000:00:00
SP9KGR-152026-08-30 12:04:1849.0194720.9181559°18km/h17267m5.2m/s-56.7°C1.4%90.4hPa2.6V00:00:0000:00:0000:00:00
SQ9EZE-132026-08-30 12:04:1449.0193320.9180113°20km/h17250m3.7m/s-56.6°C1.4%90.6hPa2.6V00:00:0000:00:0000:00:00
SP9KGR-152026-08-30 12:04:0249.0190120.9177130°13km/h17196m3.9m/s-56.3°C1.4%91.4hPa2.6V00:00:0000:00:0000:00:00
SQ9EZE-132026-08-30 12:03:5849.0189120.9176535°9km/h17178m5.1m/s-56.1°C1.4%91.7hPa2.6V00:00:0000:00:0000:00:00
OE3JTB-152026-08-30 12:03:5749.0188820.9176160°11km/h17169m4.8m/s-55.9°C4.4%91.8hPa2.6V00:00:0001:14:3100:00:00
SP9KGR-152026-08-30 12:03:4749.0188320.9174038°9km/h17126m4.4m/s-55.8°C1.3%92.4hPa2.6V00:00:0000:00:0000:00:00
SQ9EZE-132026-08-30 12:03:4249.0187620.9173258°7km/h17104m4.9m/s-55.6°C1.3%92.8hPa2.6V00:00:0000:00:0000:00:00
SP9KGR-152026-08-30 12:03:3349.0187920.91708123°4km/h17059m4.2m/s-55.3°C1.3%93.4hPa2.6V00:00:0000:00:0000:00:00
SQ9EZE-132026-08-30 12:03:2649.0188020.91699134°5km/h17033m4.1m/s-55.2°C1.3%93.8hPa2.6V00:00:0000:00:0000:00:00
SQ9EZE-142026-08-30 12:03:2049.0188620.91692168°7km/h17005m3.7m/s-55.1°C1.3%94.2hPa2.6V00:00:0000:00:0000:00:00
SP9KGR-152026-08-30 12:03:1649.0189220.91686139°7km/h16987m5.1m/s-55.2°C1.3%94.4hPa2.6V00:00:0000:00:0000:00:00
GYPAP8-172026-08-30 12:03:1249.0190020.91674145°11km/h16965m4.0m/s-55.0°C1.3%94.7hPa2.6V00:00:0000:00:0000:00:00
SQ9EZE-142026-08-30 12:03:0449.0191620.91663139°13km/h16935m4.8m/s-54.9°C1.2%95.2hPa2.6V00:00:0000:00:0000:00:00
SP9KGR-152026-08-30 12:03:0149.0192420.91652140°13km/h16923m5.0m/s-55.0°C1.3%95.4hPa2.6V00:00:0000:00:0000:00:00
SQ9EZE-132026-08-30 12:02:5649.0193420.91637129°13km/h16900m3.8m/s-55.3°C1.3%95.7hPa2.6V00:00:0000:00:0000:00:00
OE3JTB-152026-08-30 12:02:5149.0194520.91606116°15km/h16875m3.7m/s-55.5°C4.2%96.1hPa2.6V00:00:0000:00:0008:30:00
SP9KGR-152026-08-30 12:02:4549.0195220.91570106°18km/h16853m3.5m/s-55.6°C1.3%96.4hPa2.7V00:00:0000:00:0000:00:00
SQ9EZE-132026-08-30 12:02:4149.0195420.9154691°13km/h16835m5.0m/s-55.5°C1.3%96.7hPa2.7V00:00:0000:00:0000:00:00
SP9KGR-152026-08-30 12:02:3049.0194920.91482107°15km/h16783m3.8m/s-55.3°C1.3%97.5hPa2.7V00:00:0000:00:0000:00:00
SQ9EZE-132026-08-30 12:02:2649.0195220.91467101°11km/h16770m3.6m/s-55.3°C1.3%97.7hPa2.7V00:00:0000:00:0000:00:00
OE3JTB-152026-08-30 12:02:1949.0194920.9142778°20km/h16735m4.1m/s-55.0°C4.0%98.2hPa2.7V00:00:0000:00:0000:00:00
SP9KGR-152026-08-30 12:02:1349.0194520.9138993°18km/h16714m4.0m/s-54.9°C1.3%98.6hPa2.7V00:00:0000:00:0000:00:00
SQ9EZE-132026-08-30 12:02:1049.0194420.9136879°18km/h16702m4.2m/s-54.9°C1.2%98.8hPa2.7V00:00:0000:00:0000:00:00
GYPAP8-172026-08-30 12:02:0849.0194220.9135579°16km/h16693m4.9m/s-54.9°C1.3%98.9hPa2.7V00:00:0000:00:0000:00:00
SP9KGR-152026-08-30 12:01:5849.0192920.9128880°18km/h16646m4.9m/s-54.6°C1.2%99.6hPa2.7V00:00:0000:00:0000:00:00
SQ9EZE-132026-08-30 12:01:5549.0192820.9127480°20km/h16638m4.7m/s-54.6°C1.2%99.8hPa2.7V00:00:0000:00:0000:00:00
SP9KGR-152026-08-30 12:01:4149.0191020.9118274°18km/h16579m4.9m/s-54.5°C1.2%100.7hPa2.7V00:00:0000:00:0000:00:00
SQ9EZE-132026-08-30 12:01:3949.0190620.9116071°24km/h16566m4.9m/s-54.5°C1.2%100.9hPa2.7V00:00:0000:00:0000:00:00
SP9KGR-152026-08-30 12:01:2649.0187120.9105166°29km/h16513m4.5m/s-54.6°C1.3%101.8hPa2.7V00:00:0000:00:0000:00:00
SQ9EZE-132026-08-30 12:01:2249.0186120.9101268°27km/h16495m3.9m/s-54.5°C1.2%102.0hPa2.7V00:00:0000:00:0000:00:00
SP9KGR-152026-08-30 12:01:1049.0180520.9090054°29km/h16444m3.9m/s-54.4°C1.2%102.9hPa2.7V00:00:0000:00:0000:00:00
SQ9EZE-132026-08-30 12:01:0649.0178620.9086251°29km/h16427m5.0m/s-54.7°C1.3%103.1hPa2.7V00:00:0000:00:0000:00:00
GYPAP8-172026-08-30 12:01:0149.0176420.9081759°31km/h16405m3.5m/s-54.8°C1.2%103.5hPa2.7V00:00:0000:00:0000:00:00
SQ9EZE-142026-08-30 12:00:5949.0175120.9078954°29km/h16392m4.2m/s-54.8°C1.2%103.7hPa2.7V00:00:0000:00:0000:00:00
SP9KGR-152026-08-30 12:00:5449.0173120.9075443°27km/h16375m4.6m/s-54.9°C1.2%104.0hPa2.7V00:00:0000:00:0000:00:00
SQ9EZE-132026-08-30 12:00:5049.0171320.9072755°24km/h16358m3.7m/s-54.8°C1.3%104.3hPa2.7V00:00:0000:00:0000:00:00
SQ9EZE-142026-08-30 12:00:4249.0170120.9066779°20km/h16321m4.4m/s-54.7°C1.3%104.8hPa2.7V00:00:0000:00:0000:00:00
SP9KGR-152026-08-30 12:00:3849.0169420.9063669°20km/h16303m4.9m/s-54.5°C1.3%105.1hPa2.7V00:00:0000:00:0000:00:00
SQ9EZE-152026-08-30 12:00:3749.0169220.9063071°18km/h16298m4.8m/s-54.5°C1.2%105.2hPa2.7V00:00:0000:00:0000:00:00
SQ9EZE-132026-08-30 12:00:3449.0169020.9060987°20km/h16285m4.7m/s-54.5°C1.2%105.4hPa2.7V00:00:0000:00:0000:00:00
SP9KGR-152026-08-30 12:00:2349.0168820.9052288°16km/h16231m3.6m/s-54.0°C1.2%106.4hPa2.7V00:00:0000:00:0000:00:00
SQ9EZE-132026-08-30 12:00:1849.0168820.9050189°15km/h16214m4.5m/s-54.0°C1.2%106.6hPa2.7V00:00:0000:00:0000:00:00
OE3JTB-152026-08-30 12:00:1749.0169020.90471106°16km/h16196m4.9m/s-53.8°C3.9%106.8hPa2.7V00:00:0001:10:4900:00:00
SP9KGR-152026-08-30 12:00:0749.0169220.90444273°2km/h16165m2.5m/s-53.6°C1.2%107.4hPa2.7V00:00:0000:00:0000:00:00
SQ9EZE-152026-08-30 11:59:5649.0170020.9038231°2km/h16114m5.0m/s-53.3°C1.2%108.3hPa2.7V00:00:0000:00:0000:00:00
SP9KGR-152026-08-30 11:59:5149.0169620.9038289°11km/h16091m6.2m/s-53.1°C1.2%108.7hPa2.7V00:00:0000:00:0000:00:00
SQ9EZE-132026-08-30 11:59:4749.0170420.90346122°35km/h16067m4.2m/s-53.0°C1.2%109.1hPa2.7V00:00:0000:00:0000:00:00
OE3JTB-152026-08-30 11:59:4649.0171420.90325128°35km/h16057m5.5m/s-53.0°C3.7%109.2hPa2.7V00:00:0000:00:0000:00:00
HA6NAB-112026-08-30 11:59:3849.0172220.9026997°24km/h16024m4.7m/s-53.2°C0%109.8hPa2.7V00:00:0000:00:0000:00:00
SP9KGR-152026-08-30 11:59:3549.0172720.90242114°26km/h16010m4.8m/s-53.3°C1.2%110.1hPa2.7V00:00:0000:00:0000:00:00
HA6NAB-112026-08-30 11:59:3349.0173320.90222112°31km/h16000m6.4m/s-53.3°C0%110.2hPa2.7V00:00:0000:00:0000:00:00
SQ9EZE-132026-08-30 11:59:3149.0173920.90196109°38km/h15989m4.7m/s-53.2°C1.2%110.4hPa2.7V00:00:0000:00:0000:00:00
HA6NAB-112026-08-30 11:59:2549.0175820.90107108°40km/h15962m3.7m/s-53.3°C0%110.8hPa2.7V00:00:0000:00:0000:00:00
SP9KGR-152026-08-30 11:59:2049.0177420.90021100°40km/h15935m4.6m/s-53.1°C1.3%111.3hPa2.7V00:00:0000:00:0000:00:00
OE3JTB-152026-08-30 11:59:1749.0177720.8997693°47km/h15921m5.0m/s-53.2°C3.8%111.5hPa2.7V00:00:0000:00:0000:00:00
SQ9EZE-132026-08-30 11:59:1549.0177720.8996091°42km/h15915m5.2m/s-53.4°C1.3%111.6hPa2.7V00:00:0000:00:0000:00:00
HA6NAB-112026-08-30 11:59:1449.0177720.8994491°40km/h15911m3.4m/s-53.5°C0%111.7hPa2.7V00:00:0000:00:0000:00:00
HA6NAB-112026-08-30 11:59:0849.0178420.89851102°47km/h15884m3.5m/s-53.6°C0%112.2hPa2.7V00:00:0000:00:0000:00:00
SP9KGR-152026-08-30 11:59:0449.0179420.89779100°47km/h15867m3.9m/s-53.6°C1.3%112.5hPa2.7V00:00:0000:00:0000:00:00
HA6NAB-112026-08-30 11:59:0249.0179720.8974093°53km/h15858m5.5m/s-53.6°C0%112.7hPa2.7V00:00:0000:00:0000:00:00
SQ9EZE-132026-08-30 11:58:5949.0179520.8967988°51km/h15843m5.6m/s-53.7°C1.4%112.9hPa2.7V00:00:0000:00:0000:00:00
SP9KGR-152026-08-30 11:58:4949.0178720.8947083°55km/h15793m4.7m/s-54.0°C1.4%113.8hPa2.7V00:00:0000:00:0000:00:00
OE3JTB-152026-08-30 11:58:4849.0178420.8944979°47km/h15789m3.4m/s-54.1°C4.1%113.9hPa2.7V00:00:0001:09:2200:00:00
SQ9EZE-132026-08-30 11:58:4349.0177220.8937374°47km/h15771m4.3m/s-54.2°C1.5%114.2hPa2.7V00:00:0000:00:0000:00:00
SQ9EZE-142026-08-30 11:58:3849.0175320.8928274°47km/h15749m4.5m/s-54.2°C1.5%114.6hPa2.7V00:00:0000:00:0000:00:00
SP9KGR-152026-08-30 11:58:3349.0173420.8918973°51km/h15727m5.3m/s-54.1°C1.5%115.0hPa2.7V00:00:0000:00:0000:00:00
SQ9EZE-132026-08-30 11:58:2649.0171320.8906979°40km/h15694m4.8m/s-53.9°C1.5%115.5hPa2.7V00:00:0000:00:0000:00:00
SQ9EZE-142026-08-30 11:58:2249.0170520.8900483°46km/h15676m4.9m/s-53.9°C1.5%115.9hPa2.7V00:00:0000:00:0000:00:00
OE3JTB-152026-08-30 11:58:1949.0170020.8893284°42km/h15657m5.0m/s-53.8°C4.1%116.2hPa2.7V00:00:0000:00:0000:00:00
SP9KGR-152026-08-30 11:58:1749.0169920.8891484°49km/h15653m3.3m/s-53.9°C1.5%116.3hPa2.7V00:00:0000:00:0000:00:00
SQ9EZE-132026-08-30 11:58:1049.0169020.8880786°37km/h15622m4.3m/s-53.9°C1.6%116.9hPa2.7V00:00:0000:00:0000:00:00
SP9KGR-152026-08-30 11:58:0249.0169220.8868099°44km/h15588m4.1m/s-54.5°C1.7%117.5hPa2.7V00:00:0000:00:0000:00:00
SQ9EZE-132026-08-30 11:57:5449.0170320.88551100°42km/h15556m4.7m/s-54.7°C1.7%118.0hPa2.7V00:00:0000:00:0000:00:00
OE3JTB-152026-08-30 11:57:5049.0171320.88469104°44km/h15535m4.2m/s-55.9°C4.7%118.4hPa2.7V00:00:0000:00:0000:00:00
SP9KGR-152026-08-30 11:57:4749.0171820.88434102°47km/h15526m4.1m/s-56.0°C1.9%118.6hPa2.7V00:00:0000:00:0000:00:00
GYPAP8-172026-08-30 11:57:4149.0173220.88334101°40km/h15501m3.8m/s-56.1°C1.9%119.1hPa2.7V00:00:0000:00:0000:00:00
SQ9EZE-132026-08-30 11:57:3849.0173920.88290104°37km/h15488m4.8m/s-56.2°C1.9%119.3hPa2.7V00:00:0000:00:0000:00:00
SP9KGR-152026-08-30 11:57:3149.0175720.88179105°51km/h15458m3.9m/s-57.1°C2.1%119.9hPa2.7V00:00:0000:00:0000:00:00
SQ9EZE-132026-08-30 11:57:2349.0179220.88051126°37km/h15424m5.3m/s-57.2°C2.0%120.5hPa2.7V00:00:0000:00:0000:00:00
OE3JTB-152026-08-30 11:57:2049.0181520.88002120°51km/h15407m4.3m/s-57.1°C5.1%120.8hPa2.7V00:00:0001:07:5400:00:00
SP9KGR-152026-08-30 11:57:1649.0183220.87953120°53km/h15393m4.6m/s-57.0°C2.2%121.1hPa2.7V00:00:0000:00:0000:00:00
SQ9EZE-132026-08-30 11:57:0749.0189220.87806128°44km/h15354m5.5m/s-57.3°C2.1%121.9hPa2.7V00:00:0000:00:0000:00:00
SP9KGR-152026-08-30 11:57:0149.0193420.87713120°55km/h15327m5.0m/s-57.3°C2.2%122.4hPa2.7V00:00:0000:00:0000:00:00
SQ9EZE-132026-08-30 11:56:5249.0199620.87554123°53km/h15285m4.2m/s-57.0°C2.2%123.2hPa2.7V00:00:0000:00:0000:00:00
OE3JTB-152026-08-30 11:56:5149.0200920.87519117°57km/h15277m5.4m/s-56.9°C5.3%123.3hPa2.7V00:00:0000:00:0008:30:00
SP9KGR-152026-08-30 11:56:4549.0203620.87425113°55km/h15252m5.5m/s-56.9°C2.2%123.8hPa2.7V00:00:0000:00:0000:00:00
GYPAP8-172026-08-30 11:56:3749.0208420.87270116°55km/h15214m4.9m/s-56.7°C2.2%124.7hPa2.7V00:00:0000:00:0000:00:00
SQ9EZE-132026-08-30 11:56:3649.0209020.87251114°55km/h15210m3.7m/s-56.7°C2.2%124.7hPa2.7V00:00:0000:00:0000:00:00
SP9KGR-152026-08-30 11:56:3049.0211820.87133116°58km/h15183m4.2m/s-56.6°C2.3%125.2hPa2.7V00:00:0000:00:0000:00:00
OE3JTB-152026-08-30 11:56:2249.0216420.86945107°58km/h15142m5.3m/s-56.6°C5.4%126.0hPa2.7V00:00:0000:00:0000:00:00
SQ9EZE-132026-08-30 11:56:2049.0216920.86922108°62km/h15138m3.7m/s-56.7°C2.3%126.1hPa2.7V00:00:0000:00:0000:00:00
SP9KGR-152026-08-30 11:56:1449.0219620.86790109°53km/h15109m5.6m/s-56.6°C2.5%126.7hPa2.7V00:00:0000:00:0000:00:00
SQ9EZE-142026-08-30 11:56:0649.0222120.86631104°64km/h15073m4.0m/s-56.5°C2.5%127.4hPa2.7V00:00:0000:00:0000:00:00
SQ9EZE-132026-08-30 11:56:0549.0222420.86607103°64km/h15069m5.3m/s-56.5°C2.5%127.5hPa2.7V00:00:0000:00:0000:00:00
SP9KGR-152026-08-30 11:55:5949.0224220.86471102°55km/h15042m5.0m/s-56.4°C2.6%128.0hPa2.7V00:00:0000:00:0000:00:00
OE3JTB-152026-08-30 11:55:5149.0225720.8627995°57km/h15000m5.0m/s-56.2°C5.7%128.9hPa2.7V00:00:0001:06:2500:00:00
SQ9EZE-142026-08-30 11:55:5049.0225820.8627995°57km/h15000m5.0m/s-56.2°C2.7%128.9hPa2.7V00:00:0000:00:0000:00:00
SQ9EZE-132026-08-30 11:55:4449.0226520.8612297°58km/h14968m4.0m/s-56.2°C2.7%129.6hPa2.7V00:00:0000:00:0000:00:00
SP9KGR-152026-08-30 11:55:4349.0226520.8612297°58km/h14968m4.0m/s-56.2°C2.7%129.6hPa2.7V00:00:0000:00:0000:00:00
SP9KGR-152026-08-30 11:55:2749.0227420.8576292°57km/h14896m3.7m/s-56.5°C2.8%131.1hPa2.7V00:00:0000:00:0000:00:00
HA6NAB-112026-08-30 11:55:2049.0226820.8561186°58km/h14865m4.7m/s-56.6°C0%131.7hPa2.7V00:00:0000:00:0000:00:00
SQ9EZE-132026-08-30 11:55:1349.0225620.8544186°64km/h14832m3.5m/s-56.7°C2.7%132.3hPa2.7V00:00:0000:00:0000:00:00
SP9KGR-152026-08-30 11:55:1149.0225420.8539387°58km/h14824m3.8m/s-56.6°C2.7%132.5hPa2.7V00:00:0000:00:0000:00:00
SP9KGR-152026-08-30 11:54:5649.0221820.8504878°62km/h14759m4.3m/s-56.6°C2.6%133.9hPa2.7V00:00:0000:00:0000:00:00
SQ9EZE-152026-08-30 11:54:4549.0217720.8479875°64km/h14710m3.8m/s-56.3°C2.6%134.9hPa2.7V00:00:0000:00:0000:00:00
SQ9EZE-132026-08-30 11:54:4149.0216320.8470779°58km/h14693m4.8m/s-56.1°C2.6%135.3hPa2.7V00:00:0000:00:0000:00:00
SP9KGR-152026-08-30 11:54:4049.0216020.8468578°58km/h14689m4.3m/s-56.1°C2.6%135.4hPa2.7V00:00:0000:00:0000:00:00
OE3JTB-152026-08-30 11:54:3249.0213320.8449879°55km/h14649m5.0m/s-56.0°C5.5%136.2hPa2.7V00:00:0000:00:0000:00:00
SQ9EZE-132026-08-30 11:54:2549.0211820.8436482°53km/h14625m4.4m/s-56.1°C2.6%136.8hPa2.7V00:00:0000:00:0000:00:00
SP9KGR-152026-08-30 11:54:2449.0211620.8434480°53km/h14621m4.4m/s-56.2°C2.6%136.8hPa2.7V00:00:0000:00:0000:00:00
GYPAP8-172026-08-30 11:54:2149.0210820.8428482°51km/h14608m4.6m/s-56.3°C2.6%137.2hPa2.7V00:00:0000:00:0000:00:00
SQ9EZE-132026-08-30 11:54:1049.0207720.8405973°49km/h14562m4.3m/s-56.3°C2.7%138.2hPa2.7V00:00:0000:00:0000:00:00
SP9KGR-152026-08-30 11:54:0949.0207320.8404171°49km/h14558m3.5m/s-56.4°C2.7%138.3hPa2.7V00:00:0000:00:0000:00:00
OE3JTB-152026-08-30 11:54:0349.0204620.8390878°51km/h14531m4.5m/s-56.4°C5.9%138.8hPa2.7V00:00:0000:00:0000:00:00
SQ9EZE-132026-08-30 11:53:5449.0201020.8375167°51km/h14498m4.2m/s-56.3°C2.8%139.6hPa2.7V00:00:0000:00:0000:00:00
SP9KGR-152026-08-30 11:53:5349.0200520.8373467°49km/h14494m5.0m/s-56.2°C2.8%139.6hPa2.7V00:00:0000:00:0000:00:00
SQ9EZE-142026-08-30 11:53:4649.0197020.8361170°51km/h14464m4.9m/s-56.0°C2.8%140.3hPa2.7V00:00:0000:00:0000:00:00
SQ9EZE-132026-08-30 11:53:3849.0193520.8346475°49km/h14430m3.7m/s-55.7°C2.7%141.0hPa2.7V00:00:0000:00:0000:00:00
SP9KGR-152026-08-30 11:53:3749.0193120.8344774°49km/h14426m5.0m/s-55.7°C2.7%141.1hPa2.7V00:00:0000:00:0000:00:00
OE3JTB-152026-08-30 11:53:3449.0191620.8337472°47km/h14409m3.3m/s-55.5°C5.6%141.4hPa2.7V00:00:0001:04:0800:00:00
SQ9EZE-142026-08-30 11:53:3049.0190420.8332073°49km/h14397m4.2m/s-55.5°C2.7%141.8hPa2.7V00:00:0000:00:0000:00:00
SQ9EZE-132026-08-30 11:53:2249.0188020.8318077°47km/h14364m4.5m/s-55.3°C2.7%142.5hPa2.7V00:00:0000:00:0000:00:00
SP9KGR-152026-08-30 11:53:2149.0187820.8316275°47km/h14360m4.4m/s-55.3°C2.7%142.6hPa2.7V00:00:0000:00:0000:00:00
GYPAP8-172026-08-30 11:53:1849.0186820.8310676°51km/h14348m3.8m/s-55.3°C2.7%142.9hPa2.7V00:00:0000:00:0000:00:00
SP9KGR-152026-08-30 11:53:0649.0184620.8290077°46km/h14299m4.9m/s-55.2°C2.6%144.0hPa2.7V00:00:0000:00:0000:00:00
OE3JTB-152026-08-30 11:53:0549.0184020.8286575°64km/h14291m3.9m/s-55.1°C5.4%144.1hPa2.7V00:00:0000:00:0000:00:00
SQ9EZE-152026-08-30 11:53:0149.0183220.8281282°46km/h14280m4.4m/s-55.0°C2.6%144.4hPa2.7V00:00:0000:00:0000:00:00
HA6NAB-112026-08-30 11:52:5949.0183120.8277988°42km/h14272m3.4m/s-54.9°C0%0hPa2.7V00:00:0000:00:0000:00:00
SP9KGR-152026-08-30 11:52:5149.0182920.8264686°46km/h14239m4.5m/s-54.9°C2.5%145.3hPa2.7V00:00:0000:00:0000:00:00
SP9KGR-152026-08-30 11:52:3649.0184020.8239099°46km/h14175m4.1m/s-54.9°C2.6%146.8hPa2.7V00:00:0000:00:0000:00:00
HA6NAB-112026-08-30 11:52:2649.0185320.8218488°46km/h14126m3.5m/s-54.6°C0%0hPa2.7V00:00:0000:00:0000:00:00
SP9KGR-152026-08-30 11:52:2049.0184920.8209191°49km/h14106m4.0m/s-54.6°C2.6%148.4hPa2.7V00:00:0000:00:0000:00:00
HA6NAB-112026-08-30 11:52:1949.0184920.8207291°49km/h14103m3.5m/s!°C0%0hPa2.7V00:00:0000:00:0000:00:00
OM5KV2026-08-30 11:52:1849.0184820.8203490°51km/h14094m3.9m/s-54.7°C2.7%148.6hPa2.7V00:00:0000:00:0000:00:00
GYPAP8-172026-08-30 11:52:1549.0184820.8199689°47km/h14087m4.5m/s-54.8°C2.7%148.8hPa2.7V00:00:0000:00:0000:00:00
HA6NAB-112026-08-30 11:52:1349.0184620.8196086°47km/h14079m3.9m/s-54.9°C0%0hPa2.7V00:00:0000:00:0000:00:00
OM5KV2026-08-30 11:52:1149.0184320.8192384°51km/h14071m3.7m/s-54.9°C2.7%149.2hPa2.7V00:00:0000:00:0000:00:00
SP9KGR-152026-08-30 11:52:0649.0183920.8180388°51km/h14046m4.5m/s-54.8°C2.7%149.8hPa2.7V00:00:0000:00:0000:00:00
OM5KV2026-08-30 11:51:5449.0180820.8160379°47km/h14001m4.7m/s-54.7°C2.8%150.9hPa2.7V00:00:0000:00:0000:00:00
SP9KGR-152026-08-30 11:51:5049.0180220.8153184°49km/h13985m3.3m/s-54.5°C2.9%151.3hPa2.7V00:00:0000:00:0000:00:00
SQ9EZE-152026-08-30 11:51:4849.0179920.8149287°51km/h13977m4.9m/s-54.5°C2.9%151.4hPa2.7V00:00:0000:00:0000:00:00
OM5KV2026-08-30 11:51:4149.0178020.8136578°42km/h13946m5.2m/s-54.3°C2.8%152.2hPa2.7V00:00:0000:00:0000:00:00
OM5KV2026-08-30 11:51:3449.0177620.8126089°42km/h13913m7.3m/s-54.3°C3.1%153.0hPa2.7V00:00:0000:00:0000:00:00
SQ9EZE-132026-08-30 11:51:3249.0177420.8122484°49km/h13904m5.4m/s-54.2°C3.1%153.1hPa2.7V00:00:0000:00:0000:00:00
SQ9EZE-142026-08-30 11:51:2649.0176120.8112577°38km/h13871m8.4m/s-54.4°C2.9%153.9hPa2.7V00:00:0000:00:0000:00:00
SP9KGR-152026-08-30 11:51:1949.0176020.8100693°47km/h13835m8.4m/s-54.5°C3.0%154.8hPa2.7V00:00:0000:00:0000:00:00
SQ9EZE-132026-08-30 11:51:1749.0176220.8097197°46km/h13823m6.2m/s-54.5°C3.0%155.1hPa2.7V00:00:0000:00:0000:00:00
GYPAP8-172026-08-30 11:51:1349.0176920.80898102°51km/h13801m6.8m/s-54.4°C3.0%155.6hPa2.7V00:00:0000:00:0000:00:00
OM5KV2026-08-30 11:51:1249.0177220.80878104°55km/h13796m2.1m/s-54.4°C3.0%155.8hPa2.7V00:00:0000:00:0000:00:00
SQ9EZE-142026-08-30 11:51:1049.0177720.80837102°55km/h13785m9.0m/s-54.4°C3.0%156.0hPa2.7V00:00:0000:00:0000:00:00
OM5KV2026-08-30 11:51:0849.0178220.8079699°55km/h13774m6.6m/s-54.3°C3.0%156.3hPa2.7V00:00:0000:00:0000:00:00
OM5KV2026-08-30 11:51:0649.0178520.8075698°51km/h13766m5.1m/s-54.2°C2.9%156.5hPa2.7V00:00:0000:00:0000:00:00
SP9KGR-152026-08-30 11:51:0449.0178820.8071594°53km/h13753m4.0m/s-54.2°C2.8%156.8hPa2.7V00:00:0000:00:0000:00:00
SQ9EZE-132026-08-30 11:51:0149.0179220.80655100°53km/h13739m5.3m/s-54.2°C2.8%157.2hPa2.7V00:00:0000:00:0000:00:00
OM5KV2026-08-30 11:51:0049.0179420.8063599°55km/h13733m5.5m/s-54.1°C2.7%157.4hPa2.7V00:00:0000:00:0000:00:00
OM5KV2026-08-30 11:50:5449.0181220.80484100°58km/h13693m5.1m/s-53.9°C2.7%158.2hPa2.7V00:00:0000:00:0000:00:00
OM5KV2026-08-30 11:50:4949.0181820.8039797°55km/h13668m4.2m/s-54.0°C2.7%158.8hPa2.7V00:00:0000:00:0000:00:00
OM5KV2026-08-30 11:50:4849.0182020.8037796°55km/h13663m6.8m/s-54.1°C2.7%158.9hPa2.7V00:00:0000:00:0000:00:00
SQ9EZE-152026-08-30 11:50:4549.0182220.8031795°51km/h13647m5.2m/s-53.9°C2.7%159.4hPa2.7V00:00:0000:00:0000:00:00
OM5KV2026-08-30 11:50:4349.0182420.8027895°49km/h13636m7.2m/s-53.9°C2.7%159.6hPa2.7V00:00:0000:00:0000:00:00
OM5KV2026-08-30 11:50:3749.0183220.8015997°57km/h13600m4.6m/s-53.7°C2.6%160.5hPa2.7V00:00:0000:00:0000:00:00
SP9KGR-152026-08-30 11:50:3349.0184120.80075100°57km/h13576m9.3m/s-53.6°C2.7%161.0hPa2.7V00:00:0000:00:0000:00:00
OM5KV2026-08-30 11:50:3249.0184320.80054102°57km/h13569m4.5m/s-53.6°C2.7%161.2hPa2.7V00:00:0000:00:0000:00:00
SQ9EZE-132026-08-30 11:50:2849.0185620.79970106°58km/h13544m4.3m/s-53.4°C2.7%161.8hPa2.7V00:00:0000:00:0000:00:00
OM5KV2026-08-30 11:50:2649.0186320.79926100°60km/h13533m3.8m/s-53.5°C2.7%162.0hPa2.7V00:00:0000:00:0000:00:00
SQ9EZE-152026-08-30 11:50:2449.0186720.7988099°58km/h13522m4.8m/s-53.5°C2.7%162.4hPa2.7V00:00:0000:00:0000:00:00
OM5KV2026-08-30 11:50:2149.0187520.79813105°58km/h13506m5.7m/s-53.5°C2.6%162.8hPa2.7V00:00:0000:00:0000:00:00
OM5KV2026-08-30 11:50:2049.0187820.79792107°57km/h13500m5.1m/s-53.5°C2.7%163.0hPa2.7V00:00:0000:00:0000:00:00
SP9KGR-152026-08-30 11:50:1849.0188820.79750111°60km/h13489m3.6m/s-53.5°C2.7%163.3hPa2.7V00:00:0000:00:0000:00:00
OM5KV2026-08-30 11:50:1549.0190120.79681106°64km/h13476m5.6m/s-53.6°C2.7%163.6hPa2.7V00:00:0000:00:0000:00:00
OM5KV2026-08-30 11:50:1449.0190620.79657107°66km/h13470m6.4m/s-53.6°C2.6%163.8hPa2.7V00:00:0000:00:0000:00:00
SQ9EZE-132026-08-30 11:50:1249.0191620.79609110°66km/h13458m5.2m/s-53.5°C2.7%164.1hPa2.7V00:00:0000:00:0000:00:00
OM5KV2026-08-30 11:50:1049.0192520.79560108°68km/h13446m4.0m/s-53.4°C2.8%164.5hPa2.7V00:00:0000:00:0000:00:00
OM5KV2026-08-30 11:50:0849.0193620.79510109°69km/h13436m3.9m/s-53.4°C2.8%164.7hPa2.7V00:00:0000:00:0000:00:00
OM5KV2026-08-30 11:50:0449.0195620.79408105°69km/h13415m4.6m/s-53.3°C2.8%165.3hPa2.7V00:00:0000:00:0000:00:00
SP9KGR-152026-08-30 11:50:0249.0196420.79356103°69km/h13404m8.9m/s-53.2°C2.7%165.5hPa2.7V00:00:0000:00:0000:00:00
OM5KV2026-08-30 11:49:5849.0197920.79252106°69km/h13382m6.2m/s-53.3°C2.7%166.0hPa2.7V00:00:0000:00:0000:00:00
OM5KV2026-08-30 11:49:5749.0198420.79226105°69km/h13374m8.9m/s-53.3°C2.8%166.2hPa2.7V00:00:0000:00:0000:00:00
OM5KV2026-08-30 11:49:5149.0201020.79080104°64km/h13342m5.1m/s-53.1°C2.9%167.1hPa2.7V00:00:0000:00:0000:00:00
HA6NAB-112026-08-30 11:49:4849.0202220.78985100°68km/h13319m4.8m/s-52.9°C0%0hPa2.7V00:00:0000:00:0000:00:00
OM5KV2026-08-30 11:49:4649.0202520.78959100°69km/h13314m5.2m/s-52.9°C2.8%167.8hPa2.7V00:00:0000:00:0000:00:00
OM5KV2026-08-30 11:49:4549.0202720.78933100°69km/h13309m4.4m/s-52.9°C2.8%167.9hPa2.7V00:00:0000:00:0000:00:00
HA6NAB-112026-08-30 11:49:4149.0204220.78823102°73km/h13283m8.9m/s-52.8°C0%0hPa2.7V00:00:0000:00:0000:00:00
OM5KV2026-08-30 11:49:4049.0204520.78796101°69km/h13277m4.3m/s-52.7°C2.8%168.7hPa2.7V00:00:0000:00:0000:00:00
OM5KV2026-08-30 11:49:3549.0205820.7866999°66km/h13248m6.4m/s-52.6°C0%0hPa2.7V00:00:0000:00:0000:00:00
OM5KV2026-08-30 11:49:3449.0206120.78644101°68km/h13243m3.9m/s-52.6°C2.9%169.6hPa2.7V00:00:0000:00:0000:00:00
OE3JTB-152026-08-30 11:49:3349.0206720.78593101°71km/h13235m2.3m/s-52.6°C5.4%169.8hPa2.7V00:00:0000:00:0000:00:00
OM5KV2026-08-30 11:49:3049.0207920.78514107°69km/h13217m4.4m/s-52.5°C0%0hPa2.7V00:00:0000:00:0000:00:00
OM5KV2026-08-30 11:49:2849.0208420.78489107°69km/h13211m7.1m/s-52.5°C3.0%170.5hPa2.7V00:00:0000:00:0000:00:00
OM5KV2026-08-30 11:49:2349.0210820.78362106°68km/h13185m5.1m/s-52.6°C0%0hPa2.7V00:00:0000:00:0000:00:00
SQ9EZE-152026-08-30 11:49:2049.0212020.78286100°71km/h13168m4.0m/s-52.5°C3.1%171.6hPa2.7V00:00:0000:00:0000:00:00
OM5KV2026-08-30 11:49:1949.0212620.78233103°71km/h13159m2.9m/s-52.6°C3.1%171.9hPa2.7V00:00:0000:00:0000:00:00
OM5KV2026-08-30 11:49:1649.0213420.78179105°71km/h13148m8.3m/s-52.5°C0%0hPa2.7V00:00:0000:00:0000:00:00
SP9KGR-152026-08-30 11:49:1449.0214320.78126107°71km/h13137m6.2m/s-52.5°C3.2%172.4hPa2.7V00:00:0000:00:0000:00:00
OM5KV2026-08-30 11:49:1249.0215420.78073108°71km/h13128m5.9m/s-52.5°C3.3%172.7hPa2.7V00:00:0000:00:0000:00:00
OM5KV2026-08-30 11:49:1049.0216420.78020105°71km/h13119m5.0m/s-52.7°C0%0hPa2.7V00:00:0000:00:0000:00:00
OM5KV2026-08-30 11:49:0649.0217820.7791299°69km/h13098m4.2m/s-52.7°C3.7%173.5hPa2.7V00:00:0000:00:0000:00:00
SQ9EZE-142026-08-30 11:49:0549.0218020.7788599°71km/h13092m7.0m/s-52.9°C3.7%173.7hPa2.7V00:00:0000:00:0000:00:00
OM5KV2026-08-30 11:49:0449.0218320.7785898°71km/h13087m3.7m/s-52.9°C0%0hPa2.7V00:00:0000:00:0000:00:00
SQ9EZE-132026-08-30 11:49:0349.0218520.7783096°71km/h13082m6.3m/s-52.9°C3.8%173.9hPa2.7V00:00:0000:00:0000:00:00
SQ9EZE-152026-08-30 11:49:0049.0218920.7774996°73km/h13068m3.7m/s-52.9°C3.7%174.4hPa2.7V00:00:0000:00:0000:00:00
SP9KGR-152026-08-30 11:48:5849.0219220.7769196°77km/h13058m7.7m/s-53.0°C3.7%174.6hPa2.7V00:00:0000:00:0000:00:00
OM5KV2026-08-30 11:48:5449.0220020.7757299°78km/h13040m5.7m/s0°C0%175.1hPa2.7V00:00:0000:00:0000:00:00
SQ9EZE-142026-08-30 11:48:5049.0221020.77462102°68km/h13016m4.0m/s-52.6°C3.9%175.7hPa2.7V00:00:0000:00:0000:00:00
OM5KV2026-08-30 11:48:4849.0221620.77411101°68km/h13004m3.3m/s0°C0%176.1hPa2.7V00:00:0000:00:0000:00:00
SQ9EZE-132026-08-30 11:48:4749.0221920.77385102°69km/h12999m6.3m/s-52.5°C3.8%176.2hPa2.7V00:00:0000:00:0000:00:00
OM5KV2026-08-30 11:48:3649.0225720.77090104°71km/h12944m7.4m/s0°C0%0hPa2.7V00:00:0000:00:0000:00:00
HA6NAB-112026-08-30 11:48:3449.0226620.77035105°75km/h12935m5.5m/s-53.0°C0%0hPa2.7V00:00:0000:00:0000:00:00
OM5KV2026-08-30 11:48:3049.0228320.76917104°78km/h12916m3.5m/s0°C0%0hPa2.7V00:00:0000:00:0000:00:00
HA6NAB-112026-08-30 11:48:2949.0228720.76887102°80km/h12911m6.3m/s-53.0°C0%0hPa2.7V00:00:0000:00:0000:00:00
OM5KV2026-08-30 11:48:2549.0230020.76766100°77km/h12891m3.8m/s0°C0%0hPa2.7V00:00:0000:00:0000:00:00
HA6NAB-112026-08-30 11:48:2349.0230720.76707102°80km/h12880m3.0m/s-53.1°C0%0hPa2.7V00:00:0000:00:0000:00:00
OM5KV2026-08-30 11:48:2049.0231920.76617103°78km/h12867m4.2m/s0°C0%0hPa2.7V00:00:0000:00:0000:00:00
HA6NAB-112026-08-30 11:48:1849.0232820.76556103°84km/h12856m4.2m/s-53.3°C0%0hPa2.7V00:00:0000:00:0000:00:00
OM5KV2026-08-30 11:48:1649.0234120.76462102°84km/h12843m4.6m/s0°C0%0hPa2.7V00:00:0000:00:0000:00:00
GYPAP8-172026-08-30 11:48:1549.0234520.76430102°86km/h12839m2.3m/s-53.3°C4.6%180.7hPa2.7V00:00:0000:00:0000:00:00
HA6NAB-112026-08-30 11:48:1249.0235320.76365102°86km/h12829m8.8m/s-53.4°C0%0hPa2.7V00:00:0000:00:0000:00:00
HA6NAB-112026-08-30 11:48:0449.0238720.76100104°89km/h12793m4.8m/s-53.5°C0%0hPa2.7V00:00:0000:00:0000:00:00
SP9KGR-152026-08-30 11:47:5849.0241720.75897102°88km/h12761m2.9m/s-53.4°C4.8%182.8hPa2.7V00:00:0000:00:0000:00:00
SQ9EZE-152026-08-30 11:47:5649.0242520.7583099°91km/h12753m1.3m/s-53.4°C4.8%183.1hPa2.7V00:00:0000:00:0000:00:00
HA6NAB-112026-08-30 11:47:5549.0242820.7579698°91km/h12750m4.5m/s-53.5°C0%0hPa2.7V00:00:0000:00:0000:00:00
SQ9EZE-132026-08-30 11:47:4949.0244620.7559099°91km/h12722m8.3m/s-53.4°C5.1%183.9hPa2.7V00:00:0000:00:0000:00:00
OE3JTB-152026-08-30 11:47:4449.0246620.7537799°91km/h12695m5.1m/s-53.2°C8.1%184.8hPa2.7V00:00:0000:58:1800:00:00
SP9KGR-152026-08-30 11:47:4349.0246920.7534198°93km/h12692m1.5m/s-53.3°C5.3%185.0hPa2.7V00:00:0000:00:0000:00:00
SQ9EZE-152026-08-30 11:47:3649.0248420.7513096°91km/h12662m6.0m/s-53.4°C5.3%185.8hPa2.7V00:00:0000:00:0000:00:00
SQ9EZE-132026-08-30 11:47:3049.0249820.7492397°86km/h12627m3.4m/s-53.3°C5.5%186.7hPa2.7V00:00:0000:00:0000:00:00
SP9KGR-152026-08-30 11:47:2549.0250920.7476195°82km/h12603m4.1m/s-53.3°C5.8%187.4hPa2.7V00:00:0000:00:0000:00:00
HA6NAB-112026-08-30 11:47:1649.0252920.7448398°78km/h12557m3.8m/s-53.6°C0%0hPa2.7V00:00:0000:00:0000:00:00
SP9KGR-152026-08-30 11:47:0949.0254720.7427498°77km/h12521m4.3m/s-53.6°C6.5%189.7hPa2.7V00:00:0000:00:0000:00:00
SQ9EZE-132026-08-30 11:47:0849.0254920.7424496°77km/h12516m7.0m/s-53.7°C6.5%189.9hPa2.7V00:00:0000:00:0000:00:00
GYPAP8-172026-08-30 11:46:5949.0256720.7398999°73km/h12473m5.7m/s-53.6°C7.1%191.1hPa2.7V00:00:0000:00:0000:00:00
SP9KGR-152026-08-30 11:46:5449.0257920.7384397°78km/h12445m7.8m/s-53.8°C7.5%191.9hPa2.7V00:00:0000:00:0000:00:00
SQ9EZE-132026-08-30 11:46:4749.0259420.73635101°77km/h12412m1.9m/s-53.7°C8.1%193.0hPa2.7V00:00:0000:00:0000:00:00
SQ9EZE-142026-08-30 11:46:4649.0259820.73606102°77km/h12408m6.0m/s-53.8°C8.0%193.1hPa2.7V00:00:0000:00:0000:00:00
SP9KGR-152026-08-30 11:46:4049.0262320.73407101°75km/h12370m5.8m/s-54.0°C8.6%194.3hPa2.7V00:00:0000:00:0000:00:00
SQ9EZE-132026-08-30 11:46:3249.0264720.73206100°78km/h12333m6.6m/s-54.2°C9.1%195.3hPa2.7V00:00:0000:00:0000:00:00
SQ9EZE-142026-08-30 11:46:3049.0265320.73145101°80km/h12323m5.8m/s-54.2°C9.1%195.7hPa2.7V00:00:0000:00:0000:00:00
SP9KGR-152026-08-30 11:46:2349.0268320.72932104°82km/h12287m5.9m/s-54.4°C10.2%196.8hPa2.7V00:00:0000:00:0000:00:00
SQ9EZE-152026-08-30 11:46:2049.0269520.72840102°80km/h12270m7.0m/s-54.4°C10.5%197.3hPa2.7V00:00:0000:00:0000:00:00
SQ9EZE-132026-08-30 11:46:1649.0270720.7271098°88km/h12248m6.0m/s-54.4°C10.6%198.1hPa2.7V00:00:0000:00:0000:00:00
OE3JTB-152026-08-30 11:46:1349.0272120.72577100°73km/h12228m4.7m/s-54.3°C14.3%198.6hPa2.7V00:00:0000:00:0008:30:00
SP9KGR-152026-08-30 11:46:0949.0273420.7244997°84km/h12207m2.4m/s-54.3°C10.7%199.4hPa2.7V00:00:0000:00:0000:00:00
SQ9EZE-132026-08-30 11:46:0049.0275220.72203101°77km/h12165m3.5m/s-54.1°C11.4%200.6hPa2.7V00:00:0000:00:0000:00:00
GYPAP8-172026-08-30 11:45:5549.0276920.72055100°75km/h12134m3.7m/s-54.1°C11.9%201.6hPa2.7V00:00:0000:00:0000:00:00
SP9KGR-152026-08-30 11:45:5249.0277620.7196997°75km/h12120m4.8m/s-54.0°C11.8%202.0hPa2.7V00:00:0000:00:0000:00:00
SQ9EZE-132026-08-30 11:45:4449.0279620.7174795°71km/h12076m7.4m/s-54.2°C11.7%203.5hPa2.7V00:00:0000:00:0000:00:00
OE3JTB-152026-08-30 11:45:3749.0281220.71527100°66km/h12025m3.5m/s-53.9°C14.8%205.0hPa2.7V00:00:0000:00:0000:00:00
SQ9EZE-132026-08-30 11:45:2849.0282320.7134597°68km/h11991m4.3m/s-53.9°C11.0%206.1hPa2.7V00:00:0000:00:0000:00:00
HA6NAB-112026-08-30 11:45:2349.0283320.7121796°69km/h11960m8.6m/s-53.8°C0%0hPa2.7V00:00:0000:00:0000:00:00
SP9KGR-152026-08-30 11:45:2149.0283520.7116593°66km/h11949m6.1m/s-53.7°C11.1%207.4hPa2.7V00:00:0000:00:0000:00:00
HA6NAB-112026-08-30 11:45:1749.0283920.7106598°66km/h11928m6.0m/s-53.7°C0%0hPa2.7V00:00:0000:00:0000:00:00
SQ9EZE-132026-08-30 11:45:1349.0285020.70965102°68km/h11908m4.8m/s-53.7°C11.1%208.8hPa2.7V00:00:0000:00:0000:00:00
OE3JTB-152026-08-30 11:45:0749.0287020.7079498°64km/h11872m5.8m/s-53.6°C14.5%209.9hPa2.7V00:00:0000:55:4100:00:00
SP9KGR-152026-08-30 11:45:0649.0287220.70770100°62km/h11867m3.2m/s-53.6°C11.2%210.1hPa2.7V00:00:0000:00:0000:00:00
SQ9EZE-132026-08-30 11:44:5749.0289220.70584100°62km/h11832m5.3m/s-53.5°C11.8%211.4hPa2.7V00:00:0000:00:0000:00:00
SP9KGR-152026-08-30 11:44:4949.0291820.70392106°64km/h11785m7.4m/s-53.3°C12.6%212.8hPa2.7V00:00:0000:00:0000:00:00
OE3JTB-152026-08-30 11:44:3849.0296220.70097102°73km/h11723m8.1m/s-53.1°C17.5%214.8hPa2.7V00:00:0000:00:0000:00:00
SP9KGR-152026-08-30 11:44:3449.0297320.70020102°69km/h11706m3.3m/s-53.1°C13.9%215.4hPa2.7V00:00:0000:00:0000:00:00
SQ9EZE-152026-08-30 11:44:1849.0301820.6958397°75km/h11627m4.9m/s-52.8°C16.6%218.2hPa2.7V00:00:0000:00:0000:00:00
OE3JTB-152026-08-30 11:44:0949.0304320.69297101°73km/h11571m7.4m/s-52.8°C21.8%219.9hPa2.7V00:00:0000:00:0000:00:00
GYPAP8-172026-08-30 11:44:0549.0305320.6920899°75km/h11557m3.0m/s-52.8°C18.1%220.4hPa2.7V00:00:0000:00:0000:00:00
SP9KGR-152026-08-30 11:44:0349.0305720.6915297°71km/h11547m3.7m/s-52.8°C18.9%220.8hPa2.7V00:00:0000:00:0000:00:00
SQ9EZE-132026-08-30 11:44:0249.0305920.6912597°69km/h11543m5.1m/s-52.9°C19.1%220.9hPa2.7V00:00:0000:00:0000:00:00
SQ9EZE-132026-08-30 11:43:4849.0308620.6869994°77km/h11463m7.4m/s-53.0°C23.7%223.6hPa2.7V00:00:0000:00:0000:00:00
OE3JTB-152026-08-30 11:43:4049.0309820.6846395°73km/h11421m3.2m/s-52.8°C28.7%224.9hPa2.7V00:00:0000:54:1400:00:00
SP9KGR-152026-08-30 11:43:3249.0310120.6827788°71km/h11389m2.7m/s-52.7°C24.3%226.2hPa2.7V00:00:0000:00:0000:00:00
SQ9EZE-132026-08-30 11:43:3149.0310020.6825089°71km/h11385m5.0m/s-52.6°C24.3%226.4hPa2.7V00:00:0000:00:0000:00:00
SP9KGR-152026-08-30 11:43:1749.0310620.6786293°75km/h11315m3.9m/s-52.3°C27.0%228.8hPa2.7V00:00:0000:00:0000:00:00
SQ9EZE-132026-08-30 11:43:1449.0311020.6774794°78km/h11297m9.2m/s-52.2°C26.3%229.4hPa2.7V00:00:0000:00:0000:00:00
SQ9EZE-152026-08-30 11:43:1149.0311120.6768791°78km/h11285m7.4m/s-52.1°C26.2%229.8hPa2.7V00:00:0000:00:0000:00:00
OE3JTB-152026-08-30 11:43:1049.0310920.6762986°69km/h11275m6.2m/s-52.1°C30.4%230.1hPa2.7V00:00:0000:00:0000:00:00
GYPAP8-172026-08-30 11:43:0249.0310820.6743797°68km/h11242m4.1m/s-52.0°C25.0%231.5hPa2.9V00:00:0000:00:0000:00:00
SP9KGR-152026-08-30 11:43:0049.0311220.6738597°68km/h11232m8.0m/s-51.9°C24.7%231.9hPa2.9V00:00:0000:00:0000:00:00
SQ9EZE-132026-08-30 11:42:5849.0311420.6733491°66km/h11221m6.7m/s-51.8°C24.2%232.2hPa2.9V00:00:0000:00:0000:00:00
SQ9EZE-152026-08-30 11:42:5049.0311420.6712996°69km/h11179m5.5m/s-51.5°C23.8%233.6hPa2.9V00:00:0000:00:0000:00:00
SP9KGR-152026-08-30 11:42:4449.0311220.6696988°69km/h11152m3.1m/s-51.3°C24.3%234.7hPa2.9V00:00:0000:00:0000:00:00
SQ9EZE-132026-08-30 11:42:4249.0311020.6691689°69km/h11144m1.8m/s-51.3°C24.2%234.9hPa2.9V00:00:0000:00:0000:00:00
OE3JTB-152026-08-30 11:42:4149.0311020.6686191°71km/h11135m4.6m/s-51.2°C28.2%235.2hPa2.9V00:00:0000:00:0000:00:00
SP9KGR-152026-08-30 11:42:2949.0310520.6656487°68km/h11080m6.4m/s-50.9°C22.6%237.2hPa2.9V00:00:0000:00:0000:00:00
SQ9EZE-132026-08-30 11:42:2749.0310220.6648191°75km/h11065m2.8m/s-50.7°C22.9%237.8hPa2.9V00:00:0000:00:0000:00:00
SP9KGR-152026-08-30 11:42:1449.0310120.6614794°77km/h11003m3.6m/s-50.9°C25.1%240.0hPa2.9V00:00:0000:00:0000:00:00
OE3JTB-152026-08-30 11:42:1249.0310220.6605791°66km/h10988m6.6m/s-50.8°C29.1%240.4hPa2.9V00:00:0000:52:4600:00:00
SQ9EZE-132026-08-30 11:42:1149.0310220.6605792°80km/h10988m6.7m/s-50.8°C25.1%240.4hPa2.9V00:00:0000:00:0000:00:00
SQ9EZE-142026-08-30 11:42:0649.0310420.6591991°62km/h10965m2.9m/s-50.7°C27.2%241.3hPa2.9V00:00:0000:00:0000:00:00
SP9KGR-152026-08-30 11:41:5849.0309920.6571791°68km/h10927m1.9m/s-50.4°C26.9%242.8hPa2.9V00:00:0000:00:0000:00:00
GYPAP8-172026-08-30 11:41:5749.0309920.6569092°68km/h10924m4.7m/s-50.5°C26.3%242.9hPa2.9V00:00:0000:00:0000:00:00
SQ9EZE-132026-08-30 11:41:5649.0310020.6566493°69km/h10918m7.8m/s-50.4°C26.0%243.1hPa2.9V00:00:0000:00:0000:00:00
SQ9EZE-142026-08-30 11:41:5149.0310520.6553596°60km/h10891m3.2m/s-50.2°C26.1%244.1hPa2.9V00:00:0000:00:0000:00:00
SQ9EZE-152026-08-30 11:41:4349.0310420.6535387°64km/h10852m6.0m/s-49.9°C24.9%245.5hPa2.9V00:00:0000:00:0000:00:00
OE3JTB-152026-08-30 11:41:4249.0310220.6530388°66km/h10844m4.9m/s-49.9°C28.4%245.8hPa2.9V00:00:0000:00:0008:30:00
SQ9EZE-132026-08-30 11:41:4049.0310120.6527889°66km/h10840m2.7m/s-49.9°C24.7%246.1hPa2.9V00:00:0000:00:0000:00:00
SP9KGR-152026-08-30 11:41:2749.0309520.6497485°60km/h10776m2.4m/s-49.8°C19.8%248.6hPa2.9V00:00:0000:00:0000:00:00
HA6NAB-112026-08-30 11:41:2449.0309120.6490587°60km/h10762m4.5m/s-49.6°C0%0hPa2.9V00:00:0000:00:0000:00:00
SQ9EZE-132026-08-30 11:41:2349.0309020.6488287°60km/h10757m5.0m/s-49.6°C18.6%249.3hPa2.9V00:00:0000:00:0000:00:00
SQ9EZE-152026-08-30 11:41:2249.0308920.6485987°60km/h10752m5.6m/s-49.6°C18.3%249.5hPa2.9V00:00:0000:00:0000:00:00
HA6NAB-112026-08-30 11:41:1849.0308820.6476193°66km/h10732m5.6m/s0°C0%0hPa2.9V00:00:0000:00:0000:00:00
HA6NAB-112026-08-30 11:41:1249.0308420.6461291°62km/h10707m2.4m/s0°C0%0hPa2.9V00:00:0000:00:0000:00:00
SP9KGR-152026-08-30 11:41:1149.0308420.6458891°62km/h10703m5.2m/s-49.3°C18.7%251.4hPa2.9V00:00:0000:00:0000:00:00
SQ9EZE-132026-08-30 11:41:0749.0308420.6449393°60km/h10685m4.3m/s-49.2°C19.0%252.2hPa2.9V00:00:0000:00:0000:00:00
SP9KGR-152026-08-30 11:40:5649.0308920.6421692°64km/h10634m2.7m/s-48.7°C18.9%254.1hPa2.9V00:00:0000:00:0000:00:00
SQ9EZE-132026-08-30 11:40:5249.0309220.6412393°60km/h10613m4.1m/s-48.6°C19.7%255.0hPa2.9V00:00:0000:00:0000:00:00
GYPAP8-172026-08-30 11:40:5149.0309220.6409993°64km/h10607m7.8m/s-48.5°C20.1%255.2hPa2.9V00:00:0000:00:0000:00:00
SP9KGR-152026-08-30 11:40:4049.0309220.6383095°55km/h10550m5.6m/s-48.3°C22.0%257.3hPa2.9V00:00:0000:00:0000:00:00
SQ9EZE-132026-08-30 11:40:3649.0309520.6374596°58km/h10534m5.0m/s-48.2°C21.7%258.0hPa2.9V00:00:0000:00:0000:00:00
SP9KGR-152026-08-30 11:40:2549.0310320.6345192°58km/h10467m6.5m/s-47.8°C21.3%260.5hPa2.9V00:00:0000:00:0000:00:00
SQ9EZE-132026-08-30 11:40:2049.0310520.6335695°60km/h10446m8.1m/s-47.6°C22.1%261.2hPa2.9V00:00:0000:00:0000:00:00
OE3JTB-152026-08-30 11:40:1949.0310720.6331195°62km/h10436m4.9m/s-47.5°C25.6%261.6hPa2.9V00:00:0000:00:0000:00:00
SQ9EZE-152026-08-30 11:40:1549.0310920.6324090°66km/h10420m4.9m/s-47.5°C22.1%262.2hPa2.9V00:00:0000:00:0000:00:00
SP9KGR-152026-08-30 11:40:0949.0310720.6307489°58km/h10388m4.2m/s-47.3°C21.5%263.7hPa2.9V00:00:0000:00:0000:00:00
HA6NAB-112026-08-30 11:40:0749.0310620.6305186°58km/h10382m7.2m/s0°C0%0hPa2.9V00:00:0000:00:0000:00:00
SQ9EZE-132026-08-30 11:40:0449.0310420.6298394°60km/h10365m3.5m/s-47.1°C22.0%264.4hPa2.9V00:00:0000:00:0000:00:00
HA6NAB-112026-08-30 11:40:0249.0310720.6293699°62km/h10357m5.0m/s0°C0%0hPa2.9V00:00:0000:00:0000:00:00
HA6NAB-112026-08-30 11:39:5649.0312020.6279895°58km/h10322m4.1m/s0°C0%0hPa2.9V00:00:0000:00:0000:00:00
SQ9EZE-152026-08-30 11:39:5449.0312220.6275195°62km/h10311m3.2m/s-46.6°C20.9%266.5hPa2.9V00:00:0000:00:0000:00:00
SP9KGR-152026-08-30 11:39:5349.0312320.6272793°62km/h10306m6.1m/s-46.6°C20.5%266.7hPa2.9V00:00:0000:00:0000:00:00
OE3JTB-152026-08-30 11:39:4749.0312520.6256698°68km/h10269m5.6m/s-46.2°C23.0%268.1hPa2.9V00:00:0000:50:2100:00:00
SQ9EZE-142026-08-30 11:39:4549.0312720.62544100°58km/h10264m3.7m/s-46.2°C20.2%268.4hPa2.9V00:00:0000:00:0000:00:00
GYPAP8-172026-08-30 11:39:4349.0313320.62499104°64km/h10255m4.8m/s-46.1°C20.1%268.8hPa2.9V00:00:0000:00:0000:00:00
SP9KGR-152026-08-30 11:39:3749.0314920.6234793°64km/h10226m4.1m/s-46.0°C20.0%270.0hPa2.9V00:00:0000:00:0000:00:00
SQ9EZE-132026-08-30 11:39:2949.0316220.62148100°71km/h10183m5.9m/s-45.6°C19.3%271.7hPa2.9V00:00:0000:00:0000:00:00
SP9KGR-152026-08-30 11:39:2149.0317420.6195494°58km/h10139m4.7m/s-45.3°C18.7%273.5hPa2.9V00:00:0000:00:0000:00:00
SQ9EZE-132026-08-30 11:39:1349.0318420.6174394°75km/h10101m6.6m/s-45.0°C17.9%275.1hPa2.9V00:00:0000:00:0000:00:00
SP9KGR-152026-08-30 11:39:0649.0318720.6156393°66km/h10063m8.1m/s-44.6°C17.5%276.7hPa2.9V00:00:0000:00:0000:00:00
OE3JTB-152026-08-30 11:39:0549.0318920.6151096°68km/h10051m7.4m/s-44.5°C20.0%277.0hPa2.9V00:00:0000:00:0000:00:00
SP9KGR-152026-08-30 11:38:5049.0319720.6114492°68km/h9979m6.1m/s-43.9°C16.7%280.1hPa2.9V00:00:0000:00:0000:00:00
SQ9EZE-132026-08-30 11:38:4949.0319720.6111992°66km/h9975m2.5m/s-43.9°C16.7%280.3hPa2.9V00:00:0000:00:0000:00:00
SQ9EZE-152026-08-30 11:38:4649.0319720.6104391°68km/h9958m4.0m/s-43.7°C16.4%280.9hPa2.9V00:00:0000:00:0000:00:00
GYPAP8-172026-08-30 11:38:3949.0319820.6086992°66km/h9921m2.9m/s-43.4°C16.3%282.5hPa2.9V00:00:0000:00:0000:00:00
OE3JTB-152026-08-30 11:38:3649.0319720.6076790°64km/h9897m8.3m/s-43.2°C18.8%283.4hPa2.9V00:00:0000:00:0000:00:00
SP9KGR-152026-08-30 11:38:3549.0319720.6076791°68km/h9897m8.3m/s-43.2°C16.3%283.5hPa2.9V00:00:0000:00:0000:00:00
SQ9EZE-132026-08-30 11:38:3349.0319820.6071491°68km/h9885m6.6m/s-43.1°C16.2%283.8hPa2.9V00:00:0000:00:0000:00:00
SQ9EZE-152026-08-30 11:38:2649.0320020.6054096°64km/h9848m4.0m/s-42.8°C15.7%285.6hPa2.9V00:00:0000:00:0000:00:00
SP9KGR-152026-08-30 11:38:2049.0320820.6040290°62km/h9821m3.3m/s-42.6°C14.8%286.7hPa2.9V00:00:0000:00:0000:00:00
SQ9EZE-132026-08-30 11:38:1749.0320620.6032589°68km/h9806m5.4m/s-42.4°C14.4%287.4hPa2.9V00:00:0000:00:0000:00:00
OE3JTB-152026-08-30 11:38:0749.0322420.6005489°66km/h9750m5.5m/s-41.9°C16.7%289.8hPa2.9V00:00:0000:48:4100:00:00
SP9KGR-152026-08-30 11:38:0449.0322220.6000187°69km/h9742m5.5m/s-41.9°C14.1%290.3hPa2.9V00:00:0000:00:0000:00:00
SQ9EZE-132026-08-30 11:38:0049.0322220.5990395°57km/h9726m5.0m/s-41.8°C13.5%291.1hPa2.9V00:00:0000:00:0000:00:00
SP9KGR-152026-08-30 11:37:4949.0323920.5962494°68km/h9666m4.7m/s-41.3°C12.5%293.6hPa2.9V00:00:0000:00:0000:00:00
SQ9EZE-132026-08-30 11:37:4549.0323920.5952390°66km/h9644m6.3m/s-41.1°C12.9%294.5hPa2.9V00:00:0000:00:0000:00:00
GYPAP8-172026-08-30 11:37:4149.0324020.5942291°64km/h9626m6.1m/s-41.0°C12.9%295.4hPa2.9V00:00:0000:00:0000:00:00
OE3JTB-152026-08-30 11:37:3849.0324120.5932794°64km/h9605m4.4m/s-40.8°C15.1%296.2hPa2.9V00:00:0000:00:0000:00:00
SP9KGR-152026-08-30 11:37:3349.0324520.5924195°58km/h9588m5.7m/s-40.7°C12.8%297.0hPa2.9V00:00:0000:00:0000:00:00
SQ9EZE-132026-08-30 11:37:2749.0324720.5909493°71km/h9555m5.6m/s-40.5°C12.6%298.5hPa2.9V00:00:0000:00:0000:00:00
SQ9EZE-142026-08-30 11:37:2449.0324920.5901491°68km/h9541m6.0m/s-40.3°C12.7%299.1hPa2.9V00:00:0000:00:0000:00:00
SQ9EZE-152026-08-30 11:37:1949.0325520.5889199°60km/h9519m5.1m/s-40.2°C13.2%300.1hPa2.9V00:00:0000:00:0000:00:00
SP9KGR-152026-08-30 11:37:1849.0325720.5886997°58km/h9514m4.7m/s-40.1°C13.2%300.3hPa2.9V00:00:0000:00:0000:00:00
SQ9EZE-132026-08-30 11:37:1049.0325820.5867296°69km/h9474m4.6m/s-39.9°C13.3%302.2hPa2.9V00:00:0000:00:0000:00:00
OE3JTB-152026-08-30 11:37:0849.0326420.58593101°60km/h9459m4.9m/s-39.7°C15.7%302.7hPa2.9V00:00:0000:00:0000:00:00
SP9KGR-152026-08-30 11:37:0349.0327720.5849798°62km/h9441m2.7m/s-39.6°C14.3%303.5hPa2.9V00:00:0000:00:0000:00:00
SQ9EZE-152026-08-30 11:36:5849.0328720.58374100°64km/h9410m5.3m/s-39.5°C14.8%304.8hPa2.9V00:00:0000:00:0000:00:00
SQ9EZE-132026-08-30 11:36:5549.0329220.5830395°60km/h9395m5.3m/s-39.4°C15.2%305.7hPa2.9V00:00:0000:00:0000:00:00
SP9KGR-152026-08-30 11:36:4749.0330620.58106100°66km/h9351m4.9m/s-39.1°C14.8%307.6hPa2.9V00:00:0000:00:0000:00:00
SQ9EZE-132026-08-30 11:36:3849.0332220.5789092°64km/h9311m4.4m/s-38.7°C13.7%309.4hPa2.9V00:00:0000:00:0000:00:00
SP9KGR-152026-08-30 11:36:3149.0332520.5771898°64km/h9276m4.2m/s-38.5°C13.1%311.1hPa2.9V00:00:0000:00:0000:00:00
GYPAP8-172026-08-30 11:36:3049.0332720.5769499°62km/h9270m7.3m/s-38.4°C13.1%311.4hPa2.9V00:00:0000:00:0000:00:00
SQ9EZE-132026-08-30 11:36:2249.0332720.5750489°62km/h9225m5.5m/s-38.1°C12.2%313.3hPa2.9V00:00:0000:00:0000:00:00
SP9KGR-152026-08-30 11:36:1649.0333420.57373103°60km/h9189m7.5m/s-37.9°C12.0%314.7hPa2.9V00:00:0000:00:0000:00:00
OE3JTB-152026-08-30 11:36:1549.0334120.57326103°69km/h9177m8.0m/s-37.7°C13.9%315.2hPa2.9V00:00:0000:46:4900:00:00
SQ9EZE-132026-08-30 11:36:0849.0335120.5714389°66km/h9143m5.3m/s-37.5°C11.4%316.9hPa2.9V00:00:0000:00:0000:00:00
SP9KGR-152026-08-30 11:35:4549.0338020.5656299°68km/h9037m4.4m/s-36.6°C9.8%321.7hPa2.9V00:00:0000:00:0000:00:00
OE3JTB-152026-08-30 11:35:4449.0338620.56507101°64km/h9026m3.7m/s-36.4°C11.2%322.2hPa2.9V00:00:0000:00:0008:30:00
GYPAP8-172026-08-30 11:35:4349.0338720.56507102°75km/h9026m3.8m/s-36.5°C9.7%322.2hPa2.9V00:00:0000:00:0000:00:00
SQ9EZE-132026-08-30 11:35:3149.0340820.56201103°73km/h8966m7.5m/s-36.0°C8.9%325.0hPa2.9V00:00:0000:00:0000:00:00
SP9KGR-152026-08-30 11:35:3049.0341520.56149103°68km/h8955m6.8m/s-35.9°C9.0%325.5hPa2.9V00:00:0000:00:0000:00:00
SQ9EZE-132026-08-30 11:35:1649.0342520.5581693°69km/h8886m8.3m/s-35.3°C10.0%328.9hPa2.9V00:00:0000:00:0000:00:00
SP9KGR-152026-08-30 11:35:1349.0342520.5576388°69km/h8875m5.9m/s-35.2°C10.0%329.5hPa2.9V00:00:0000:00:0000:00:00
SQ9EZE-142026-08-30 11:35:0449.0341620.5555494°62km/h8831m2.7m/s-34.8°C9.2%331.7hPa2.9V00:00:0000:00:0000:00:00
SP9KGR-152026-08-30 11:34:5749.0342720.5537895°64km/h8794m3.5m/s-34.6°C9.0%333.5hPa2.9V00:00:0000:00:0000:00:00
SQ9EZE-142026-08-30 11:34:4849.0343220.5515899°66km/h8749m5.2m/s-34.2°C8.9%335.5hPa2.9V00:00:0000:00:0000:00:00
SQ9EZE-132026-08-30 11:34:4449.0344420.5506197°58km/h8730m4.1m/s-34.1°C9.0%336.4hPa2.9V00:00:0000:00:0000:00:00
SP9KGR-152026-08-30 11:34:4149.0344420.5499285°64km/h8715m5.5m/s-34.0°C8.6%337.2hPa2.9V00:00:0000:00:0000:00:00
SP9KGR-152026-08-30 11:34:2649.0345120.5463693°60km/h8623m4.3m/s-33.3°C8.7%341.6hPa2.9V00:00:0000:00:0000:00:00
SQ9EZE-132026-08-30 11:34:2549.0345220.5461295°62km/h8618m6.7m/s-33.3°C8.6%341.9hPa2.9V00:00:0000:00:0000:00:00
OE3JTB-152026-08-30 11:34:2449.0345520.5456399°62km/h8608m5.9m/s-33.2°C9.8%342.2hPa2.9V00:00:0000:00:0000:00:00
SQ9EZE-152026-08-30 11:34:2349.0345520.5456399°64km/h8608m5.9m/s-33.2°C8.6%342.3hPa2.9V00:00:0000:00:0000:00:00
SP9KGR-152026-08-30 11:34:1049.0346620.5425296°60km/h8547m6.8m/s-32.8°C9.3%345.4hPa2.9V00:00:0000:00:0000:00:00
SQ9EZE-132026-08-30 11:34:0949.0346720.5422790°64km/h8542m3.8m/s-32.7°C9.9%345.6hPa2.9V00:00:0000:00:0000:00:00
GYPAP8-172026-08-30 11:34:0749.0346420.5417783°66km/h8533m4.9m/s-32.7°C11.9%346.0hPa2.9V00:00:0000:00:0000:00:00
SQ9EZE-152026-08-30 11:34:0349.0345720.5405697°62km/h8505m3.9m/s-32.8°C19.7%347.3hPa2.9V00:00:0000:00:0000:00:00
SP9KGR-152026-08-30 11:33:5549.0346420.5387285°64km/h8466m6.6m/s-32.5°C22.3%349.3hPa2.9V00:00:0000:00:0000:00:00
SQ9EZE-132026-08-30 11:33:5449.0346320.5384788°66km/h8461m3.1m/s-32.5°C22.3%349.5hPa2.9V00:00:0000:00:0000:00:00
SP9KGR-152026-08-30 11:33:3849.0345320.5348689°58km/h8390m6.6m/s-31.9°C20.9%352.9hPa2.9V00:00:0000:00:0000:00:00
SQ9EZE-132026-08-30 11:33:3749.0345220.5346488°57km/h8384m5.2m/s-31.9°C21.0%353.2hPa2.9V00:00:0000:00:0000:00:00
SP9KGR-152026-08-30 11:33:2349.0344920.5315494°49km/h8320m5.3m/s-31.3°C16.8%356.4hPa2.9V00:00:0000:00:0000:00:00
SQ9EZE-132026-08-30 11:33:2049.0345120.5310190°44km/h8303m4.2m/s-31.1°C15.6%357.3hPa2.9V00:00:0000:00:0000:00:00
GYPAP8-172026-08-30 11:33:1849.0345120.5306792°47km/h8292m4.4m/s-31.1°C15.7%357.8hPa2.9V00:00:0000:00:0000:00:00
OE3JTB-152026-08-30 11:33:0849.0344820.5282887°55km/h8239m4.6m/s-30.6°C17.7%360.3hPa2.9V00:00:0000:00:0000:00:00
SP9KGR-152026-08-30 11:33:0749.0344820.5282887°49km/h8239m4.7m/s-30.6°C16.3%360.4hPa2.9V00:00:0000:00:0000:00:00
SQ9EZE-132026-08-30 11:33:0549.0344520.5277489°47km/h8224m3.1m/s-30.4°C12.9%361.3hPa2.9V00:00:0000:00:0000:00:00
SQ9EZE-152026-08-30 11:32:5449.0345420.5256690°62km/h8179m3.2m/s-30.1°C11.3%363.6hPa2.9V00:00:0000:00:0000:00:00
SP9KGR-152026-08-30 11:32:5149.0345220.5249589°64km/h8167m5.7m/s-30.0°C9.1%364.2hPa2.9V00:00:0000:00:0000:00:00
SQ9EZE-132026-08-30 11:32:4849.0345420.5242497°55km/h8154m2.8m/s-29.8°C8.8%365.0hPa2.9V00:00:0000:00:0000:00:00
SQ9EZE-142026-08-30 11:32:4449.0346420.52346101°51km/h8138m2.8m/s-29.7°C8.7%366.0hPa2.9V00:00:0000:00:0000:00:00
OE3JTB-152026-08-30 11:32:3949.0347020.5221794°53km/h8106m3.8m/s-29.5°C9.5%367.4hPa2.9V00:00:0000:00:0000:00:00
SP9KGR-152026-08-30 11:32:3549.0347220.5214994°57km/h8094m2.9m/s-29.5°C8.7%368.1hPa2.9V00:00:0000:00:0000:00:00
SQ9EZE-152026-08-30 11:32:3449.0347320.5212898°55km/h8089m6.1m/s-29.4°C8.7%368.3hPa2.9V00:00:0000:00:0000:00:00
SQ9EZE-132026-08-30 11:32:3249.0347720.52088101°51km/h8081m5.8m/s-29.4°C8.9%368.8hPa2.9V00:00:0000:00:0000:00:00
GYPAP8-172026-08-30 11:32:2949.0348020.5203289°49km/h8067m4.6m/s-29.3°C9.3%369.6hPa2.9V00:00:0000:00:0000:00:00
SQ9EZE-142026-08-30 11:32:2849.0347920.5201387°51km/h8063m3.3m/s-29.2°C9.4%369.8hPa2.9V00:00:0000:00:0000:00:00
SP9KGR-152026-08-30 11:32:2049.0347220.5182695°57km/h8025m3.5m/s-29.1°C10.2%371.7hPa2.9V00:00:0000:00:0000:00:00
SQ9EZE-132026-08-30 11:32:1749.0347320.5178496°57km/h8013m4.9m/s-29.0°C10.2%372.2hPa2.9V00:00:0000:00:0000:00:00
OE3JTB-152026-08-30 11:32:1049.0347820.5162589°57km/h7976m5.5m/s-28.7°C11.9%374.1hPa2.9V00:00:0000:42:4400:00:00
SP9KGR-152026-08-30 11:32:0549.0348120.5151698°51km/h7948m3.5m/s-28.6°C12.0%375.5hPa2.9V00:00:0000:00:0000:00:00
SQ9EZE-132026-08-30 11:32:0249.0348320.5145889°55km/h7934m3.6m/s-28.5°C12.2%376.3hPa2.9V00:00:0000:00:0000:00:00
SP9KGR-152026-08-30 11:31:4849.0349520.5117691°55km/h7865m5.6m/s-27.9°C12.1%379.8hPa2.9V00:00:0000:00:0000:00:00
SQ9EZE-132026-08-30 11:31:4649.0349520.5113387°57km/h7857m5.4m/s-27.8°C12.0%380.3hPa2.9V00:00:0000:00:0000:00:00
OE3JTB-152026-08-30 11:31:4149.0349320.5099691°55km/h7826m5.9m/s-27.5°C12.6%381.9hPa2.9V00:00:0000:00:0000:00:00
SP9KGR-152026-08-30 11:31:3349.0348420.5083086°57km/h7789m3.6m/s-27.2°C11.8%383.9hPa0V00:00:0000:00:0000:00:00
SQ9EZE-132026-08-30 11:31:3149.0348320.5080889°58km/h7785m4.4m/s-27.2°C11.9%384.1hPa0V00:00:0000:00:0000:00:00
SQ9EZE-152026-08-30 11:31:2649.0348420.5070091°57km/h7762m4.9m/s-27.1°C12.5%385.3hPa0V00:00:0000:00:0000:00:00
SP9KGR-152026-08-30 11:31:1749.0348420.5050191°53km/h7718m6.6m/s-26.8°C13.2%387.7hPa0V00:00:0000:00:0000:00:00
SQ9EZE-132026-08-30 11:31:1549.0348320.5046386°49km/h7704m5.0m/s-26.7°C13.9%388.5hPa0V00:00:0000:00:0000:00:00
OE3JTB-152026-08-30 11:31:1249.0347320.5038776°47km/h7679m7.9m/s0°C0%0hPa0V00:00:0000:00:0000:00:00
SQ9EZE-152026-08-30 11:31:0749.0346120.5028284°57km/h7649m8.0m/s-26.3°C21.2%391.5hPa0V00:00:0000:00:0000:00:00
SP9KGR-152026-08-30 11:31:0149.0345720.5017896°53km/h7615m5.0m/s-26.0°C21.0%393.2hPa0V00:00:0000:00:0000:00:00
SQ9EZE-132026-08-30 11:30:5949.0346020.50139100°49km/h7605m5.8m/s-25.9°C21.2%393.9hPa0V00:00:0000:00:0000:00:00
GYPAP8-172026-08-30 11:30:5349.0345920.5002182°55km/h7574m5.3m/s-25.6°C22.6%395.5hPa0V00:00:0000:00:0000:00:00
SP9KGR-152026-08-30 11:30:4649.0344320.4990484°40km/h7544m4.2m/s-25.3°C25.4%397.2hPa0V00:00:0000:00:0000:00:00
SQ9EZE-132026-08-30 11:30:4549.0344120.4987388°38km/h7534m7.2m/s-25.3°C25.4%397.7hPa0V00:00:0000:00:0000:00:00
SQ9EZE-142026-08-30 11:30:3449.0342920.4971882°40km/h7486m4.0m/s-24.8°C28.0%400.4hPa0V00:00:0000:00:0000:00:00
SP9KGR-152026-08-30 11:30:3149.0342820.4965694°46km/h7468m3.6m/s-24.6°C28.5%401.5hPa0V00:00:0000:00:0000:00:00
SQ9EZE-132026-08-30 11:30:2949.0342820.4963888°49km/h7464m2.8m/s-24.6°C28.5%401.7hPa0V00:00:0000:00:0000:00:00
SQ9EZE-142026-08-30 11:30:2049.0342520.4947189°47km/h7404m6.5m/s-24.1°C26.5%405.0hPa0V00:00:0000:00:0000:00:00
SP9KGR-152026-08-30 11:30:1549.0342620.4937686°46km/h7381m4.9m/s-23.9°C27.6%406.3hPa0V00:00:0000:00:0000:00:00
SQ9EZE-132026-08-30 11:30:1349.0342420.4935982°44km/h7377m3.3m/s-23.9°C28.0%406.6hPa0V00:00:0000:00:0000:00:00
GYPAP8-172026-08-30 11:30:0549.0341920.4923290°42km/h7340m4.0m/s-23.6°C28.3%408.5hPa0V00:00:0000:00:0000:00:00
SQ9EZE-142026-08-30 11:30:0449.0341820.4921685°44km/h7336m3.8m/s-23.6°C27.9%408.8hPa0V00:00:0000:00:0000:00:00
SQ9EZE-152026-08-30 11:29:5949.0340920.4912385°47km/h7316m4.2m/s-23.6°C28.7%410.0hPa0V00:00:0000:00:0000:00:00
SQ9EZE-132026-08-30 11:29:5849.0340820.4910586°47km/h7311m4.8m/s-23.6°C29.6%410.2hPa0V00:00:0000:00:0000:00:00
SQ9EZE-132026-08-30 11:29:4349.0338720.4883499°49km/h7246m4.2m/s-23.2°C32.4%413.8hPa0V00:00:0000:00:0000:00:00
SQ9EZE-152026-08-30 11:29:3849.0339020.4876481°40km/h7231m2.7m/s-23.0°C32.5%414.7hPa0V00:00:0000:00:0000:00:00
SQ9EZE-132026-08-30 11:29:2749.0336520.4859397°51km/h7177m4.3m/s-22.6°C30.3%417.7hPa0V00:00:0000:00:0000:00:00
GYPAP8-172026-08-30 11:29:2249.0336620.4848883°47km/h7145m6.0m/s-22.3°C29.3%419.6hPa0V00:00:0000:00:0000:00:00
SQ9EZE-132026-08-30 11:29:1249.0334520.4831684°47km/h7090m7.1m/s-21.9°C21.7%422.6hPa0V00:00:0000:00:0000:00:00
SP9KGR-152026-08-30 11:29:1149.0334320.4829880°46km/h7084m4.9m/s-21.9°C21.1%423.1hPa0V00:00:0000:00:0000:00:00
SQ9EZE-132026-08-30 11:28:5749.0330520.4805070°49km/h7011m5.6m/s-21.3°C27.4%427.1hPa0V00:00:0000:00:0000:00:00
SP9KGR-152026-08-30 11:28:5649.0330520.4805070°49km/h7011m5.6m/s-21.3°C27.4%427.1hPa0V00:00:0000:00:0000:00:00
SQ9EZE-132026-08-30 11:28:4249.0325120.4777368°44km/h6945m2.5m/s-20.9°C44.5%431.2hPa0V00:00:0000:00:0000:00:00
SP9KGR-152026-08-30 11:28:4049.0324620.4775868°44km/h6941m6.4m/s-20.9°C43.7%431.5hPa0V00:00:0000:00:0000:00:00
GYPAP8-172026-08-30 11:28:3649.0322720.4769466°44km/h6922m3.7m/s-20.7°C42.1%432.5hPa0V00:00:0000:00:0000:00:00
SQ9EZE-152026-08-30 11:28:3149.0321220.4762680°42km/h6900m3.5m/s-20.4°C41.7%433.8hPa0V00:00:0000:00:0000:00:00
SP9KGR-152026-08-30 11:28:2549.0319920.4751675°46km/h6874m4.0m/s-20.2°C42.5%435.4hPa0V00:00:0000:00:0000:00:00
OE3JTB-152026-08-30 11:28:1849.0316420.4738077°44km/h6829m3.5m/s0°C0%0hPa0V00:00:0000:38:5200:00:00
SQ9EZE-152026-08-30 11:28:1049.0315220.4726276°37km/h6796m3.6m/s-19.5°C40.3%440.1hPa0V00:00:0000:00:0000:00:00
SQ9EZE-132026-08-30 11:28:0949.0314920.4724871°37km/h6792m3.1m/s-19.5°C40.3%440.2hPa0V00:00:0000:00:0000:00:00
SQ9EZE-142026-08-30 11:28:0749.0314020.4722164°42km/h6781m5.0m/s-19.4°C40.2%440.9hPa0V00:00:0000:00:0000:00:00
SP9KGR-152026-08-30 11:27:5349.0310320.4699794°44km/h6693m5.4m/s-18.7°C36.1%446.2hPa0V00:00:0000:00:0000:00:00
GYPAP8-172026-08-30 11:27:5249.0310420.4698094°44km/h6687m6.7m/s-18.7°C36.0%446.5hPa0V00:00:0000:00:0000:00:00
SQ9EZE-142026-08-30 11:27:5149.0310420.4696394°44km/h6681m4.7m/s-18.6°C36.0%446.9hPa0V00:00:0000:00:0000:00:00
OE3JTB-152026-08-30 11:27:4949.0310320.4691580°40km/h6668m3.8m/s0°C0%0hPa0V00:00:0000:00:0000:00:00
SQ9EZE-132026-08-30 11:27:3949.0308620.4675389°46km/h6626m3.4m/s-18.2°C42.2%450.2hPa0V00:00:0000:00:0000:00:00
SP9KGR-152026-08-30 11:27:3849.0308620.4673689°42km/h6622m4.0m/s-18.2°C43.3%450.4hPa0V00:00:0000:00:0000:00:00
SQ9EZE-132026-08-30 11:27:2249.0307320.46500103°37km/h6557m7.3m/s-17.9°C45.9%454.4hPa0V00:00:0000:00:0000:00:00
GYPAP8-172026-08-30 11:27:0849.0306820.4627490°46km/h6476m3.9m/s-17.4°C48.6%459.4hPa0V00:00:0000:00:0000:00:00
SP9KGR-152026-08-30 11:27:0749.0306720.4625789°44km/h6472m4.9m/s-17.4°C48.9%459.6hPa0V00:00:0000:00:0000:00:00
SQ9EZE-132026-08-30 11:27:0649.0306720.4624086°46km/h6467m4.9m/s-17.4°C48.9%459.9hPa0V00:00:0000:00:0000:00:00
SQ9EZE-152026-08-30 11:27:0249.0306120.4616587°47km/h6447m5.8m/s-17.2°C48.4%461.1hPa0V00:00:0000:00:0000:00:00
SP9KGR-152026-08-30 11:26:5149.0304720.4598089°47km/h6385m6.7m/s-16.9°C56.4%465.0hPa0V00:00:0000:00:0000:00:00
SQ9EZE-132026-08-30 11:26:5049.0304720.4596292°47km/h6379m5.9m/s-16.9°C57.9%465.3hPa0V00:00:0000:00:0000:00:00
SQ9EZE-152026-08-30 11:26:4249.0304220.4580781°55km/h6337m4.4m/s-16.8°C70.5%468.0hPa0V00:00:0000:00:0000:00:00
SP9KGR-152026-08-30 11:26:3649.0302520.4570385°44km/h6300m8.3m/s-16.5°C73.4%470.3hPa0V00:00:0000:00:0000:00:00
SQ9EZE-132026-08-30 11:26:3549.0302620.4566797°47km/h6287m6.6m/s-16.4°C73.4%471.1hPa0V00:00:0000:00:0000:00:00
GYPAP8-172026-08-30 11:26:2449.0302620.4549676°46km/h6220m6.2m/s-15.9°C74.8%475.3hPa0V00:00:0000:00:0000:00:00
SP9KGR-152026-08-30 11:26:2049.0301820.4543390°40km/h6193m8.1m/s-15.7°C72.6%477.1hPa0V00:00:0000:00:0000:00:00
SQ9EZE-132026-08-30 11:26:1849.0302020.45401103°44km/h6180m8.7m/s-15.7°C73.1%477.9hPa0V00:00:0000:00:0000:00:00
SP9KGR-152026-08-30 11:26:0449.0302420.4514787°46km/h6089m4.8m/s-15.1°C73.6%483.5hPa0V00:00:0000:00:0000:00:00
SQ9EZE-142026-08-30 11:25:5449.0303620.44949105°51km/h6036m3.4m/s-14.6°C69.9%486.9hPa0V00:00:0000:00:0000:00:00
SP9KGR-152026-08-30 11:25:4849.0304020.4483489°46km/h5996m6.7m/s-14.2°C66.3%489.5hPa0V00:00:0000:00:0000:00:00
SQ9EZE-132026-08-30 11:25:4649.0304120.44801100°42km/h5983m4.7m/s-14.1°C66.3%490.3hPa0V00:00:0000:00:0000:00:00
GYPAP8-172026-08-30 11:25:4049.0305620.4468099°57km/h5944m8.4m/s-13.8°C0%0hPa0V00:00:0000:00:0000:00:00
SQ9EZE-142026-08-30 11:25:3849.0305920.4464297°44km/h5930m5.8m/s-13.7°C0%493.9hPa0V00:00:0000:00:0000:00:00
SQ9EZE-152026-08-30 11:25:3449.0306220.4458095°42km/h5904m7.5m/s-13.5°C65.7%495.6hPa0V00:00:0000:00:0000:00:00
SP9KGR-152026-08-30 11:25:3249.0306420.4454395°53km/h5891m6.9m/s-13.4°C67.8%496.4hPa0V00:00:0000:00:0000:00:00
SQ9EZE-132026-08-30 11:25:3049.0306520.4449895°60km/h5878m4.7m/s-13.3°C70.0%497.1hPa0V00:00:0000:00:0000:00:00
SP9KGR-152026-08-30 11:25:1749.0309720.4424099°49km/h5809m4.6m/s-12.6°C67.7%501.7hPa0V00:00:0000:00:0000:00:00
SQ9EZE-152026-08-30 11:25:1549.0310220.44181101°53km/h5795m4.4m/s-12.5°C66.9%502.7hPa0V00:00:0000:00:0000:00:00
SP9KGR-152026-08-30 11:25:0149.0313620.4393699°49km/h5733m4.3m/s-12.0°C65.2%506.9hPa0V00:00:0000:00:0000:00:00
SQ9EZE-132026-08-30 11:24:5949.0313920.4389798°53km/h5724m5.8m/s-12.0°C63.2%507.5hPa0V00:00:0000:00:0000:00:00
GYPAP8-172026-08-30 11:24:5249.0316020.43766114°44km/h5690m5.8m/s-11.7°C0%0hPa0V00:00:0000:00:0000:00:00
SP9KGR-152026-08-30 11:24:4649.0318320.4367096°44km/h5653m6.6m/s-11.3°C61.0%512.1hPa0V00:00:0000:00:0000:00:00
SQ9EZE-132026-08-30 11:24:4449.0318420.4365393°47km/h5646m6.3m/s-11.3°C60.7%512.5hPa0V00:00:0000:00:0000:00:00
SP9KGR-152026-08-30 11:24:3049.0321920.43399109°49km/h5547m5.5m/s-10.5°C61.3%519.2hPa0V00:00:0000:00:0000:00:00
SQ9EZE-132026-08-30 11:24:2949.0322720.43363110°51km/h5538m4.8m/s-10.5°C63.4%519.8hPa0V00:00:0000:00:0000:00:00
SP9KGR-152026-08-30 11:24:1549.0326320.43103104°66km/h5459m7.9m/s-9.9°C67.8%525.0hPa0V00:00:0000:00:0000:00:00
SQ9EZE-132026-08-30 11:24:1249.0327320.43056114°62km/h5444m7.1m/s-9.9°C71.4%526.1hPa0V00:00:0000:00:0000:00:00
SQ9EZE-152026-08-30 11:24:0649.0330220.4295995°37km/h5408m7.8m/s-9.6°C73.1%528.7hPa0V00:00:0000:00:0000:00:00
GYPAP8-172026-08-30 11:24:0449.0329920.4291580°40km/h5386m7.3m/s-9.5°C0%0hPa0V00:00:0000:00:0000:00:00
SP9KGR-152026-08-30 11:23:5949.0330120.42847103°47km/h5362m7.5m/s-9.2°C72.7%531.8hPa0V00:00:0000:00:0000:00:00
SQ9EZE-132026-08-30 11:23:5749.0330620.42810102°51km/h5347m6.9m/s-9.2°C73.2%532.8hPa0V00:00:0000:00:0000:00:00
SQ9EZE-152026-08-30 11:23:4649.0332420.4261395°37km/h5292m4.8m/s-8.7°C0%0hPa0V00:00:0000:00:0000:00:00
SP9KGR-152026-08-30 11:23:4449.0332620.4259099°27km/h5282m2.9m/s-8.6°C73.5%537.3hPa0V00:00:0000:00:0000:00:00
SQ9EZE-132026-08-30 11:23:4249.0332720.4256988°27km/h5275m4.3m/s-8.6°C73.5%537.9hPa0V00:00:0000:00:0000:00:00
SQ9EZE-142026-08-30 11:23:4149.0332520.4255877°33km/h5271m4.2m/s-8.5°C0%538.2hPa0V00:00:0000:00:0000:00:00
SP9KGR-152026-08-30 11:23:3049.0331420.4235595°37km/h5196m7.3m/s-8.0°C71.2%543.3hPa0V00:00:0000:00:0000:00:00
SQ9EZE-132026-08-30 11:23:2749.0331620.4232694°38km/h5181m7.8m/s-7.8°C70.5%544.3hPa0V00:00:0000:00:0000:00:00
SQ9EZE-142026-08-30 11:23:2649.0331620.4229693°40km/h5169m4.6m/s0°C0%545.3hPa0V00:00:0000:00:0000:00:00
GYPAP8-172026-08-30 11:23:1449.0333420.42128110°35km/h5116m5.2m/s-7.2°C0%0hPa0V00:00:0000:00:0000:00:00
SP9KGR-152026-08-30 11:23:1349.0333620.42116100°31km/h5111m5.0m/s-7.1°C68.1%549.4hPa0V00:00:0000:00:0000:00:00
SQ9EZE-132026-08-30 11:23:1149.0333720.4209582°26km/h5101m6.8m/s-7.0°C67.1%550.1hPa0V00:00:0000:00:0000:00:00
SP9KGR-152026-08-30 11:22:5749.0334020.41897110°38km/h5022m6.6m/s-6.4°C63.0%555.8hPa0V00:00:0000:00:0000:00:00
SQ9EZE-132026-08-30 11:22:5549.0334720.41869112°40km/h5012m3.9m/s-6.3°C62.5%556.5hPa0V00:00:0000:00:0000:00:00
SQ9EZE-152026-08-30 11:22:4349.0334020.4171785°40km/h4951m5.1m/s-6.1°C0%0hPa0V00:00:0000:00:0000:00:00
SP9KGR-152026-08-30 11:22:4249.0333920.4170289°38km/h4946m5.5m/s-6.0°C0%561.1hPa0V00:00:0000:00:0000:00:00
SQ9EZE-132026-08-30 11:22:4049.0333820.4167390°37km/h4933m7.5m/s-6.0°C66.6%562.0hPa0V00:00:0000:00:0000:00:00
SP9KGR-152026-08-30 11:22:2649.0334720.41469104°51km/h4870m4.2m/s0°C0%566.7hPa0V00:00:0000:00:0000:00:00
SQ9EZE-132026-08-30 11:22:2449.0335120.4142997°51km/h4861m3.7m/s-5.9°C72.6%567.2hPa0V00:00:0000:00:0000:00:00
SQ9EZE-152026-08-30 11:22:2249.0335120.4139185°49km/h4852m5.2m/s0°C0%0hPa0V00:00:0000:00:0000:00:00
SP9KGR-152026-08-30 11:22:1049.0335920.4119997°53km/h4786m8.8m/s0°C0%572.7hPa0V00:00:0000:00:0000:00:00
SQ9EZE-132026-08-30 11:22:0949.0336020.4117996°51km/h4778m7.6m/s-5.3°C72.0%573.2hPa0V00:00:0000:00:0000:00:00
SP9KGR-152026-08-30 11:21:5449.0336620.4095494°49km/h4703m7.6m/s0°C0%578.7hPa0V00:00:0000:00:0000:00:00
SQ9EZE-132026-08-30 11:21:5349.0336720.4093595°49km/h4696m6.8m/s-4.7°C72.7%579.3hPa0V00:00:0000:00:0000:00:00
GYPAP8-172026-08-30 11:21:3949.0338620.4071289°40km/h4627m4.0m/s-4.2°C0%0hPa0V00:00:0000:00:0000:00:00
SP9KGR-152026-08-30 11:21:3849.0338520.4069787°40km/h4624m3.6m/s0°C0%584.7hPa0V00:00:0000:00:0000:00:00
SQ9EZE-132026-08-30 11:21:3749.0338420.4068192°42km/h4620m3.7m/s-4.1°C74.2%585.0hPa0V00:00:0000:00:0000:00:00
SQ9EZE-142026-08-30 11:21:2749.0341920.4054398°40km/h4583m6.3m/s0°C0%0hPa0V00:00:0000:00:0000:00:00
SP9KGR-152026-08-30 11:21:2349.0342420.40476100°44km/h4556m5.9m/s0°C0%0hPa0V00:00:0000:00:0000:00:00
SQ9EZE-132026-08-30 11:21:2149.0342820.40445107°40km/h4545m5.7m/s-3.6°C0%0hPa0V00:00:0000:00:0000:00:00
SQ9EZE-152026-08-30 11:21:1949.0343320.40417103°33km/h4537m4.0m/s0°C0%0hPa0V00:00:0000:00:0000:00:00
SQ9EZE-142026-08-30 11:21:1249.0342520.4031686°42km/h4511m4.3m/s0°C0%0hPa0V00:00:0000:00:0000:00:00
SP9KGR-152026-08-30 11:21:0749.0343220.40234107°42km/h4482m5.8m/s0°C0%0hPa0V00:00:0000:00:0000:00:00
SQ9EZE-152026-08-30 11:20:5849.0345220.40101100°44km/h4447m4.0m/s0°C0%0hPa0V00:00:0000:00:0000:00:00
SQ9EZE-132026-08-30 11:20:4949.0344520.3997076°33km/h4417m3.6m/s0°C0%0hPa0V00:00:0000:00:0000:00:00
GYPAP8-172026-08-30 11:20:4849.0344320.3995878°35km/h4413m3.9m/s-2.6°C0%0hPa0V00:00:0000:00:0000:00:00
SQ9EZE-132026-08-30 11:20:3449.0347320.39745127°38km/h4337m3.7m/s0°C0%0hPa0V00:00:0000:00:0000:00:00
SQ9EZE-132026-08-30 11:20:1749.0351520.3955095°26km/h4269m4.2m/s0°C0%0hPa0V00:00:0000:00:0000:00:00
GYPAP8-172026-08-30 11:20:0049.0353820.39345118°27km/h4181m5.1m/s0°C0%0hPa0V00:00:0000:00:0000:00:00
SQ9EZE-132026-08-30 11:19:5749.0354520.39316111°27km/h4166m6.5m/s0°C0%0hPa0V00:00:0000:00:0000:00:00
SQ9EZE-132026-08-30 11:19:4249.0356820.39093108°40km/h4084m6.2m/s0°C0%0hPa0V00:00:0000:00:0000:00:00
GYPAP8-172026-08-30 11:19:1649.0363120.38770116°27km/h3961m3.1m/s0°C0%0hPa0V00:00:0000:00:0000:00:00
GYPAP8-172026-08-30 11:18:3249.0366620.3823295°24km/h3765m4.2m/s0°C0%0hPa0V00:00:0000:00:0000:00:00
GYPAP8-172026-08-30 11:17:4549.0362920.3771572°40km/h3544m3.6m/s0°C0%0hPa0V00:00:0000:00:0000:00:00
GYPAP8-172026-08-30 11:16:5649.0363320.3709487°44km/h3293m4.7m/s0°C0%0hPa0V00:00:0000:00:0000:00:00


GPX KML Map

© wettersonde.net (DO2JMG) - 2026  -  -